Provisional Data: Starrucca Creek near Stevens Point, PA


Please select a monitoring station.
Please select start date.
Please select start date.

Toggle Unit: C/F Toggle Unit: C/F
Sample Time Temperature (C) Temperature (F) Specific Conductivity (mS/cm) pH   Turbidity (NTU+) DO (mg/L)
6/3/2022 12:00:00 AM 16.98 62.564 0.086 7.16 2.78 8.56
6/3/2022 12:15:00 AM 16.8 62.24 0.086 6.99 2.5 8.46
6/3/2022 12:30:00 AM 16.78 62.204 0.086 6.98 2.55 8.47
6/3/2022 12:45:00 AM 16.78 62.204 0.086 7.03 2.4 8.56
6/3/2022 1:00:00 AM 16.69 62.042 0.086 7.01 2.57 8.53
6/3/2022 1:15:00 AM 16.64 61.952 0.086 7.05 2.28 8.58
6/3/2022 1:30:00 AM 16.61 61.898 0.086 7.11 2.32 8.64
6/3/2022 1:45:00 AM 16.48 61.664 0.086 6.99 2 8.53
6/3/2022 2:00:00 AM 16.4 61.52 0.086 7 2.14 8.58
6/3/2022 2:15:00 AM 16.4 61.52 0.086 6.99 2.5 8.62
6/3/2022 2:30:00 AM 16.31 61.358 0.087 6.98 2.28 8.6
6/3/2022 2:45:00 AM 16.28 61.304 0.086 7.02 2.22 8.64
6/3/2022 3:00:00 AM 16.23 61.214 0.086 7.02 2.1 8.65
6/3/2022 3:15:00 AM 16.18 61.124 0.086 7.06 2.53 8.65
6/3/2022 3:30:00 AM 16.13 61.034 0.086 7.06 2.09 8.69
6/3/2022 3:45:00 AM 16.1 60.98 0.086 7.01 2.14 8.68
6/3/2022 4:00:00 AM 16.03 60.854 0.086 7.06 1.95 8.68
6/3/2022 4:15:00 AM 15.95 60.71 0.086 6.99 1.96 8.64
6/3/2022 4:30:00 AM 15.93 60.674 0.086 7.01 2 8.68
6/3/2022 4:45:00 AM 15.91 60.638 0.086 7.02 3.68 8.7
6/3/2022 5:00:00 AM 15.85 60.53 0.086 7.02 2.13 8.7
6/3/2022 5:15:00 AM 15.81 60.458 0.086 7.05 2.32 8.73
6/3/2022 5:30:00 AM 15.79 60.422 0.087 7.08 1.82 8.77
6/3/2022 5:45:00 AM 15.76 60.368 0.087 7.07 2.5 8.78
6/3/2022 6:00:00 AM 15.66 60.188 0.087 7.03 1.95 8.76
6/3/2022 6:15:00 AM 15.62 60.116 0.087 7.06 2.57 8.81
6/3/2022 6:30:00 AM 15.62 60.116 0.087 7.04 2.15 8.89
6/3/2022 6:45:00 AM 15.65 60.17 0.087 7.12 2.02 9.04
6/3/2022 7:00:00 AM 15.62 60.116 0.087 7.1 1.9 9.16
6/3/2022 7:15:00 AM 15.64 60.152 0.086 7.15 1.84 9.25
6/3/2022 7:30:00 AM 15.6 60.08 0.086 7.12 1.98 9.33
6/3/2022 7:45:00 AM 15.56 60.008 0.086 6.99 2.06 9.38
6/3/2022 8:00:00 AM 15.62 60.116 0.086 7.19 1.69 9.58
6/3/2022 8:15:00 AM 15.63 60.134 0.086 7.14 2.03 9.58
6/3/2022 8:30:00 AM 15.78 60.404 0.086 7.17 1.85 9.74
6/3/2022 8:45:00 AM 15.84 60.512 0.085 7.31 1.81 9.75
6/3/2022 9:00:00 AM 15.86 60.548 0.085 7.25 1.93 9.7
6/3/2022 9:15:00 AM 15.99 60.782 0.085 7.34 1.93 9.78
6/3/2022 9:30:00 AM 16.06 60.908 0.085 7.12 1.94 9.8
6/3/2022 9:45:00 AM 16.18 61.124 0.085 7.29 1.89 9.82
6/3/2022 10:00:00 AM 16.31 61.358 0.085 7.32 1.86 9.89
6/3/2022 10:15:00 AM 16.47 61.646 0.085 7.34 1.81 9.84
6/3/2022 10:30:00 AM 16.59 61.862 0.085 7.36 2.29 9.83
6/3/2022 10:45:00 AM 16.84 62.312 0.085 7.33 1.95 9.8
6/3/2022 11:00:00 AM 17.06 62.708 0.085 7.39 1.81 9.82
6/3/2022 11:15:00 AM 17.33 63.194 0.085 7.4 1.89 9.83
6/3/2022 11:30:00 AM 17.73 63.914 0.085 7.76 1.72 9.98
6/3/2022 11:45:00 AM 17.85 64.13 0.084 7.56 1.73 9.83
6/3/2022 12:00:00 PM 18.19 64.742 0.084 7.61 1.66 9.8
6/3/2022 12:15:00 PM 18.49 65.282 0.084 7.8 1.91 9.8
6/3/2022 12:30:00 PM 18.75 65.75 0.084 7.77 1.81 9.82
6/3/2022 12:45:00 PM 19.02 66.236 0.084 7.67 1.74 9.66
6/3/2022 1:00:00 PM 19.36 66.848 0.084 8 1.85 9.65
6/3/2022 1:15:00 PM 19.54 67.172 0.084 7.9 1.79 9.57
6/3/2022 1:30:00 PM 19.83 67.694 0.084 7.98 1.73 9.56
6/3/2022 1:45:00 PM 20.06 68.108 0.084 8.06 1.91 9.52
6/3/2022 2:00:00 PM 20.12 68.216 0.084 7.8 1.68 9.36
6/3/2022 2:15:00 PM 20.37 68.666 0.084 7.74 1.97 9.22
6/3/2022 2:30:00 PM 20.58 69.044 0.084 7.86 1.99 9.23
6/3/2022 2:45:00 PM 20.59 69.062 0.084 7.76 1.58 9.16
6/3/2022 3:00:00 PM 20.8 69.44 0.084 7.9 1.73 9.18
6/3/2022 3:15:00 PM 20.9 69.62 0.084 7.81 2.33 9.1
6/3/2022 3:30:00 PM 20.8 69.44 0.085 7.57 1.85 8.91
6/3/2022 3:45:00 PM 20.9 69.62 0.085 7.62 1.75 8.91
6/3/2022 4:00:00 PM 21 69.8 0.085 7.85 1.92 8.98
6/3/2022 4:15:00 PM 20.98 69.764 0.085 7.74 1.53 8.89
6/3/2022 4:30:00 PM 20.95 69.71 0.085 7.47 1.68 8.78
6/3/2022 4:45:00 PM 20.82 69.476 0.085 7.45 1.67 8.74
6/3/2022 5:00:00 PM 20.8 69.44 0.086 7.59 1.82 8.7
6/3/2022 5:15:00 PM 20.66 69.188 0.086 7.39 1.56 8.61
6/3/2022 5:30:00 PM 20.63 69.134 0.086 7.4 1.75 8.59
6/3/2022 5:45:00 PM 20.57 69.026 0.086 7.49 1.76 8.61
6/3/2022 6:00:00 PM 20.48 68.864 0.086 7.36 1.9 8.53
6/3/2022 6:15:00 PM 20.42 68.756 0.086 7.46 1.59 8.55
6/3/2022 6:30:00 PM 20.28 68.504 0.086 7.39 1.89 8.49
6/3/2022 6:45:00 PM 20.18 68.324 0.086 7.35 1.85 8.42
6/3/2022 7:00:00 PM 20.01 68.018 0.087 7.3 1.47 8.33
6/3/2022 7:15:00 PM 19.92 67.856 0.087 7.27 1.53 8.31
6/3/2022 7:30:00 PM 19.81 67.658 0.087 7.29 1.89 8.27
6/3/2022 7:45:00 PM 19.59 67.262 0.088 7.19 1.76 8.21
6/3/2022 8:00:00 PM 19.49 67.082 0.088 7.25 2.01 8.19
6/3/2022 8:15:00 PM 19.32 66.776 0.088 7.23 1.83 8.14
6/3/2022 8:30:00 PM 19.17 66.506 0.088 7.19 1.81 8.14
6/3/2022 8:45:00 PM 18.99 66.182 0.089 7.2 1.66 8.12
6/3/2022 9:00:00 PM 18.83 65.894 0.089 7.19 1.75 8.09
6/3/2022 9:15:00 PM 18.64 65.552 0.089 7.17 1.65 8.05
6/3/2022 9:30:00 PM 18.48 65.264 0.089 7.17 2.04 8.07
6/3/2022 9:45:00 PM 18.29 64.922 0.089 7.11 1.87 8.11
6/3/2022 10:00:00 PM 18.11 64.598 0.089 7.08 1.67 8.08
6/3/2022 10:15:00 PM 17.93 64.274 0.089 7.07 1.6 8.13
6/3/2022 10:30:00 PM 17.8 64.04 0.089 7.11 2.25 8.21
6/3/2022 10:45:00 PM 17.62 63.716 0.089 7.08 1.85 8.21
6/3/2022 11:00:00 PM 17.5 63.5 0.089 7.15 2 8.33
6/3/2022 11:15:00 PM 17.3 63.14 0.089 7.08 2.14 8.25
6/3/2022 11:30:00 PM 17.17 62.906 0.089 7.14 1.8 8.34
6/3/2022 11:45:00 PM 17.03 62.654 0.089 7.11 1.85 8.34
6/4/2022 12:00:00 AM 16.86 62.348 0.089 7.06 1.83 8.34
6/4/2022 12:15:00 AM 16.73 62.114 0.089 7.09 1.95 8.37
6/4/2022 12:30:00 AM 16.59 61.862 0.089 7.12 2.02 8.46
6/4/2022 12:45:00 AM 16.42 61.556 0.09 7.02 1.78 8.42
6/4/2022 1:00:00 AM 16.29 61.322 0.09 7.08 1.95 8.47
6/4/2022 1:15:00 AM 16.16 61.088 0.09 7.05 1.83 8.49
6/4/2022 1:30:00 AM 16.03 60.854 0.09 7.03 1.71 8.53
6/4/2022 1:45:00 AM 15.91 60.638 0.09 7.1 2.13 8.6
6/4/2022 2:00:00 AM 15.76 60.368 0.09 7.04 2.1 8.59
6/4/2022 2:15:00 AM 15.66 60.188 0.09 7.07 2.01 8.67
6/4/2022 2:30:00 AM 15.54 59.972 0.09 7.09 1.85 8.7
6/4/2022 2:45:00 AM 15.4 59.72 0.09 7.02 2.49 8.7
6/4/2022 3:00:00 AM 15.29 59.522 0.09 7.06 1.74 8.78
6/4/2022 3:15:00 AM 15.18 59.324 0.09 7.08 2.31 8.79
6/4/2022 3:30:00 AM 15.02 59.036 0.09 7.01 1.79 8.75
6/4/2022 3:45:00 AM 14.94 58.892 0.09 7.02 2.01 8.83
6/4/2022 4:00:00 AM 14.79 58.622 0.09 6.98 1.88 8.78
6/4/2022 4:15:00 AM 14.7 58.46 0.09 6.97 1.67 8.78
6/4/2022 4:30:00 AM 14.6 58.28 0.09 7.02 2.06 8.88
6/4/2022 4:45:00 AM 14.5 58.1 0.09 7.01 1.76 8.92
6/4/2022 5:00:00 AM 14.4 57.92 0.09 7.05 1.92 8.98
6/4/2022 5:15:00 AM 14.28 57.704 0.09 6.98 1.89 8.96
6/4/2022 5:30:00 AM 14.18 57.524 0.09 6.98 1.99 8.95
6/4/2022 5:45:00 AM 14.08 57.344 0.09 7.01 1.89 9.03
6/4/2022 6:00:00 AM 13.99 57.182 0.09 7 1.74 9.05
6/4/2022 6:15:00 AM 13.88 56.984 0.09 6.97 1.84 9.08
6/4/2022 6:30:00 AM 13.79 56.822 0.09 6.99 1.64 9.23
6/4/2022 6:45:00 AM 13.72 56.696 0.09 7.06 1.83 9.32
6/4/2022 7:00:00 AM 13.66 56.588 0.09 7.05 1.91 9.37
6/4/2022 7:15:00 AM 13.62 56.516 0.09 7.1 1.87 9.48
6/4/2022 7:30:00 AM 13.58 56.444 0.089 7.13 1.85 9.63
6/4/2022 7:45:00 AM 13.57 56.426 0.089 7.14 1.81 9.73
6/4/2022 8:00:00 AM 13.57 56.426 0.089 7.12 1.78 9.77
6/4/2022 8:15:00 AM 13.64 56.552 0.089 7.2 2.07 9.88
6/4/2022 8:30:00 AM 13.76 56.768 0.089 7.17 1.94 9.9
6/4/2022 8:45:00 AM 13.88 56.984 0.089 7.15 2.33 9.98
6/4/2022 9:00:00 AM 14.04 57.272 0.089 7.31 2.1 10.12
6/4/2022 9:15:00 AM 14.14 57.452 0.089 7.28 1.65 10.13
6/4/2022 9:30:00 AM 14.27 57.686 0.088 7.22 1.84 10.12
6/4/2022 9:45:00 AM 14.45 58.01 0.088 7.23 1.92 10.12
6/4/2022 10:00:00 AM 14.63 58.334 0.088 7.3 1.87 10.19
6/4/2022 10:15:00 AM 14.89 58.802 0.088 7.4 1.66 10.25
6/4/2022 10:30:00 AM 15.07 59.126 0.088 7.37 1.73 10.17
6/4/2022 10:45:00 AM 15.33 59.594 0.088 7.39 1.67 10.16
6/4/2022 11:00:00 AM 15.73 60.314 0.088 7.56 1.55 10.2
6/4/2022 11:15:00 AM 16.01 60.818 0.088 7.48 1.72 10.14
6/4/2022 11:30:00 AM 16.37 61.466 0.088 7.61 1.95 10.15
6/4/2022 11:45:00 AM 16.74 62.132 0.088 7.64 1.74 10.13
6/4/2022 12:00:00 PM 17.06 62.708 0.088 7.67 1.81 10.06
6/4/2022 12:15:00 PM 17.36 63.248 0.087 7.64 2.28 9.98
6/4/2022 12:30:00 PM 17.72 63.896 0.088 7.73 1.52 9.95
6/4/2022 12:45:00 PM 18.05 64.49 0.087 7.82 1.47 9.91
6/4/2022 1:00:00 PM 18.35 65.03 0.087 7.85 1.46 9.85
6/4/2022 1:15:00 PM 18.71 65.67799 0.087 7.96 1.57 9.81
6/4/2022 1:30:00 PM 18.97 66.146 0.087 7.97 1.73 9.74
6/4/2022 1:45:00 PM 19.23 66.614 0.087 8.05 1.57 9.68
6/4/2022 2:00:00 PM 19.52 67.136 0.087 8.08 1.68 9.63
6/4/2022 2:15:00 PM 19.66 67.388 0.087 7.97 4.71 9.5
6/4/2022 2:30:00 PM 19.81 67.658 0.087 7.93 1.43 9.43
6/4/2022 2:45:00 PM 19.92 67.856 0.087 7.94 1.65 9.34
6/4/2022 3:00:00 PM 20.03 68.054 0.087 7.93 1.5 9.3
6/4/2022 3:15:00 PM 20.15 68.27 0.087 7.88 1.52 9.23
6/4/2022 3:30:00 PM 20.22 68.396 0.087 7.82 1.52 9.15
6/4/2022 3:45:00 PM 20.29 68.522 0.088 7.82 1.44 9.1
6/4/2022 4:00:00 PM 20.3 68.54 0.088 7.8 1.44 9.05
6/4/2022 4:15:00 PM 20.24 68.432 0.088 7.64 1.54 8.96
6/4/2022 4:30:00 PM 20.22 68.396 0.088 7.64 1.41 8.92
6/4/2022 4:45:00 PM 20.19 68.342 0.088 7.6 1.59 8.87
6/4/2022 5:00:00 PM 20.07 68.126 0.089 7.52 1.52 8.82
6/4/2022 5:15:00 PM 20.02 68.036 0.089 7.54 1.47 8.78
6/4/2022 5:30:00 PM 19.9 67.82 0.089 7.46 1.36 8.71
6/4/2022 5:45:00 PM 19.75 67.55 0.089 7.4 1.41 8.66
6/4/2022 6:00:00 PM 19.63 67.334 0.089 7.38 1.39 8.61
6/4/2022 6:15:00 PM 19.53 67.154 0.089 7.34 1.5 8.56
6/4/2022 6:30:00 PM 19.37 66.866 0.09 7.3 1.59 8.49
6/4/2022 6:45:00 PM 19.21 66.578 0.09 7.29 1.55 8.41
6/4/2022 7:00:00 PM 19.07 66.326 0.09 7.29 1.61 8.38
6/4/2022 7:15:00 PM 18.89 66.002 0.09 7.27 2.12 8.33
6/4/2022 7:30:00 PM 18.75 65.75 0.09 7.24 1.54 8.32
6/4/2022 7:45:00 PM 18.58 65.444 0.09 7.21 1.37 8.27
6/4/2022 8:00:00 PM 18.46 65.228 0.091 7.22 1.4 8.27
6/4/2022 8:15:00 PM 18.29 64.922 0.091 7.16 1.53 8.24
6/4/2022 8:30:00 PM 18.11 64.598 0.091 7.16 1.49 8.23
6/4/2022 8:45:00 PM 17.96 64.328 0.091 7.16 1.65 8.2
6/4/2022 9:00:00 PM 17.77 63.986 0.092 7.14 1.74 8.19
6/4/2022 9:15:00 PM 17.56 63.608 0.092 7.13 1.77 8.18
6/4/2022 9:30:00 PM 17.35 63.23 0.092 7.13 1.7 8.18
6/4/2022 9:45:00 PM 17.18 62.924 0.092 7.11 1.64 8.17
6/4/2022 10:00:00 PM 17.01 62.618 0.092 7.12 1.9 8.26
6/4/2022 10:15:00 PM 16.83 62.294 0.092 7.11 1.69 8.3
6/4/2022 10:30:00 PM 16.65 61.97 0.092 7.13 1.64 8.32
6/4/2022 10:45:00 PM 16.49 61.682 0.092 7.08 1.52 8.37
6/4/2022 11:00:00 PM 16.32 61.376 0.093 7.13 1.66 8.41
6/4/2022 11:15:00 PM 16.16 61.088 0.093 7.06 1.84 8.44
6/4/2022 11:30:00 PM 15.98 60.764 0.093 7.06 1.67 8.48
6/4/2022 11:45:00 PM 15.79 60.422 0.093 7.05 1.56 8.46
6/5/2022 12:00:00 AM 15.64 60.152 0.093 7.02 1.97 8.54
6/5/2022 12:15:00 AM 15.5 59.9 0.093 7.06 1.64 8.58
6/5/2022 12:30:00 AM 15.36 59.648 0.093 7.1 1.59 8.61
6/5/2022 12:45:00 AM 15.21 59.378 0.093 7.09 1.68 8.69
6/5/2022 1:00:00 AM 15.04 59.072 0.093 7.06 1.67 8.71
6/5/2022 1:15:00 AM 14.88 58.784 0.093 7.06 1.91 8.7
6/5/2022 1:30:00 AM 14.74 58.532 0.093 7.05 1.62 8.77
6/5/2022 1:45:00 AM 14.6 58.28 0.093 6.95 1.6 8.84
6/5/2022 2:00:00 AM 14.45 58.01 0.093 7.07 1.67 8.84
6/5/2022 2:15:00 AM 14.29 57.722 0.093 7.02 1.52 8.88
6/5/2022 2:30:00 AM 14.13 57.434 0.093 6.99 1.5 8.89
6/5/2022 2:45:00 AM 13.98 57.164 0.093 6.98 1.78 8.9
6/5/2022 3:00:00 AM 13.85 56.93 0.093 7.01 1.74 8.95
6/5/2022 3:15:00 AM 13.72 56.696 0.093 6.96 1.9 8.98
6/5/2022 3:30:00 AM 13.56 56.408 0.093 6.93 1.85 8.99
6/5/2022 3:45:00 AM 13.45 56.21 0.093 7 1.58 9.1
6/5/2022 4:00:00 AM 13.33 55.994 0.093 7.05 1.79 9.17
6/5/2022 4:15:00 AM 13.16 55.688 0.093 6.88 1.6 9.11
6/5/2022 4:30:00 AM 13.07 55.526 0.093 7 1.74 9.22
6/5/2022 4:45:00 AM 12.94 55.292 0.093 6.94 1.76 9.23
6/5/2022 5:00:00 AM 12.8 55.04 0.093 6.93 1.55 9.2
6/5/2022 5:15:00 AM 12.69 54.842 0.093 6.95 1.44 9.21
6/5/2022 5:30:00 AM 12.61 54.698 0.093 6.92 1.54 9.34
6/5/2022 5:45:00 AM 12.5 54.5 0.093 6.92 1.69 9.31
6/5/2022 6:00:00 AM 12.39 54.302 0.093 6.96 1.59 9.42
6/5/2022 6:15:00 AM 12.28 54.104 0.093 7.01 1.71 9.5
6/5/2022 6:30:00 AM 12.19 53.942 0.093 7 1.42 9.6
6/5/2022 6:45:00 AM 12.12 53.816 0.093 6.94 1.43 9.61
6/5/2022 7:00:00 AM 12.04 53.672 0.092 6.94 1.62 9.69
6/5/2022 7:15:00 AM 12 53.6 0.092 7.05 1.61 9.92
6/5/2022 7:30:00 AM 11.95 53.51 0.092 7.06 1.49 9.97
6/5/2022 7:45:00 AM 11.98 53.564 0.092 7.13 1.4 10.17
6/5/2022 8:00:00 AM 11.98 53.564 0.092 7.04 1.57 10.26
6/5/2022 8:15:00 AM 12.02 53.636 0.091 7.14 1.53 10.35
6/5/2022 8:30:00 AM 12.09 53.762 0.091 7.22 1.53 10.53
6/5/2022 8:45:00 AM 12.19 53.942 0.091 7.14 1.57 10.59
6/5/2022 9:00:00 AM 12.26 54.068 0.091 7.17 1.43 10.62
6/5/2022 9:15:00 AM 12.36 54.248 0.091 7.18 1.45 10.74
6/5/2022 9:30:00 AM 12.47 54.446 0.09 7.23 1.4 10.75
6/5/2022 9:45:00 AM 12.65 54.77 0.09 7.28 1.4 10.8
6/5/2022 10:00:00 AM 12.76 54.968 0.09 7.22 1.53 10.78
6/5/2022 10:15:00 AM 12.94 55.292 0.09 7.31 1.39 10.8
6/5/2022 10:30:00 AM 13.15 55.67 0.09 7.38 1.48 10.79
6/5/2022 10:45:00 AM 13.42 56.156 0.09 7.42 1.43 10.75
6/5/2022 11:00:00 AM 13.75 56.75 0.09 7.29 1.33 10.6
6/5/2022 11:15:00 AM 14.13 57.434 0.09 7.42 1.34 10.63
6/5/2022 11:30:00 AM 14.39 57.902 0.09 7.37 1.37 10.51
6/5/2022 11:45:00 AM 14.77 58.586 0.089 7.62 1.41 10.54
6/5/2022 12:00:00 PM 15.09 59.162 0.09 7.62 1.28 10.48
6/5/2022 12:15:00 PM 15.33 59.594 0.089 7.56 1.5 10.38
6/5/2022 12:30:00 PM 15.73 60.314 0.09 7.7 2.54 10.35
6/5/2022 12:45:00 PM 16.01 60.818 0.089 7.6 1.43 10.2
6/5/2022 1:00:00 PM 16.45 61.61 0.089 7.62 1.73 10.11
6/5/2022 1:15:00 PM 16.82 62.276 0.089 7.78 1.35 10.06
6/5/2022 1:30:00 PM 17.2 62.96 0.089 7.71 1.51 9.98
6/5/2022 1:45:00 PM 17.54 63.572 0.089 7.8 1.39 9.9
6/5/2022 2:00:00 PM 17.85 64.13 0.089 7.86 1.4 9.75
6/5/2022 2:15:00 PM 18.05 64.49 0.089 7.8 1.55 9.68
6/5/2022 2:30:00 PM 18.27 64.886 0.09 7.73 1.31 9.51
6/5/2022 2:45:00 PM 18.54 65.372 0.089 7.78 1.45 9.5
6/5/2022 3:00:00 PM 18.71 65.67799 0.089 7.75 1.37 9.44
6/5/2022 3:15:00 PM 18.83 65.894 0.089 7.7 1.28 9.35
6/5/2022 3:30:00 PM 18.91 66.038 0.089 7.62 1.23 9.25
6/5/2022 3:45:00 PM 19.04 66.272 0.089 7.52 1.26 9.21
6/5/2022 4:00:00 PM 19.13 66.434 0.089 7.62 1.86 9.16
6/5/2022 4:15:00 PM 19.15 66.47 0.09 7.58 1.26 9.1
6/5/2022 4:30:00 PM 19.19 66.542 0.09 7.48 1.41 9.06
6/5/2022 4:45:00 PM 19.2 66.56 0.09 7.51 1.59 9.02
6/5/2022 5:00:00 PM 19.18 66.524 0.09 7.4 4.45 8.95
6/5/2022 5:15:00 PM 19.16 66.488 0.09 7.49 1.29 8.93
6/5/2022 5:30:00 PM 19.09 66.362 0.09 7.39 1.44 8.86
6/5/2022 5:45:00 PM 19.02 66.236 0.09 7.43 1.5 8.84
6/5/2022 6:00:00 PM 18.99 66.182 0.09 7.37 1.7 8.77
6/5/2022 6:15:00 PM 18.92 66.056 0.09 7.4 1.55 8.71
6/5/2022 6:30:00 PM 18.77 65.786 0.091 7.31 2.04 8.59
6/5/2022 6:45:00 PM 18.67 65.606 0.091 7.26 1.41 8.52
6/5/2022 7:00:00 PM 18.57 65.426 0.091 7.24 1.65 8.49
6/5/2022 7:15:00 PM 18.42 65.156 0.092 7.23 1.78 8.4
6/5/2022 7:30:00 PM 18.29 64.922 0.092 7.24 1.38 8.36
6/5/2022 7:45:00 PM 18.18 64.724 0.092 7.19 1.52 8.32
6/5/2022 8:00:00 PM 18.05 64.49 0.092 7.21 1.64 8.32
6/5/2022 8:15:00 PM 17.91 64.238 0.092 7.21 1.42 8.26
6/5/2022 8:30:00 PM 17.77 63.986 0.093 7.21 1.52 8.25
6/5/2022 8:45:00 PM 17.59 63.662 0.093 7.17 1.68 8.19
6/5/2022 9:00:00 PM 17.46 63.428 0.093 7.17 1.84 8.19
6/5/2022 9:15:00 PM 17.3 63.14 0.093 7.16 1.84 8.17
6/5/2022 9:30:00 PM 17.11 62.798 0.094 7.13 1.67 8.16
6/5/2022 9:45:00 PM 16.95 62.51 0.094 7.08 1.59 8.17
6/5/2022 10:00:00 PM 16.78 62.204 0.094 7.13 1.47 8.24
6/5/2022 10:15:00 PM 16.62 61.916 0.094 7.11 2.45 8.25
6/5/2022 10:30:00 PM 16.43 61.574 0.094 7.06 1.94 8.25
6/5/2022 10:45:00 PM 16.3 61.34 0.094 7.06 1.91 8.3
6/5/2022 11:00:00 PM 16.12 61.016 0.094 7.1 1.85 8.34
6/5/2022 11:15:00 PM 16.03 60.854 0.095 7.1 1.52 8.4
6/5/2022 11:30:00 PM 15.92 60.656 0.095 7.04 1.66 8.43
6/5/2022 11:45:00 PM 15.8 60.44 0.095 7.07 1.79 8.44
6/6/2022 12:00:00 AM 15.71 60.278 0.095 7.14 1.75 8.53
6/6/2022 12:15:00 AM 15.61 60.098 0.095 7.06 1.55 8.54
6/6/2022 12:30:00 AM 15.49 59.882 0.095 7.02 2.08 8.47
6/6/2022 12:45:00 AM 15.42 59.756 0.095 7.04 1.7 8.51
6/6/2022 1:00:00 AM 15.34 59.612 0.095 7.08 1.64 8.56
6/6/2022 1:15:00 AM 15.26 59.468 0.095 7.07 1.64 8.6
6/6/2022 1:30:00 AM 15.17 59.306 0.095 7.05 1.68 8.59
6/6/2022 1:45:00 AM 15.09 59.162 0.095 7.07 1.72 8.63
6/6/2022 2:00:00 AM 15.02 59.036 0.095 7 1.6 8.64
6/6/2022 2:15:00 AM 14.94 58.892 0.095 7.11 1.6 8.69
6/6/2022 2:30:00 AM 14.86 58.748 0.095 7.07 1.53 8.7
6/6/2022 2:45:00 AM 14.78 58.604 0.095 7.07 1.6 8.74
6/6/2022 3:00:00 AM 14.7 58.46 0.095 7.07 1.56 8.77
6/6/2022 3:15:00 AM 14.63 58.334 0.095 7.06 1.73 8.77
6/6/2022 3:30:00 AM 14.56 58.208 0.095 7.06 1.43 8.79
6/6/2022 3:45:00 AM 14.48 58.064 0.095 7.06 1.64 8.81
6/6/2022 4:00:00 AM 14.4 57.92 0.095 7.07 1.76 8.84
6/6/2022 4:15:00 AM 14.29 57.722 0.095 7.07 1.52 8.84
6/6/2022 4:30:00 AM 14.21 57.578 0.095 7.08 1.74 8.92
6/6/2022 4:45:00 AM 14.12 57.416 0.095 7.09 1.7 8.9
6/6/2022 5:00:00 AM 14.02 57.236 0.095 7.1 1.74 8.92
6/6/2022 5:15:00 AM 13.92 57.056 0.095 7.03 4.15 8.96
6/6/2022 5:30:00 AM 13.84 56.912 0.095 7.11 2.64 9.01
6/6/2022 5:45:00 AM 13.73 56.714 0.095 7.02 2.03 9.01
6/6/2022 6:00:00 AM 13.63 56.534 0.095 7.09 1.53 9.08
6/6/2022 6:15:00 AM 13.55 56.39 0.095 7.09 1.73 9.12
6/6/2022 6:30:00 AM 13.41 56.138 0.094 7.01 1.64 9.16
6/6/2022 6:45:00 AM 13.41 56.138 0.095 7.07 1.71 9.29
6/6/2022 7:00:00 AM 13.34 56.012 0.095 7.12 2.07 9.39
6/6/2022 7:15:00 AM 13.28 55.904 0.094 6.99 1.52 9.46
6/6/2022 7:30:00 AM 13.25 55.85 0.094 7.15 1.62 9.59
6/6/2022 7:45:00 AM 13.22 55.796 0.094 7.11 1.71 9.68
6/6/2022 8:00:00 AM 13.21 55.778 0.094 7.12 1.48 9.84
6/6/2022 8:15:00 AM 13.21 55.778 0.093 7.09 1.55 9.95
6/6/2022 8:30:00 AM 13.31 55.958 0.093 7.13 1.52 10.15
6/6/2022 8:45:00 AM 13.32 55.976 0.093 7.11 1.55 10.11
6/6/2022 9:00:00 AM 13.4 56.12 0.093 7.2 1.45 10.22
6/6/2022 9:15:00 AM 13.49 56.282 0.093 7.24 1.48 10.34
6/6/2022 9:30:00 AM 13.59 56.462 0.092 7.26 1.37 10.41
6/6/2022 9:45:00 AM 13.71 56.678 0.092 7.29 1.53 10.46
6/6/2022 10:00:00 AM 13.86 56.948 0.092 7.39 1.59 10.56
6/6/2022 10:15:00 AM 14.06 57.308 0.092 7.38 1.53 10.55
6/6/2022 10:30:00 AM 14.28 57.704 0.092 7.4 1.64 10.61
6/6/2022 10:45:00 AM 14.49 58.082 0.091 7.42 1.58 10.55
6/6/2022 11:00:00 AM 14.79 58.622 0.091 7.57 1.6 10.59
6/6/2022 11:15:00 AM 15.11 59.198 0.091 7.55 1.46 10.46
6/6/2022 11:30:00 AM 15.45 59.81 0.091 7.53 1.78 10.35
6/6/2022 11:45:00 AM 15.82 60.476 0.091 7.58 1.47 10.27
6/6/2022 12:00:00 PM 16.21 61.178 0.091 7.58 1.97 10.2
6/6/2022 12:15:00 PM 16.6 61.88 0.091 7.64 1.98 10.06
6/6/2022 12:30:00 PM 17.02 62.636 0.091 7.71 2.28 10.02
6/6/2022 12:45:00 PM 17.41 63.338 0.091 7.74 1.58 9.98
6/6/2022 1:00:00 PM 17.76 63.968 0.091 7.7 1.33 9.87
6/6/2022 1:15:00 PM 18.14 64.652 0.091 7.78 1.33 9.75
6/6/2022 1:30:00 PM 18.53 65.354 0.091 7.8 1.71 9.67
6/6/2022 1:45:00 PM 18.86 65.948 0.091 7.77 1.39 9.58
6/6/2022 2:00:00 PM 19.13 66.434 0.091 7.78 1.22 9.5
6/6/2022 2:15:00 PM 19.41 66.938 0.091 7.74 1.3 9.37
6/6/2022 2:30:00 PM 19.65 67.37 0.091 7.84 1.42 9.35
6/6/2022 2:45:00 PM 19.85 67.73 0.091 7.78 1.19 9.37
6/6/2022 3:00:00 PM 19.97 67.946 0.091 7.86 1.68 9.27
6/6/2022 3:15:00 PM 20.08 68.144 0.091 7.91 1.27 9.23
6/6/2022 3:30:00 PM 20.13 68.234 0.091 7.84 1.34 9.19
6/6/2022 3:45:00 PM 20.15 68.27 0.091 7.82 1.2 9.15
6/6/2022 4:00:00 PM 20.12 68.216 0.091 7.76 1.34 9.08
6/6/2022 4:15:00 PM 20.16 68.288 0.091 7.75 1.24 9.09
6/6/2022 4:30:00 PM 20.22 68.396 0.091 7.71 1.48 9.06
6/6/2022 4:45:00 PM 20.26 68.468 0.091 7.7 1.19 9.02
6/6/2022 5:00:00 PM 20.23 68.414 0.091 7.73 1.31 8.99
6/6/2022 5:15:00 PM 20.15 68.27 0.091 7.61 1.57 8.87
6/6/2022 5:30:00 PM 20.08 68.144 0.091 7.57 1.39 8.81
6/6/2022 5:45:00 PM 20 68 0.091 7.52 1.41 8.79
6/6/2022 6:00:00 PM 19.94 67.892 0.091 7.53 1.4 8.72
6/6/2022 6:15:00 PM 19.84 67.712 0.091 7.4 1.52 8.65
6/6/2022 6:30:00 PM 19.75 67.55 0.091 7.44 1.64 8.64
6/6/2022 6:45:00 PM 19.67 67.406 0.092 7.4 1.62 8.57
6/6/2022 7:00:00 PM 19.63 67.334 0.092 7.41 1.72 8.49
6/6/2022 7:15:00 PM 19.55 67.19 0.092 7.32 1.44 8.4
6/6/2022 7:30:00 PM 19.48 67.064 0.092 7.36 1.47 8.38
6/6/2022 7:45:00 PM 19.36 66.848 0.093 7.31 1.38 8.25
6/6/2022 8:00:00 PM 19.25 66.65 0.093 7.24 1.53 8.14
6/6/2022 8:15:00 PM 19.14 66.452 0.093 7.2 1.49 8
6/6/2022 8:30:00 PM 19 66.2 0.094 7.21 1.67 7.97
6/6/2022 8:45:00 PM 18.87 65.966 0.094 7.16 1.43 7.92
6/6/2022 9:00:00 PM 18.73 65.714 0.094 7.15 1.45 7.78
6/6/2022 9:15:00 PM 18.59 65.462 0.095 7.16 1.59 7.81
6/6/2022 9:30:00 PM 18.45 65.21 0.095 7.14 1.5 7.79
6/6/2022 9:45:00 PM 18.33 64.994 0.095 7.13 1.61 7.8
6/6/2022 10:00:00 PM 18.2 64.76 0.095 7.11 1.46 7.83
6/6/2022 10:15:00 PM 18.05 64.49 0.096 7.09 1.57 7.82
6/6/2022 10:30:00 PM 17.93 64.274 0.096 7.08 1.65 7.81
6/6/2022 10:45:00 PM 17.79 64.022 0.096 7.09 1.45 7.89
6/6/2022 11:00:00 PM 17.63 63.734 0.096 7.05 1.49 7.9
6/6/2022 11:15:00 PM 17.53 63.554 0.096 7.07 1.77 7.92
6/6/2022 11:30:00 PM 17.39 63.302 0.096 7.1 1.57 8.02
6/6/2022 11:45:00 PM 17.27 63.086 0.097 7.11 2.03 8.04
6/7/2022 12:00:00 AM 17.15 62.87 0.097 7.11 1.71 8.06
6/7/2022 12:15:00 AM 17.02 62.636 0.097 7.08 1.63 8.07
6/7/2022 12:30:00 AM 16.91 62.438 0.097 7.09 1.7 8.11
6/7/2022 12:45:00 AM 16.77 62.186 0.097 7.09 1.56 8.12
6/7/2022 1:00:00 AM 16.67 62.006 0.097 7.06 1.57 8.18
6/7/2022 1:15:00 AM 16.59 61.862 0.097 7.11 1.7 8.21
6/7/2022 1:30:00 AM 16.49 61.682 0.097 7.12 1.81 8.26
6/7/2022 1:45:00 AM 16.38 61.484 0.097 7.1 1.47 8.24
6/7/2022 2:00:00 AM 16.31 61.358 0.097 7.11 1.58 8.31
6/7/2022 2:15:00 AM 16.22 61.196 0.097 7.06 2.07 8.32
6/7/2022 2:30:00 AM 16.15 61.07 0.097 7.05 1.86 8.29
6/7/2022 2:45:00 AM 16.1 60.98 0.097 7.13 1.56 8.37
6/7/2022 3:00:00 AM 16.01 60.818 0.097 7.11 1.61 8.37
6/7/2022 3:15:00 AM 15.92 60.656 0.097 7.07 1.61 8.39
6/7/2022 3:30:00 AM 15.84 60.512 0.097 7.11 1.67 8.41
6/7/2022 3:45:00 AM 15.76 60.368 0.097 7.11 1.68 8.47
6/7/2022 4:00:00 AM 15.67 60.206 0.097 7.1 1.49 8.43
6/7/2022 4:15:00 AM 15.56 60.008 0.097 7.1 1.61 8.51
6/7/2022 4:30:00 AM 15.48 59.864 0.097 7.12 1.67 8.52
6/7/2022 4:45:00 AM 15.37 59.666 0.097 7.12 1.63 8.54
6/7/2022 5:00:00 AM 15.28 59.504 0.097 7.07 1.85 8.55
6/7/2022 5:15:00 AM 15.2 59.36 0.097 7.12 1.64 8.6
6/7/2022 5:30:00 AM 15.09 59.162 0.097 7.08 1.99 8.58
6/7/2022 5:45:00 AM 14.96 58.928 0.097 7.09 1.45 8.61
6/7/2022 6:00:00 AM 14.93 58.874 0.097 7.09 3.03 8.73
6/7/2022 6:15:00 AM 14.82 58.676 0.097 7.11 1.71 8.8
6/7/2022 6:30:00 AM 14.74 58.532 0.097 7.12 3.4 8.76
6/7/2022 6:45:00 AM 14.66 58.388 0.097 7.09 1.86 8.98
6/7/2022 7:00:00 AM 14.62 58.316 0.097 7.17 1.81 9.11
6/7/2022 7:15:00 AM 14.61 58.298 0.096 7.18 1.7 9.23
6/7/2022 7:30:00 AM 14.59 58.262 0.096 7.17 1.59 9.35
6/7/2022 7:45:00 AM 14.59 58.262 0.096 7.14 1.57 9.47
6/7/2022 8:00:00 AM 14.63 58.334 0.096 7.2 1.74 9.61
6/7/2022 8:15:00 AM 14.67 58.406 0.095 7.28 1.52 9.75
6/7/2022 8:30:00 AM 14.74 58.532 0.095 7.21 1.71 9.82
6/7/2022 8:45:00 AM 14.8 58.64 0.095 7.26 1.58 9.92
6/7/2022 9:00:00 AM 14.92 58.856 0.095 7.27 1.64 9.91
6/7/2022 9:15:00 AM 15.11 59.198 0.094 7.34 1.59 9.99
6/7/2022 9:30:00 AM 15.19 59.342 0.094 7.28 1.62 10.01
6/7/2022 9:45:00 AM 15.4 59.72 0.094 7.39 1.71 10.1
6/7/2022 10:00:00 AM 15.54 59.972 0.094 7.37 1.71 10.1
6/7/2022 10:15:00 AM 15.69 60.242 0.094 7.42 1.76 10.13
6/7/2022 10:30:00 AM 15.87 60.566 0.094 7.46 1.38 10.12
6/7/2022 10:45:00 AM 16 60.8 0.093 7.45 1.62 10.12
6/7/2022 11:00:00 AM 16.14 61.052 0.093 7.48 1.55 10.1
6/7/2022 11:15:00 AM 16.27 61.286 0.093 7.53 1.46 10.06
6/7/2022 11:30:00 AM 16.38 61.484 0.093 7.49 1.31 10.03
6/7/2022 11:45:00 AM 16.55 61.79 0.093 7.59 1.44 10.01
6/7/2022 12:00:00 PM 16.73 62.114 0.093 7.66 1.48 10.01
6/7/2022 12:15:00 PM 16.84 62.312 0.093 7.64 1.8 9.99
6/7/2022 12:30:00 PM 17.03 62.654 0.093 7.66 1.86 9.97
6/7/2022 12:45:00 PM 17.17 62.906 0.093 7.61 1.86 9.91
6/7/2022 1:00:00 PM 17.29 63.122 0.093 7.71 1.81 9.88
6/7/2022 1:15:00 PM 17.43 63.374 0.093 7.75 3.3 9.84
6/7/2022 1:30:00 PM 17.5 63.5 0.093 7.66 1.42 9.57
6/7/2022 1:45:00 PM 17.51 63.518 0.093 7.58 1.4 9.48
6/7/2022 2:00:00 PM 17.56 63.608 0.093 7.58 1.41 9.46
6/7/2022 2:15:00 PM 17.57 63.626 0.093 7.59 1.4 9.47
6/7/2022 2:30:00 PM 17.54 63.572 0.093 7.51 1.54 9.37
6/7/2022 2:45:00 PM 17.52 63.536 0.093 7.54 1.46 9.27
6/7/2022 3:00:00 PM 17.51 63.518 0.093 7.48 1.57 9.11
6/7/2022 3:15:00 PM 17.49 63.482 0.093 7.42 1.49 9.02
6/7/2022 3:30:00 PM 17.49 63.482 0.093 7.36 1.57 8.97
6/7/2022 3:45:00 PM 17.45 63.41 0.093 7.34 2.12 8.89
6/7/2022 4:00:00 PM 17.46 63.428 0.093 7.41 1.55 9.07
6/7/2022 4:15:00 PM 17.4 63.32 0.093 7.23 1.74 8.99
6/7/2022 4:30:00 PM 17.42 63.356 0.093 7.39 1.52 9.03
6/7/2022 4:45:00 PM 17.41 63.338 0.093 7.37 1.69 9.01
6/7/2022 5:00:00 PM 17.38 63.284 0.093 7.28 1.55 8.92
6/7/2022 5:15:00 PM 17.37 63.266 0.093 7.35 1.47 8.89
6/7/2022 5:30:00 PM 17.33 63.194 0.093 7.29 2.21 8.8
6/7/2022 5:45:00 PM 17.25 63.05 0.093 7.26 3.18 8.77
6/7/2022 6:00:00 PM 17.23 63.014 0.092 7.21 3.18 8.62
6/7/2022 6:15:00 PM 17.18 62.924 0.091 7.22 3.14 8.55
6/7/2022 6:30:00 PM 17.13 62.834 0.091 7.14 2.29 8.44
6/7/2022 6:45:00 PM 17.08 62.744 0.091 7.13 2.97 8.38
6/7/2022 7:00:00 PM 17.05 62.69 0.092 7.11 3.64 8.27
6/7/2022 7:15:00 PM 16.99 62.582 0.091 7.08 3.13 8.27
6/7/2022 7:30:00 PM 17.01 62.618 0.091 7.08 3.16 8.29
6/7/2022 7:45:00 PM 16.98 62.564 0.091 7.1 2.25 8.31
6/7/2022 8:00:00 PM 16.93 62.474 0.091 7.05 2.42 8.2
6/7/2022 8:15:00 PM 16.91 62.438 0.091 7.08 2.05 8.24
6/7/2022 8:30:00 PM 16.83 62.294 0.091 7.07 1.96 8.18
6/7/2022 8:45:00 PM 16.78 62.204 0.092 7.07 2.02 8.19
6/7/2022 9:00:00 PM 16.77 62.186 0.092 7.06 2 8.17
6/7/2022 9:15:00 PM 16.75 62.15 0.092 7.1 1.97 8.22
6/7/2022 9:30:00 PM 16.69 62.042 0.092 7.06 1.94 8.25
6/7/2022 9:45:00 PM 16.65 61.97 0.092 7.09 2.22 8.2
6/7/2022 10:00:00 PM 16.59 61.862 0.093 7.06 1.82 8.19
6/7/2022 10:15:00 PM 16.57 61.826 0.094 7.1 2.15 8.26
6/7/2022 10:30:00 PM 16.49 61.682 0.094 6.99 2.05 8.17
6/7/2022 10:45:00 PM 16.48 61.664 0.094 7.07 3.09 8.26
6/7/2022 11:00:00 PM 16.47 61.646 0.094 7.09 2.97 8.31
6/7/2022 11:15:00 PM 16.42 61.556 0.093 7.11 2.41 8.34
6/7/2022 11:30:00 PM 16.36 61.448 0.093 7.08 1.94 8.34
6/7/2022 11:45:00 PM 16.36 61.448 0.094 7.11 2.28 8.39
6/8/2022 12:00:00 AM 16.29 61.322 0.094 7.07 2.56 8.35
6/8/2022 12:15:00 AM 16.27 61.286 0.095 7.1 2.72 8.41
6/8/2022 12:30:00 AM 16.28 61.304 0.096 7.15 4 8.5
6/8/2022 12:45:00 AM 16.23 61.214 0.097 7.14 3.78 8.51
6/8/2022 1:00:00 AM 16.17 61.106 0.097 7.12 3.16 8.53
6/8/2022 1:15:00 AM 16.14 61.052 0.097 7.14 3.35 8.54
6/8/2022 1:30:00 AM 16.08 60.944 0.096 7.09 3.62 8.58
6/8/2022 1:45:00 AM 16.05 60.89 0.094 7.07 5.46 8.64
6/8/2022 2:00:00 AM 16.02 60.836 0.094 7.1 7.37 8.65
6/8/2022 2:15:00 AM 16.05 60.89 0.093 7.16 5.74 8.68
6/8/2022 2:30:00 AM 15.99 60.782 0.093 7.09 7.18 8.69
6/8/2022 2:45:00 AM 15.98 60.764 0.093 7.16 11.41 8.72
6/8/2022 3:00:00 AM 15.92 60.656 0.092 7.14 7.51 8.74
6/8/2022 3:15:00 AM 15.9 60.62 0.092 7.17 5.78 8.78
6/8/2022 3:30:00 AM 15.89 60.602 0.091 7.2 5.77 8.87
6/8/2022 3:45:00 AM 15.89 60.602 0.092 7.21 6.11 8.93
6/8/2022 4:00:00 AM 15.88 60.584 0.092 7.23 7.52 8.93
6/8/2022 4:15:00 AM 15.84 60.512 0.091 7.24 10.08 8.95
6/8/2022 4:30:00 AM 15.79 60.422 0.092 7.24 17.06 8.97
6/8/2022 4:45:00 AM 15.74 60.332 0.091 7.26 11.92 9.02
6/8/2022 5:00:00 AM 15.68 60.224 0.091 7.21 11.69 9.04
6/8/2022 5:15:00 AM 15.62 60.116 0.092 7.24 10.89 9.07
6/8/2022 5:30:00 AM 15.57 60.026 0.092 7.23 11.94 9.11
6/8/2022 5:45:00 AM 15.52 59.936 0.091 7.23 15.08 9.13
6/8/2022 6:00:00 AM 15.47 59.846 0.09 7.27 13.14 9.17
6/8/2022 6:15:00 AM 15.4 59.72 0.09 7.3 12.03 9.21
6/8/2022 6:30:00 AM 15.34 59.612 0.089 7.26 10.54 9.25
6/8/2022 6:45:00 AM 15.29 59.522 0.089 7.3 9.94 9.3
6/8/2022 7:00:00 AM 15.25 59.45 0.089 7.29 9.13 9.35
6/8/2022 7:15:00 AM 15.22 59.396 0.089 7.29 8.69 9.39
6/8/2022 7:30:00 AM 15.2 59.36 0.088 7.31 8.7 9.43
6/8/2022 7:45:00 AM 15.17 59.306 0.088 7.31 7.72 9.45
6/8/2022 8:00:00 AM 15.15 59.27 0.087 7.31 7.72 9.47
6/8/2022 8:15:00 AM 15.14 59.252 0.087 7.31 7.1 9.53
6/8/2022 8:30:00 AM 15.17 59.306 0.087 7.36 6.43 9.6
6/8/2022 8:45:00 AM 15.2 59.36 0.086 7.37 6.68 9.69
6/8/2022 9:00:00 AM 15.23 59.414 0.086 7.39 6.18 9.73
6/8/2022 9:15:00 AM 15.26 59.468 0.085 7.4 5.98 9.78
6/8/2022 9:30:00 AM 15.31 59.558 0.085 7.45 6.11 9.83
6/8/2022 9:45:00 AM 15.42 59.756 0.085 7.48 5.51 9.9
6/8/2022 10:00:00 AM 15.48 59.864 0.084 7.47 5.14 9.88
6/8/2022 10:15:00 AM 15.55 59.99 0.084 7.51 5.26 9.91
6/8/2022 10:30:00 AM 15.63 60.134 0.084 7.51 4.7 9.9
6/8/2022 10:45:00 AM 15.69 60.242 0.084 7.51 4.99 9.87
6/8/2022 11:00:00 AM 15.81 60.458 0.084 7.56 4.63 9.95
6/8/2022 11:15:00 AM 15.95 60.71 0.083 7.58 5.08 9.92
6/8/2022 11:30:00 AM 16.08 60.944 0.083 7.59 4.71 9.91
6/8/2022 11:45:00 AM 16.19 61.142 0.083 7.58 5.97 9.9
6/8/2022 12:00:00 PM 16.39 61.502 0.083 7.64 4.39 9.89
6/8/2022 12:15:00 PM 16.64 61.952 0.083 7.59 4.13 9.85
6/8/2022 12:30:00 PM 16.9 62.42 0.083 7.68 4.2 9.88
6/8/2022 12:45:00 PM 17.05 62.69 0.083 7.64 3.97 9.79
6/8/2022 1:00:00 PM 17.24 63.032 0.083 7.61 4.07 9.73
6/8/2022 1:15:00 PM 17.42 63.356 0.083 7.68 3.88 9.73
6/8/2022 1:30:00 PM 17.7 63.86 0.083 7.66 3.46 9.66
6/8/2022 1:45:00 PM 17.78 64.004 0.083 7.66 3.7 9.6
6/8/2022 2:00:00 PM 17.94 64.292 0.083 7.6 3.3 9.53
6/8/2022 2:15:00 PM 18.14 64.652 0.083 7.65 3.36 9.54
6/8/2022 2:30:00 PM 18.28 64.904 0.084 7.65 3.24 9.47
6/8/2022 2:45:00 PM 18.42 65.156 0.084 7.66 3.13 9.44
6/8/2022 3:00:00 PM 18.58 65.444 0.084 7.62 3.28 9.35
6/8/2022 3:15:00 PM 18.79 65.82201 0.084 7.64 2.86 9.32
6/8/2022 3:30:00 PM 18.87 65.966 0.084 7.6 2.9 9.23
6/8/2022 3:45:00 PM 18.91 66.038 0.084 7.57 2.93 9.15
6/8/2022 4:00:00 PM 19 66.2 0.084 7.56 3.38 9.11
6/8/2022 4:15:00 PM 19.12 66.416 0.084 7.51 3.12 9.06
6/8/2022 4:30:00 PM 19.14 66.452 0.084 7.48 2.68 8.97
6/8/2022 4:45:00 PM 19.21 66.578 0.085 7.51 3.13 8.98
6/8/2022 5:00:00 PM 19.18 66.524 0.085 7.4 2.69 8.87
6/8/2022 5:15:00 PM 19.2 66.56 0.085 7.46 2.89 8.86
6/8/2022 5:30:00 PM 19.13 66.434 0.085 7.43 3.08 8.84
6/8/2022 5:45:00 PM 19.05 66.29 0.085 7.39 2.9 8.84
6/8/2022 6:00:00 PM 19.01 66.218 0.085 7.4 2.78 8.87
6/8/2022 6:15:00 PM 18.96 66.128 0.085 7.44 2.48 8.88
6/8/2022 6:30:00 PM 18.92 66.056 0.085 7.47 2.78 8.89
6/8/2022 6:45:00 PM 18.82 65.876 0.085 7.43 2.51 8.83
6/8/2022 7:00:00 PM 18.69 65.642 0.085 7.36 2.52 8.73
6/8/2022 7:15:00 PM 18.6 65.48 0.086 7.39 2.49 8.75
6/8/2022 7:30:00 PM 18.49 65.282 0.086 7.32 2.42 8.65
6/8/2022 7:45:00 PM 18.36 65.048 0.086 7.28 2.78 8.64
6/8/2022 8:00:00 PM 18.3 64.94 0.086 7.28 2.5 8.61
6/8/2022 8:15:00 PM 18.18 64.724 0.086 7.25 2.65 8.57
6/8/2022 8:30:00 PM 18.07 64.526 0.086 7.19 2.34 8.52
6/8/2022 8:45:00 PM 17.97 64.346 0.087 7.25 2.49 8.52
6/8/2022 9:00:00 PM 17.87 64.166 0.087 7.22 2.41 8.47
6/8/2022 9:15:00 PM 17.76 63.968 0.087 7.16 2.86 8.44
6/8/2022 9:30:00 PM 17.68 63.824 0.087 7.2 3.13 8.47
6/8/2022 9:45:00 PM 17.57 63.626 0.087 7.15 2.36 8.43
6/8/2022 10:00:00 PM 17.46 63.428 0.087 7.16 2.62 8.46
6/8/2022 10:15:00 PM 17.38 63.284 0.087 7.15 2.33 8.43
6/8/2022 10:30:00 PM 17.29 63.122 0.087 7.16 2.73 8.48
6/8/2022 10:45:00 PM 17.19 62.942 0.087 7.12 2.7 8.47
6/8/2022 11:00:00 PM 17.13 62.834 0.087 7.14 2.72 8.57
6/8/2022 11:15:00 PM 17.04 62.672 0.088 7.19 3.26 8.56
6/8/2022 11:30:00 PM 16.93 62.474 0.087 7.14 3.06 8.53
6/8/2022 11:45:00 PM 16.87 62.366 0.088 7.16 2.51 8.56
6/9/2022 12:00:00 AM 16.79 62.222 0.088 7.15 2.93 8.58
6/9/2022 12:15:00 AM 16.71 62.078 0.088 7.11 2.77 8.58
6/9/2022 12:30:00 AM 16.65 61.97 0.088 7.2 2.91 8.66
6/9/2022 12:45:00 AM 16.54 61.772 0.088 7.1 2.66 8.56
6/9/2022 1:00:00 AM 16.49 61.682 0.088 7.14 2.65 8.62
6/9/2022 1:15:00 AM 16.44 61.592 0.088 7.16 2.71 8.69
6/9/2022 1:30:00 AM 16.33 61.394 0.088 7.09 2.74 8.6
6/9/2022 1:45:00 AM 16.29 61.322 0.088 7.15 2.5 8.65
6/9/2022 2:00:00 AM 16.24 61.232 0.088 7.16 2.84 8.64
6/9/2022 2:15:00 AM 16.15 61.07 0.088 7.07 3.78 8.66
6/9/2022 2:30:00 AM 16.11 60.998 0.087 7.13 2.79 8.72
6/9/2022 2:45:00 AM 16.05 60.89 0.087 7.14 2.8 8.73
6/9/2022 3:00:00 AM 16 60.8 0.087 7.14 2.83 8.73
6/9/2022 3:15:00 AM 15.95 60.71 0.087 7.16 3.35 8.79
6/9/2022 3:30:00 AM 15.88 60.584 0.086 7.12 3.12 8.77
6/9/2022 3:45:00 AM 15.81 60.458 0.085 7.16 4.4 8.79
6/9/2022 4:00:00 AM 15.74 60.332 0.084 7.16 4.85 8.81
6/9/2022 4:15:00 AM 15.69 60.242 0.084 7.19 7.56 8.88
6/9/2022 4:30:00 AM 15.64 60.152 0.084 7.17 15.28 8.85
6/9/2022 4:45:00 AM 15.6 60.08 0.083 7.16 15.33 8.86
6/9/2022 5:00:00 AM 15.54 59.972 0.082 7.17 13.63 8.9
6/9/2022 5:15:00 AM 15.48 59.864 0.082 7.16 7.55 8.91
6/9/2022 5:30:00 AM 15.45 59.81 0.082 7.16 7.07 8.91
6/9/2022 5:45:00 AM 15.41 59.738 0.083 7.18 6.78 8.99
6/9/2022 6:00:00 AM 15.38 59.684 0.083 7.19 8.13 9.03
6/9/2022 6:15:00 AM 15.33 59.594 0.083 7.18 10.72 9.07
6/9/2022 6:30:00 AM 15.27 59.486 0.084 7.15 14.97 9.15
6/9/2022 6:45:00 AM 15.19 59.342 0.086 7.15 16.95 9.21
6/9/2022 7:00:00 AM 15.11 59.198 0.086 7.18 33.64 9.25
6/9/2022 7:15:00 AM 15.04 59.072 0.083 7.17 32.57 9.29
6/9/2022 7:30:00 AM 15.01 59.018 0.081 7.2 29.14 9.32
6/9/2022 7:45:00 AM 15.02 59.036 0.079 7.22 35.62 9.35
6/9/2022 8:00:00 AM 15.04 59.072 0.078 7.2 37.19 9.37
6/9/2022 8:15:00 AM 15.04 59.072 0.077 7.21 36.38 9.38
6/9/2022 8:30:00 AM 15.1 59.18 0.077 7.22 33.81 9.39
6/9/2022 8:45:00 AM 15.19 59.342 0.077 7.23 33.07 9.39
6/9/2022 9:00:00 AM 15.29 59.522 0.076 7.23 30.14 9.38
6/9/2022 9:15:00 AM 15.35 59.63 0.076 7.24 29.94 9.37
6/9/2022 9:30:00 AM 15.44 59.792 0.075 7.24 28.55 9.37
6/9/2022 9:45:00 AM 15.52 59.936 0.074 7.24 25.6 9.38
6/9/2022 10:00:00 AM 15.55 59.99 0.074 7.25 24.15 9.38
6/9/2022 10:15:00 AM 15.63 60.134 0.073 7.27 23.78 9.4
6/9/2022 10:30:00 AM 15.77 60.386 0.072 7.29 23.52 9.45
6/9/2022 10:45:00 AM 15.88 60.584 0.071 7.3 23.58 9.48
6/9/2022 11:00:00 AM 16.03 60.854 0.07 7.31 22.99 9.49
6/9/2022 11:15:00 AM 16.26 61.268 0.07 7.31 23.87 9.5
6/9/2022 11:30:00 AM 16.5 61.7 0.069 7.35 20.2 9.51
6/9/2022 11:45:00 AM 16.63 61.934 0.069 7.36 17.9 9.48
6/9/2022 12:00:00 PM 16.7 62.06 0.069 7.36 16.94 9.44
6/9/2022 12:15:00 PM 16.78 62.204 0.069 7.37 16.19 9.42
6/9/2022 12:30:00 PM 16.94 62.492 0.069 7.38 15 9.43
6/9/2022 12:45:00 PM 17.03 62.654 0.069 7.4 14.33 9.44
6/9/2022 1:00:00 PM 17.22 62.996 0.07 7.42 13.04 9.43
6/9/2022 1:15:00 PM 17.47 63.446 0.07 7.43 12.89 9.41
6/9/2022 1:30:00 PM 17.65 63.77 0.071 7.49 11.96 9.44
6/9/2022 1:45:00 PM 17.74 63.932 0.071 7.48 11.39 9.41
6/9/2022 2:00:00 PM 17.94 64.292 0.072 7.5 10.72 9.38
6/9/2022 2:15:00 PM 17.85 64.13 0.072 7.47 11.17 9.29
6/9/2022 2:30:00 PM 17.83 64.094 0.073 7.44 10.25 9.27
6/9/2022 2:45:00 PM 17.87 64.166 0.073 7.45 10.03 9.25
6/9/2022 3:00:00 PM 17.82 64.076 0.073 7.44 9.46 9.21
6/9/2022 3:15:00 PM 17.86 64.148 0.074 7.42 8.92 9.19
6/9/2022 3:30:00 PM 17.86 64.148 0.074 7.43 8.76 9.17
6/9/2022 3:45:00 PM 17.86 64.148 0.074 7.42 8.39 9.19
6/9/2022 4:00:00 PM 17.87 64.166 0.074 7.46 8.05 9.24
6/9/2022 4:15:00 PM 17.87 64.166 0.075 7.45 7.9 9.22
6/9/2022 4:30:00 PM 17.81 64.058 0.075 7.41 7.64 9.14
6/9/2022 4:45:00 PM 17.82 64.076 0.075 7.41 7.87 9.14
6/9/2022 5:00:00 PM 17.82 64.076 0.075 7.41 7.02 9.17
6/9/2022 5:15:00 PM 17.75 63.95 0.075 7.4 7.22 9.15
6/9/2022 5:30:00 PM 17.75 63.95 0.075 7.41 7.01 9.15
6/9/2022 5:45:00 PM 17.78 64.004 0.075 7.41 6.67 9.17
6/9/2022 6:00:00 PM 17.74 63.932 0.076 7.41 6.55 9.14
6/9/2022 6:15:00 PM 17.68 63.824 0.076 7.38 6.46 9.09
6/9/2022 6:30:00 PM 17.65 63.77 0.076 7.35 6.28 9.09
6/9/2022 6:45:00 PM 17.6 63.68 0.076 7.34 6.5 9.05
6/9/2022 7:00:00 PM 17.5 63.5 0.076 7.33 6.12 9.03
6/9/2022 7:15:00 PM 17.39 63.302 0.076 7.33 5.98 9.03
6/9/2022 7:30:00 PM 17.29 63.122 0.076 7.31 6.28 9.02
6/9/2022 7:45:00 PM 17.2 62.96 0.076 7.28 5.96 9
6/9/2022 8:00:00 PM 17.11 62.798 0.077 7.28 5.63 8.99
6/9/2022 8:15:00 PM 17.03 62.654 0.077 7.27 6.09 8.99
6/9/2022 8:30:00 PM 16.94 62.492 0.077 7.25 5.62 8.98
6/9/2022 8:45:00 PM 16.86 62.348 0.077 7.24 5.63 8.98
6/9/2022 9:00:00 PM 16.77 62.186 0.077 7.21 5.62 8.97
6/9/2022 9:15:00 PM 16.67 62.006 0.077 7.22 6.18 8.98
6/9/2022 9:30:00 PM 16.58 61.844 0.077 7.21 6.17 8.99
6/9/2022 9:45:00 PM 16.49 61.682 0.077 7.19 5.73 9
6/9/2022 10:00:00 PM 16.4 61.52 0.077 7.19 5.78 9.01
6/9/2022 10:15:00 PM 16.31 61.358 0.077 7.19 5.68 9.03
6/9/2022 10:30:00 PM 16.23 61.214 0.077 7.17 5.46 9.05
6/9/2022 10:45:00 PM 16.15 61.07 0.077 7.18 5.64 9.06
6/9/2022 11:00:00 PM 16.07 60.926 0.077 7.18 5.91 9.08
6/9/2022 11:15:00 PM 15.99 60.782 0.077 7.18 5.59 9.1
6/9/2022 11:30:00 PM 15.91 60.638 0.077 7.18 5.69 9.11
6/9/2022 11:45:00 PM 15.83 60.494 0.077 7.17 5.46 9.12
6/10/2022 12:00:00 AM 15.74 60.332 0.078 7.18 5.76 9.15
6/10/2022 12:15:00 AM 15.66 60.188 0.078 7.17 5.18 9.16
6/10/2022 12:30:00 AM 15.58 60.044 0.078 7.16 5.25 9.17
6/10/2022 12:45:00 AM 15.5 59.9 0.078 7.17 5.38 9.19
6/10/2022 1:00:00 AM 15.41 59.738 0.078 7.16 5.24 9.2
6/10/2022 1:15:00 AM 15.33 59.594 0.078 7.16 5.11 9.22
6/10/2022 1:30:00 AM 15.25 59.45 0.078 7.17 5.28 9.24
6/10/2022 1:45:00 AM 15.17 59.306 0.078 7.16 5.19 9.26
6/10/2022 2:00:00 AM 15.09 59.162 0.078 7.16 4.89 9.28
6/10/2022 2:15:00 AM 15 59 0.078 7.17 4.88 9.29
6/10/2022 2:30:00 AM 14.92 58.856 0.078 7.16 4.81 9.3
6/10/2022 2:45:00 AM 14.84 58.712 0.078 7.17 4.86 9.32
6/10/2022 3:00:00 AM 14.76 58.568 0.078 7.17 4.92 9.34
6/10/2022 3:15:00 AM 14.69 58.442 0.078 7.17 4.82 9.36
6/10/2022 3:30:00 AM 14.61 58.298 0.078 7.18 4.84 9.38
6/10/2022 3:45:00 AM 14.53 58.154 0.078 7.18 4.84 9.39
6/10/2022 4:00:00 AM 14.46 58.028 0.078 7.18 4.81 9.4
6/10/2022 4:15:00 AM 14.38 57.884 0.078 7.18 4.52 9.43
6/10/2022 4:30:00 AM 14.31 57.758 0.078 7.18 4.98 9.44
6/10/2022 4:45:00 AM 14.24 57.632 0.078 7.17 4.45 9.46
6/10/2022 5:00:00 AM 14.18 57.524 0.078 7.18 4.59 9.47
6/10/2022 5:15:00 AM 14.12 57.416 0.078 7.18 4.83 9.49
6/10/2022 5:30:00 AM 14.04 57.272 0.078 7.18 4.71 9.51
6/10/2022 5:45:00 AM 13.96 57.128 0.078 7.18 4.4 9.53
6/10/2022 6:00:00 AM 13.89 57.002 0.078 7.2 4.26 9.57
6/10/2022 6:15:00 AM 13.82 56.876 0.078 7.2 3.97 9.62
6/10/2022 6:30:00 AM 13.76 56.768 0.078 7.14 4.24 9.67
6/10/2022 6:45:00 AM 13.7 56.66 0.078 7.17 3.96 9.72
6/10/2022 7:00:00 AM 13.66 56.588 0.078 7.19 3.69 9.76
6/10/2022 7:15:00 AM 13.63 56.534 0.078 7.21 3.73 9.8
6/10/2022 7:30:00 AM 13.62 56.516 0.078 7.23 3.57 9.84
6/10/2022 7:45:00 AM 13.62 56.516 0.078 7.25 3.32 9.89
6/10/2022 8:00:00 AM 13.64 56.552 0.078 7.26 3.57 9.92
6/10/2022 8:15:00 AM 13.68 56.624 0.078 7.29 3.52 9.96
6/10/2022 8:30:00 AM 13.74 56.732 0.078 7.3 3.37 9.99
6/10/2022 8:45:00 AM 13.82 56.876 0.078 7.3 2.97 10.03
6/10/2022 9:00:00 AM 13.93 57.074 0.078 7.33 3.38 10.07
6/10/2022 9:15:00 AM 14.04 57.272 0.078 7.36 3.24 10.09
6/10/2022 9:30:00 AM 14.16 57.488 0.078 7.39 3.11 10.11
6/10/2022 9:45:00 AM 14.28 57.704 0.078 7.41 2.96 10.12
6/10/2022 10:00:00 AM 14.41 57.938 0.078 7.42 2.79 10.15
6/10/2022 10:15:00 AM 14.55 58.19 0.078 7.4 3.11 10.11
6/10/2022 10:30:00 AM 14.79 58.622 0.078 7.48 2.89 10.14
6/10/2022 10:45:00 AM 14.97 58.946 0.078 7.48 2.84 10.12
6/10/2022 11:00:00 AM 15.09 59.162 0.078 7.48 3.28 10.11
6/10/2022 11:15:00 AM 15.3 59.54 0.078 7.48 2.8 10.1
6/10/2022 11:30:00 AM 15.48 59.864 0.078 7.51 2.63 10.06
6/10/2022 11:45:00 AM 15.63 60.134 0.078 7.52 2.69 10.05
6/10/2022 12:00:00 PM 15.78 60.404 0.078 7.54 2.81 10.02
6/10/2022 12:15:00 PM 15.97 60.746 0.078 7.55 2.96 9.99
6/10/2022 12:30:00 PM 16.29 61.322 0.078 7.56 2.81 9.96
6/10/2022 12:45:00 PM 16.61 61.898 0.078 7.59 2.71 9.9
6/10/2022 1:00:00 PM 16.85 62.33 0.078 7.55 2.53 9.8
6/10/2022 1:15:00 PM 17.06 62.708 0.078 7.57 2.75 9.75
6/10/2022 1:30:00 PM 17.25 63.05 0.078 7.58 2.66 9.74
6/10/2022 1:45:00 PM 17.4 63.32 0.078 7.59 3.25 9.64
6/10/2022 2:00:00 PM 17.46 63.428 0.078 7.61 2.82 9.65
6/10/2022 2:15:00 PM 17.52 63.536 0.078 7.57 2.58 9.6
6/10/2022 2:30:00 PM 17.72 63.896 0.078 7.54 2.75 9.55
6/10/2022 2:45:00 PM 17.82 64.076 0.078 7.52 2.98 9.48
6/10/2022 3:00:00 PM 17.86 64.148 0.078 7.55 2.73 9.46
6/10/2022 3:15:00 PM 17.98 64.364 0.078 7.53 3.46 9.42
6/10/2022 3:30:00 PM 18.08 64.544 0.078 7.55 2.71 9.41
6/10/2022 3:45:00 PM 18.12 64.616 0.078 7.57 2.75 9.44
6/10/2022 4:00:00 PM 18.14 64.652 0.078 7.55 2.51 9.39
6/10/2022 4:15:00 PM 18.14 64.652 0.078 7.56 2.68 9.39
6/10/2022 4:30:00 PM 18.14 64.652 0.078 7.48 2.56 9.36
6/10/2022 4:45:00 PM 18.24 64.832 0.078 7.5 2.77 9.33
6/10/2022 5:00:00 PM 18.23 64.814 0.079 7.45 2.59 9.26
6/10/2022 5:15:00 PM 18.31 64.958 0.079 7.5 2.5 9.24
6/10/2022 5:30:00 PM 18.3 64.94 0.079 7.46 2.6 9.17
6/10/2022 5:45:00 PM 18.31 64.958 0.079 7.42 2.53 9.17
6/10/2022 6:00:00 PM 18.28 64.904 0.079 7.49 2.62 9.16
6/10/2022 6:15:00 PM 18.24 64.832 0.079 7.42 2.56 9.07
6/10/2022 6:30:00 PM 18.13 64.634 0.079 7.37 2.83 9.02
6/10/2022 6:45:00 PM 18.01 64.418 0.079 7.3 2.47 8.95
6/10/2022 7:00:00 PM 17.91 64.238 0.08 7.32 2.5 8.95
6/10/2022 7:15:00 PM 17.81 64.058 0.08 7.33 3.42 8.97
6/10/2022 7:30:00 PM 17.7 63.86 0.08 7.33 2.77 8.94
6/10/2022 7:45:00 PM 17.56 63.608 0.08 7.31 2.66 8.94
6/10/2022 8:00:00 PM 17.43 63.374 0.08 7.27 2.45 8.9
6/10/2022 8:15:00 PM 17.31 63.158 0.08 7.28 2.81 8.9
6/10/2022 8:30:00 PM 17.19 62.942 0.08 7.23 2.68 8.87
6/10/2022 8:45:00 PM 17.07 62.726 0.08 7.25 2.83 8.83
6/10/2022 9:00:00 PM 16.93 62.474 0.081 7.24 3.14 8.82
6/10/2022 9:15:00 PM 16.8 62.24 0.081 7.2 2.71 8.79
6/10/2022 9:30:00 PM 16.67 62.006 0.081 7.2 2.7 8.79
6/10/2022 9:45:00 PM 16.54 61.772 0.081 7.2 3.4 8.82
6/10/2022 10:00:00 PM 16.44 61.592 0.081 7.2 2.84 8.83
6/10/2022 10:15:00 PM 16.33 61.394 0.081 7.19 2.83 8.84
6/10/2022 10:30:00 PM 16.22 61.196 0.081 7.19 2.71 8.88
6/10/2022 10:45:00 PM 16.09 60.962 0.081 7.17 2.91 8.88
6/10/2022 11:00:00 PM 15.98 60.764 0.081 7.18 2.7 8.93
6/10/2022 11:15:00 PM 15.86 60.548 0.081 7.15 2.69 8.94
6/10/2022 11:30:00 PM 15.74 60.332 0.081 7.17 2.92 8.96
6/10/2022 11:45:00 PM 15.64 60.152 0.081 7.16 2.95 9.01
6/11/2022 12:00:00 AM 15.52 59.936 0.082 7.18 2.66 9.03
6/11/2022 12:15:00 AM 15.4 59.72 0.082 7.16 2.97 9.05
6/11/2022 12:30:00 AM 15.29 59.522 0.082 7.16 3.02 9.08
6/11/2022 12:45:00 AM 15.19 59.342 0.082 7.19 2.82 9.13
6/11/2022 1:00:00 AM 15.08 59.144 0.082 7.15 3.1 9.13
6/11/2022 1:15:00 AM 14.98 58.964 0.082 7.19 2.66 9.18
6/11/2022 1:30:00 AM 14.88 58.784 0.082 7.19 2.72 9.21
6/11/2022 1:45:00 AM 14.78 58.604 0.082 7.18 3.17 9.22
6/11/2022 2:00:00 AM 14.69 58.442 0.082 7.19 2.78 9.25
6/11/2022 2:15:00 AM 14.58 58.244 0.082 7.17 2.7 9.25
6/11/2022 2:30:00 AM 14.48 58.064 0.082 7.18 2.63 9.29
6/11/2022 2:45:00 AM 14.4 57.92 0.082 7.2 2.59 9.32
6/11/2022 3:00:00 AM 14.29 57.722 0.082 7.16 2.45 9.34
6/11/2022 3:15:00 AM 14.2 57.56 0.082 7.19 2.53 9.37
6/11/2022 3:30:00 AM 14.11 57.398 0.082 7.19 2.94 9.39
6/11/2022 3:45:00 AM 14.02 57.236 0.082 7.2 2.7 9.42
6/11/2022 4:00:00 AM 13.92 57.056 0.082 7.17 2.56 9.43
6/11/2022 4:15:00 AM 13.84 56.912 0.082 7.18 2.51 9.46
6/11/2022 4:30:00 AM 13.75 56.75 0.082 7.19 2.92 9.48
6/11/2022 4:45:00 AM 13.67 56.606 0.082 7.13 2.68 9.49
6/11/2022 5:00:00 AM 13.59 56.462 0.082 7.19 2.61 9.51
6/11/2022 5:15:00 AM 13.53 56.354 0.082 7.2 2.92 9.54
6/11/2022 5:30:00 AM 13.46 56.228 0.082 7.19 2.69 9.56
6/11/2022 5:45:00 AM 13.4 56.12 0.082 7.14 2.59 9.57
6/11/2022 6:00:00 AM 13.33 55.994 0.082 7.14 2.74 9.59
6/11/2022 6:15:00 AM 13.29 55.922 0.082 7.16 2.55 9.67
6/11/2022 6:30:00 AM 13.25 55.85 0.082 7.17 2.42 9.75
6/11/2022 6:45:00 AM 13.22 55.796 0.082 7.2 2.46 9.83
6/11/2022 7:00:00 AM 13.2 55.76 0.082 7.22 2.48 9.92
6/11/2022 7:15:00 AM 13.18 55.724 0.082 7.21 2.66 10
6/11/2022 7:30:00 AM 13.16 55.688 0.082 7.24 2.54 10.08
6/11/2022 7:45:00 AM 13.15 55.67 0.082 7.28 2.5 10.12
6/11/2022 8:00:00 AM 13.18 55.724 0.082 7.29 2.77 10.21
6/11/2022 8:15:00 AM 13.21 55.778 0.082 7.3 2.44 10.25
6/11/2022 8:30:00 AM 13.27 55.886 0.081 7.35 2.35 10.32
6/11/2022 8:45:00 AM 13.3 55.94 0.081 7.35 2.45 10.33
6/11/2022 9:00:00 AM 13.38 56.084 0.081 7.39 2.39 10.39
6/11/2022 9:15:00 AM 13.45 56.21 0.081 7.39 2.33 10.42
6/11/2022 9:30:00 AM 13.53 56.354 0.081 7.41 2.59 10.47
6/11/2022 9:45:00 AM 13.62 56.516 0.081 7.47 2.31 10.52
6/11/2022 10:00:00 AM 13.7 56.66 0.081 7.46 2.29 10.46
6/11/2022 10:15:00 AM 13.78 56.804 0.081 7.49 2.4 10.48
6/11/2022 10:30:00 AM 13.89 57.002 0.081 7.46 2.38 10.49
6/11/2022 10:45:00 AM 14.1 57.38 0.081 7.59 2.16 10.55
6/11/2022 11:00:00 AM 14.33 57.794 0.081 7.6 2.2 10.56
6/11/2022 11:15:00 AM 14.48 58.064 0.081 7.55 2.44 10.53
6/11/2022 11:30:00 AM 14.66 58.388 0.081 7.61 2.33 10.54
6/11/2022 11:45:00 AM 14.79 58.622 0.081 7.56 2.06 10.49
6/11/2022 12:00:00 PM 15.03 59.054 0.08 7.65 2.15 10.52
6/11/2022 12:15:00 PM 15.26 59.468 0.08 7.78 2.39 10.52
6/11/2022 12:30:00 PM 15.49 59.882 0.08 7.7 2.27 10.42
6/11/2022 12:45:00 PM 15.69 60.242 0.08 7.45 2.37 10.27
6/11/2022 1:00:00 PM 15.9 60.62 0.08 7.78 2.09 10.33
6/11/2022 1:15:00 PM 15.98 60.764 0.08 7.54 2.13 10.18
6/11/2022 1:30:00 PM 16.12 61.016 0.08 7.76 2.33 10.17
6/11/2022 1:45:00 PM 16.2 61.16 0.08 7.59 2.37 10.13
6/11/2022 2:00:00 PM 16.24 61.232 0.08 7.64 2.38 10.09
6/11/2022 2:15:00 PM 16.36 61.448 0.08 7.65 2.41 10.02
6/11/2022 2:30:00 PM 16.47 61.646 0.08 7.7 2.19 10.04
6/11/2022 2:45:00 PM 16.5 61.7 0.08 7.56 2.03 10
6/11/2022 3:00:00 PM 16.56 61.808 0.08 7.59 2.46 9.96
6/11/2022 3:15:00 PM 16.63 61.934 0.08 7.52 2.13 9.92
6/11/2022 3:30:00 PM 16.73 62.114 0.08 7.76 2.22 9.99
6/11/2022 3:45:00 PM 16.82 62.276 0.08 7.62 2.15 9.86
6/11/2022 4:00:00 PM 16.96 62.528 0.08 7.52 2.5 9.78
6/11/2022 4:15:00 PM 17.13 62.834 0.081 7.6 2.42 9.7
6/11/2022 4:30:00 PM 17.21 62.978 0.081 7.41 2.1 9.61
6/11/2022 4:45:00 PM 17.26 63.068 0.081 7.38 2.17 9.52
6/11/2022 5:00:00 PM 17.25 63.05 0.081 7.38 2.37 9.41
6/11/2022 5:15:00 PM 17.26 63.068 0.081 7.25 2.19 9.41
6/11/2022 5:30:00 PM 17.25 63.05 0.081 7.29 2.19 9.32
6/11/2022 5:45:00 PM 17.27 63.086 0.081 7.25 2.25 9.23
6/11/2022 6:00:00 PM 17.26 63.068 0.081 7.3 2.12 9.25
6/11/2022 6:15:00 PM 17.21 62.978 0.082 7.27 2.36 9.15
6/11/2022 6:30:00 PM 17.09 62.762 0.082 7.25 2.07 9.16
6/11/2022 6:45:00 PM 17.08 62.744 0.082 7.22 2.44 9.14
6/11/2022 7:00:00 PM 17.08 62.744 0.082 7.28 2.04 9.13
6/11/2022 7:15:00 PM 17.1 62.78 0.082 7.28 2.25 9.08
6/11/2022 7:30:00 PM 17.03 62.654 0.082 7.21 2.16 8.99
6/11/2022 7:45:00 PM 16.92 62.456 0.082 6.99 2.33 8.95
6/11/2022 8:00:00 PM 16.83 62.294 0.082 7.12 2.23 8.89
6/11/2022 8:15:00 PM 16.77 62.186 0.083 7.21 2.28 8.94
6/11/2022 8:30:00 PM 16.62 61.916 0.083 7.09 2.22 8.8
6/11/2022 8:45:00 PM 16.53 61.754 0.083 7.14 2.25 8.79
6/11/2022 9:00:00 PM 16.46 61.628 0.083 7.12 2.62 8.74
6/11/2022 9:15:00 PM 16.33 61.394 0.083 7.1 2.39 8.68
6/11/2022 9:30:00 PM 16.25 61.25 0.083 7.12 2.47 8.72
6/11/2022 9:45:00 PM 16.12 61.016 0.084 7.09 2.2 8.71
6/11/2022 10:00:00 PM 16.07 60.926 0.084 7.04 2.59 8.77
6/11/2022 10:15:00 PM 15.95 60.71 0.084 7.02 2.35 8.79
6/11/2022 10:30:00 PM 15.85 60.53 0.084 7.08 2.35 8.76
6/11/2022 10:45:00 PM 15.72 60.296 0.084 7 2.25 8.75
6/11/2022 11:00:00 PM 15.64 60.152 0.084 7.08 2.37 8.82
6/11/2022 11:15:00 PM 15.51 59.918 0.084 7.11 2.31 8.87
6/11/2022 11:30:00 PM 15.4 59.72 0.084 7.13 2.56 8.91
6/11/2022 11:45:00 PM 15.28 59.504 0.084 7.1 2.22 8.91
6/12/2022 12:00:00 AM 15.19 59.342 0.084 7.14 2.39 8.99
6/12/2022 12:15:00 AM 15.06 59.108 0.084 7.14 2.23 9.01
6/12/2022 12:30:00 AM 14.95 58.91 0.084 7.09 2.3 9
6/12/2022 12:45:00 AM 14.85 58.73 0.084 7.17 2.2 9.09
6/12/2022 1:00:00 AM 14.74 58.532 0.084 7.01 2.33 9.01
6/12/2022 1:15:00 AM 14.64 58.352 0.084 7.13 2.3 9.13
6/12/2022 1:30:00 AM 14.53 58.154 0.084 7.05 2.26 9.11
6/12/2022 1:45:00 AM 14.45 58.01 0.084 7.05 2.34 9.12
6/12/2022 2:00:00 AM 14.35 57.83 0.084 7.11 2.6 9.17
6/12/2022 2:15:00 AM 14.27 57.686 0.084 7.06 2.77 9.15
6/12/2022 2:30:00 AM 14.2 57.56 0.084 7.15 2.3 9.25
6/12/2022 2:45:00 AM 14.11 57.398 0.084 7.11 2.33 9.22
6/12/2022 3:00:00 AM 14.04 57.272 0.084 7.11 2.14 9.27
6/12/2022 3:15:00 AM 13.96 57.128 0.084 7.09 2.46 9.26
6/12/2022 3:30:00 AM 13.89 57.002 0.084 7.11 2.49 9.31
6/12/2022 3:45:00 AM 13.83 56.894 0.085 7.09 2.25 9.31
6/12/2022 4:00:00 AM 13.75 56.75 0.084 7.09 2.34 9.34
6/12/2022 4:15:00 AM 13.69 56.642 0.085 7.09 2.49 9.38
6/12/2022 4:30:00 AM 13.65 56.57 0.084 7.1 2.36 9.34
6/12/2022 4:45:00 AM 13.58 56.444 0.085 7.12 2.47 9.41
6/12/2022 5:00:00 AM 13.51 56.318 0.085 7.1 2.69 9.38
6/12/2022 5:15:00 AM 13.46 56.228 0.085 7.1 4.6 9.41
6/12/2022 5:30:00 AM 13.42 56.156 0.085 7.05 2.69 9.39
6/12/2022 5:45:00 AM 13.38 56.084 0.085 7.1 2.65 9.43
6/12/2022 6:00:00 AM 13.33 55.994 0.085 7.07 2.38 9.45
6/12/2022 6:15:00 AM 13.3 55.94 0.085 7.14 2.25 9.54
6/12/2022 6:30:00 AM 13.26 55.868 0.085 7.11 2.27 9.58
6/12/2022 6:45:00 AM 13.23 55.814 0.085 7.02 2.26 9.65
6/12/2022 7:00:00 AM 13.21 55.778 0.085 7.11 2.06 9.69
6/12/2022 7:15:00 AM 13.21 55.778 0.084 7.1 2.23 9.82
6/12/2022 7:30:00 AM 13.2 55.76 0.084 7.16 2.21 9.93
6/12/2022 7:45:00 AM 13.23 55.814 0.084 7.16 2.24 9.99
6/12/2022 8:00:00 AM 13.26 55.868 0.084 7.21 2.19 10.08
6/12/2022 8:15:00 AM 13.29 55.922 0.084 7.21 2.16 10.15
6/12/2022 8:30:00 AM 13.32 55.976 0.084 7.11 2.19 10.13
6/12/2022 8:45:00 AM 13.39 56.102 0.084 7.27 2.18 10.27
6/12/2022 9:00:00 AM 13.48 56.264 0.084 7.28 2.49 10.28
6/12/2022 9:15:00 AM 13.54 56.372 0.083 7.24 2.01 10.35
6/12/2022 9:30:00 AM 13.69 56.642 0.083 7.31 2.12 10.44
6/12/2022 9:45:00 AM 13.89 57.002 0.083 7.38 2.05 10.48
6/12/2022 10:00:00 AM 14.12 57.416 0.083 7.2 2.06 10.41
6/12/2022 10:15:00 AM 14.29 57.722 0.083 7.13 2.2 10.34
6/12/2022 10:30:00 AM 14.39 57.902 0.083 7.3 2.09 10.27
6/12/2022 10:45:00 AM 14.48 58.064 0.083 7.31 2.34 10.33
6/12/2022 11:00:00 AM 14.58 58.244 0.083 7.27 2.1 10.25
6/12/2022 11:15:00 AM 14.58 58.244 0.083 7.14 2.19 10.12
6/12/2022 11:30:00 AM 14.7 58.46 0.083 7.33 2.18 10.09
6/12/2022 11:45:00 AM 14.7 58.46 0.083 7.2 2.17 9.96
6/12/2022 12:00:00 PM 14.73 58.514 0.083 7.2 2.28 9.94
6/12/2022 12:15:00 PM 14.8 58.64 0.083 7.15 2.21 10.08
6/12/2022 12:30:00 PM 14.92 58.856 0.083 7.19 2.12 10.05
6/12/2022 12:45:00 PM 14.96 58.928 0.083 7.3 2.11 10.02
6/12/2022 1:00:00 PM 14.99 58.982 0.083 7.29 2.34 9.94
6/12/2022 1:15:00 PM 14.96 58.928 0.083 7.13 2.1 9.89
6/12/2022 1:30:00 PM 14.97 58.946 0.083 7.26 1.99 9.86
6/12/2022 1:45:00 PM 14.99 58.982 0.083 7.19 2.13 9.82
6/12/2022 2:00:00 PM 15.1 59.18 0.083 7.12 2.34 9.86
6/12/2022 2:15:00 PM 15.17 59.306 0.083 7.25 2.08 9.95
6/12/2022 2:30:00 PM 15.26 59.468 0.083 7.26 2.31 9.96
6/12/2022 2:45:00 PM 15.43 59.774 0.083 7.39 2.17 10.04
6/12/2022 3:00:00 PM 15.58 60.044 0.083 7.36 2.19 10.1
6/12/2022 3:15:00 PM 15.68 60.224 0.083 7.34 1.97 10.02
6/12/2022 3:30:00 PM 15.72 60.296 0.083 7.24 2.55 9.86
6/12/2022 3:45:00 PM 15.79 60.422 0.083 7.15 2.17 9.71
6/12/2022 4:00:00 PM 15.81 60.458 0.083 7.37 2.11 9.75
6/12/2022 4:15:00 PM 15.77 60.386 0.083 7.24 2.42 9.64
6/12/2022 4:30:00 PM 15.8 60.44 0.083 7.18 2.22 9.58
6/12/2022 4:45:00 PM 15.87 60.566 0.083 7.18 2.21 9.62
6/12/2022 5:00:00 PM 15.9 60.62 0.083 7.1 2.46 9.51
6/12/2022 5:15:00 PM 15.97 60.746 0.083 7.24 2.08 9.66
6/12/2022 5:30:00 PM 15.94 60.692 0.084 7.08 2.33 9.51
6/12/2022 5:45:00 PM 15.97 60.746 0.084 7.22 2.47 9.43
6/12/2022 6:00:00 PM 15.93 60.674 0.084 7.2 2.73 9.3
6/12/2022 6:15:00 PM 15.95 60.71 0.083 7.26 2.96 9.25
6/12/2022 6:30:00 PM 15.9 60.62 0.083 7.12 2.89 9.15
6/12/2022 6:45:00 PM 15.94 60.692 0.083 7.18 2.76 9.05
6/12/2022 7:00:00 PM 15.86 60.548 0.083 7.01 2.54 8.88
6/12/2022 7:15:00 PM 15.88 60.584 0.084 7.02 3.23 8.83
6/12/2022 7:30:00 PM 15.88 60.584 0.083 7.16 2.77 8.98
6/12/2022 7:45:00 PM 15.83 60.494 0.083 7.17 2.88 9.05
6/12/2022 8:00:00 PM 15.76 60.368 0.083 7.09 2.74 9.02
6/12/2022 8:15:00 PM 15.71 60.278 0.083 7.03 2.45 8.92
6/12/2022 8:30:00 PM 15.67 60.206 0.084 7.03 2.4 8.87
6/12/2022 8:45:00 PM 15.67 60.206 0.084 7.08 2.37 8.92
6/12/2022 9:00:00 PM 15.63 60.134 0.084 7.11 2.64 8.91
6/12/2022 9:15:00 PM 15.58 60.044 0.084 7.06 3.97 8.82
6/12/2022 9:30:00 PM 15.55 59.99 0.085 7.09 2.92 8.87
6/12/2022 9:45:00 PM 15.51 59.918 0.084 7.06 2.65 8.86
6/12/2022 10:00:00 PM 15.43 59.774 0.084 6.96 2.41 8.78
6/12/2022 10:15:00 PM 15.42 59.756 0.084 7 2.33 8.83
6/12/2022 10:30:00 PM 15.4 59.72 0.084 7.05 2.55 8.89
6/12/2022 10:45:00 PM 15.34 59.612 0.084 6.97 2.54 8.86
6/12/2022 11:00:00 PM 15.32 59.576 0.085 7.07 2.65 8.91
6/12/2022 11:15:00 PM 15.3 59.54 0.085 6.98 2.6 8.88
6/12/2022 11:30:00 PM 15.28 59.504 0.086 7.09 2.68 8.99
6/12/2022 11:45:00 PM 15.21 59.378 0.086 7.03 2.71 8.9
6/13/2022 12:00:00 AM 15.22 59.396 0.086 7.01 2.87 8.97
6/13/2022 12:15:00 AM 15.19 59.342 0.086 7.03 2.45 8.97
6/13/2022 12:30:00 AM 15.13 59.234 0.086 6.97 2.7 8.92
6/13/2022 12:45:00 AM 15.14 59.252 0.086 7.02 2.35 8.94
6/13/2022 1:00:00 AM 15.1 59.18 0.086 7.01 2.08 8.92
6/13/2022 1:15:00 AM 15.08 59.144 0.086 7.01 2.34 8.99
6/13/2022 1:30:00 AM 15.05 59.09 0.086 7.08 2.74 9.01
6/13/2022 1:45:00 AM 15.02 59.036 0.086 7.02 2.53 8.97
6/13/2022 2:00:00 AM 14.99 58.982 0.086 7.02 2.22 9.03
6/13/2022 2:15:00 AM 14.96 58.928 0.086 7.03 2.42 9.06
6/13/2022 2:30:00 AM 14.91 58.838 0.086 7.09 2.28 9.06
6/13/2022 2:45:00 AM 14.89 58.802 0.086 7.01 2.22 9.02
6/13/2022 3:00:00 AM 14.85 58.73 0.086 7.07 2.16 9.07
6/13/2022 3:15:00 AM 14.81 58.658 0.086 7 2.35 9.01
6/13/2022 3:30:00 AM 14.78 58.604 0.086 7 2.34 9
6/13/2022 3:45:00 AM 14.78 58.604 0.086 7.04 2.14 9.06
6/13/2022 4:00:00 AM 14.78 58.604 0.086 7.03 2.53 9.02
6/13/2022 4:15:00 AM 14.75 58.55 0.086 7.05 2.62 9.1
6/13/2022 4:30:00 AM 14.74 58.532 0.086 7.06 2.34 9.09
6/13/2022 4:45:00 AM 14.74 58.532 0.086 7.09 2.25 9.11
6/13/2022 5:00:00 AM 14.69 58.442 0.086 6.95 2.39 8.98
6/13/2022 5:15:00 AM 14.73 58.514 0.086 7.03 2.34 9.1
6/13/2022 5:30:00 AM 14.71 58.478 0.086 7.03 2.39 9.11
6/13/2022 5:45:00 AM 14.69 58.442 0.086 7 2.31 9.04
6/13/2022 6:00:00 AM 14.65 58.37 0.086 7 2.56 9.08
6/13/2022 6:15:00 AM 14.69 58.442 0.086 7 2.39 9.11
6/13/2022 6:30:00 AM 14.7 58.46 0.086 7.05 2.49 9.19
6/13/2022 6:45:00 AM 14.69 58.442 0.086 7.06 2.19 9.23
6/13/2022 7:00:00 AM 14.7 58.46 0.086 7.08 2.67 9.33
6/13/2022 7:15:00 AM 14.69 58.442 0.086 6.99 2.27 9.31
6/13/2022 7:30:00 AM 14.68 58.424 0.086 7.03 2.69 9.4
6/13/2022 7:45:00 AM 14.74 58.532 0.086 7.11 2.34 9.52
6/13/2022 8:00:00 AM 14.76 58.568 0.085 7.12 2.21 9.57
6/13/2022 8:15:00 AM 14.81 58.658 0.085 7.08 2.2 9.63
6/13/2022 8:30:00 AM 14.87 58.766 0.085 7.15 2.33 9.79
6/13/2022 8:45:00 AM 14.94 58.892 0.085 7.12 2.11 9.85
6/13/2022 9:00:00 AM 15.06 59.108 0.085 7.21 2.21 9.94
6/13/2022 9:15:00 AM 15.11 59.198 0.084 7.16 2.25 9.88
6/13/2022 9:30:00 AM 15.2 59.36 0.084 7.26 2.02 9.99
6/13/2022 9:45:00 AM 15.26 59.468 0.084 7.24 2.14 9.96
6/13/2022 10:00:00 AM 15.31 59.558 0.084 7.18 2.3 9.96
6/13/2022 10:15:00 AM 15.42 59.756 0.084 7.31 2.13 9.94
6/13/2022 10:30:00 AM 15.49 59.882 0.084 7.27 2.16 9.93
6/13/2022 10:45:00 AM 15.66 60.188 0.084 7.31 2.01 9.96
6/13/2022 11:00:00 AM 15.72 60.296 0.084 7.22 2.14 9.94
6/13/2022 11:15:00 AM 15.78 60.404 0.084 7.18 2.3 9.87
6/13/2022 11:30:00 AM 15.87 60.566 0.084 7.32 2.06 9.94
6/13/2022 11:45:00 AM 15.95 60.71 0.084 7.35 2.13 9.98
6/13/2022 12:00:00 PM 16.05 60.89 0.084 7.2 2.12 10
6/13/2022 12:15:00 PM 16.22 61.196 0.084 7.32 2.06 9.95
6/13/2022 12:30:00 PM 16.47 61.646 0.084 7.19 2.35 9.95
6/13/2022 12:45:00 PM 16.79 62.222 0.083 7.49 2.14 10.03
6/13/2022 1:00:00 PM 17.12 62.816 0.083 7.36 2.18 9.87
6/13/2022 1:15:00 PM 17.45 63.41 0.083 7.28 2.04 9.88
6/13/2022 1:30:00 PM 17.75 63.95 0.083 7.42 2.23 9.79
6/13/2022 1:45:00 PM 18.06 64.508 0.083 7.46 2.55 9.7
6/13/2022 2:00:00 PM 18.19 64.742 0.083 7.34 1.88 9.5
6/13/2022 2:15:00 PM 18.37 65.066 0.084 7.36 2.01 9.45
6/13/2022 2:30:00 PM 18.67 65.606 0.083 7.27 2.02 9.26
6/13/2022 2:45:00 PM 18.88 65.984 0.084 7.38 1.97 9.31
6/13/2022 3:00:00 PM 19.07 66.326 0.084 7.19 2.03 9.11
6/13/2022 3:15:00 PM 19.21 66.578 0.084 7.29 1.99 9.12
6/13/2022 3:30:00 PM 19.39 66.902 0.084 7.25 2.23 9.01
6/13/2022 3:45:00 PM 19.6 67.28 0.084 7.24 2.05 8.96
6/13/2022 4:00:00 PM 19.64 67.352 0.084 7.24 2.57 8.89
6/13/2022 4:15:00 PM 19.64 67.352 0.084 7.18 2.02 8.76
6/13/2022 4:30:00 PM 19.72 67.496 0.085 7.25 2.07 8.77
6/13/2022 4:45:00 PM 19.78 67.604 0.085 7.23 2.18 8.8
6/13/2022 5:00:00 PM 19.68 67.424 0.085 7.17 2.26 8.69
6/13/2022 5:15:00 PM 19.69 67.442 0.085 7.22 2.08 8.69
6/13/2022 5:30:00 PM 19.7 67.46 0.085 7.2 2.18 8.64
6/13/2022 5:45:00 PM 19.64 67.352 0.085 7.16 2.16 8.49
6/13/2022 6:00:00 PM 19.51 67.118 0.085 7.1 2.12 8.44
6/13/2022 6:15:00 PM 19.48 67.064 0.085 7.05 1.88 8.38
6/13/2022 6:30:00 PM 19.45 67.01 0.085 7.08 1.95 8.47
6/13/2022 6:45:00 PM 19.39 66.902 0.086 7.03 2.3 8.35
6/13/2022 7:00:00 PM 19.33 66.794 0.086 7.1 2.03 8.44
6/13/2022 7:15:00 PM 19.25 66.65 0.086 7.04 2.1 8.42
6/13/2022 7:30:00 PM 19.2 66.56 0.086 7.18 2.12 8.45
6/13/2022 7:45:00 PM 19.1 66.38 0.086 7.12 2.18 8.37
6/13/2022 8:00:00 PM 18.98 66.164 0.086 7.05 2.16 8.27
6/13/2022 8:15:00 PM 18.9 66.02 0.087 7.13 2.1 8.31
6/13/2022 8:30:00 PM 18.78 65.804 0.087 7.1 2.02 8.26
6/13/2022 8:45:00 PM 18.62 65.516 0.087 7.09 2.3 8.18
6/13/2022 9:00:00 PM 18.43 65.174 0.087 7.05 2.33 8.15
6/13/2022 9:15:00 PM 18.33 64.994 0.087 6.96 2.17 8.02
6/13/2022 9:30:00 PM 18.17 64.706 0.087 7.02 2.48 8.16
6/13/2022 9:45:00 PM 18.06 64.508 0.087 7.02 2.47 8.19
6/13/2022 10:00:00 PM 17.85 64.13 0.087 7.01 2.33 8.15
6/13/2022 10:15:00 PM 17.76 63.968 0.087 7.06 2.13 8.2
6/13/2022 10:30:00 PM 17.59 63.662 0.088 7.02 2.08 8.24
6/13/2022 10:45:00 PM 17.46 63.428 0.087 6.99 2.33 8.22
6/13/2022 11:00:00 PM 17.3 63.14 0.088 7.01 2.18 8.3
6/13/2022 11:15:00 PM 17.23 63.014 0.088 7.04 2.33 8.33
6/13/2022 11:30:00 PM 17.07 62.726 0.088 7.02 2.13 8.38
6/13/2022 11:45:00 PM 16.88 62.384 0.088 7.02 2.09 8.38
6/14/2022 12:00:00 AM 16.76 62.168 0.088 7.05 2.02 8.46
6/14/2022 12:15:00 AM 16.62 61.916 0.088 6.94 3.19 8.37
6/14/2022 12:30:00 AM 16.47 61.646 0.088 7.01 2.49 8.49
6/14/2022 12:45:00 AM 16.37 61.466 0.088 7.05 2.26 8.58
6/14/2022 1:00:00 AM 16.22 61.196 0.088 7.02 2.21 8.56
6/14/2022 1:15:00 AM 16.08 60.944 0.088 6.91 2.25 8.53
6/14/2022 1:30:00 AM 16.04 60.872 0.088 6.95 2.42 8.64
6/14/2022 1:45:00 AM 15.95 60.71 0.088 6.91 2.11 8.57
6/14/2022 2:00:00 AM 15.87 60.566 0.088 7.06 2.04 8.69
6/14/2022 2:15:00 AM 15.77 60.386 0.088 6.88 1.88 8.64
6/14/2022 2:30:00 AM 15.7 60.26 0.088 7.03 1.71 8.74
6/14/2022 2:45:00 AM 15.62 60.116 0.088 7.06 2.03 8.74
6/14/2022 3:00:00 AM 15.55 59.99 0.088 6.97 1.92 8.7
6/14/2022 3:15:00 AM 15.47 59.846 0.088 7.04 1.85 8.76
6/14/2022 3:30:00 AM 15.39 59.702 0.088 6.99 2.11 8.75
6/14/2022 3:45:00 AM 15.34 59.612 0.088 7.02 1.82 8.81
6/14/2022 4:00:00 AM 15.3 59.54 0.088 7 1.83 8.81
6/14/2022 4:15:00 AM 15.17 59.306 0.088 6.95 1.88 8.78
6/14/2022 4:30:00 AM 15.16 59.288 0.088 7.04 1.91 8.86
6/14/2022 4:45:00 AM 15.1 59.18 0.088 7.07 2.08 8.92
6/14/2022 5:00:00 AM 15.01 59.018 0.088 7.04 2.45 8.9
6/14/2022 5:15:00 AM 14.97 58.946 0.088 7.09 2 8.95
6/14/2022 5:30:00 AM 14.9 58.82 0.088 7.07 2.39 8.96
6/14/2022 5:45:00 AM 14.79 58.622 0.088 7.03 2.27 8.97
6/14/2022 6:00:00 AM 14.76 58.568 0.088 7.04 2.08 9.01
6/14/2022 6:15:00 AM 14.71 58.478 0.088 7.05 1.89 9.14
6/14/2022 6:30:00 AM 14.7 58.46 0.088 7.08 1.86 9.18
6/14/2022 6:45:00 AM 14.65 58.37 0.088 7.04 1.99 9.25
6/14/2022 7:00:00 AM 14.61 58.298 0.088 7.03 1.85 9.34
6/14/2022 7:15:00 AM 14.63 58.334 0.088 7.11 1.92 9.5
6/14/2022 7:30:00 AM 14.61 58.298 0.087 6.97 1.82 9.57
6/14/2022 7:45:00 AM 14.61 58.298 0.087 7.13 1.77 9.68
6/14/2022 8:00:00 AM 14.61 58.298 0.087 7.17 1.98 9.76
6/14/2022 8:15:00 AM 14.71 58.478 0.087 7.13 1.77 9.85
6/14/2022 8:30:00 AM 14.85 58.73 0.087 7.25 1.8 9.89
6/14/2022 8:45:00 AM 14.91 58.838 0.087 7.17 1.95 9.85
6/14/2022 9:00:00 AM 15.03 59.054 0.087 7.12 1.87 9.82
6/14/2022 9:15:00 AM 15.14 59.252 0.087 7.24 1.85 9.88
6/14/2022 9:30:00 AM 15.29 59.522 0.087 7.23 1.84 9.93
6/14/2022 9:45:00 AM 15.44 59.792 0.086 7.28 1.92 9.95
6/14/2022 10:00:00 AM 15.61 60.098 0.086 7.36 1.69 9.95
6/14/2022 10:15:00 AM 15.77 60.386 0.086 7.33 2.78 9.93
6/14/2022 10:30:00 AM 15.96 60.728 0.086 7.12 1.93 9.79
6/14/2022 10:45:00 AM 16.24 61.232 0.086 7.41 1.9 9.88
6/14/2022 11:00:00 AM 16.46 61.628 0.086 7.28 1.85 9.75
6/14/2022 11:15:00 AM 16.77 62.186 0.086 7.34 2.71 9.78
6/14/2022 11:30:00 AM 17.04 62.672 0.086 7.31 2.26 9.71
6/14/2022 11:45:00 AM 17.35 63.23 0.086 7.37 1.88 9.67
6/14/2022 12:00:00 PM 17.56 63.608 0.086 7.24 1.92 9.6
6/14/2022 12:15:00 PM 17.9 64.22 0.086 7.47 2.14 9.64
6/14/2022 12:30:00 PM 18.18 64.724 0.086 7.51 2.16 9.57
6/14/2022 12:45:00 PM 18.44 65.192 0.086 7.28 2.15 9.44
6/14/2022 1:00:00 PM 18.79 65.82201 0.086 7.32 2.06 9.4
6/14/2022 1:15:00 PM 19.06 66.308 0.086 7.44 1.99 9.34
6/14/2022 1:30:00 PM 19.4 66.92 0.086 7.49 2.09 9.22
6/14/2022 1:45:00 PM 19.67 67.406 0.086 7.49 2.43 9.2
6/14/2022 2:00:00 PM 19.96 67.92799 0.086 7.53 2.53 9.12
6/14/2022 2:15:00 PM 20.21 68.378 0.086 7.51 1.72 9.05
6/14/2022 2:30:00 PM 20.38 68.684 0.086 7.27 1.91 8.88
6/14/2022 2:45:00 PM 20.58 69.044 0.086 7.43 1.85 8.88
6/14/2022 3:00:00 PM 20.73 69.314 0.086 7.43 1.77 8.81
6/14/2022 3:15:00 PM 20.86 69.548 0.086 7.45 1.66 8.81
6/14/2022 3:30:00 PM 20.92 69.656 0.086 7.42 1.83 8.71
6/14/2022 3:45:00 PM 21.05 69.89 0.086 7.48 1.85 8.69
6/14/2022 4:00:00 PM 21.14 70.052 0.086 7.46 1.57 8.61
6/14/2022 4:15:00 PM 21.24 70.232 0.086 7.38 2.22 8.58
6/14/2022 4:30:00 PM 21.24 70.232 0.087 7.43 1.81 8.51
6/14/2022 4:45:00 PM 21.23 70.214 0.087 7.41 1.66 8.49
6/14/2022 5:00:00 PM 21.24 70.232 0.087 7.36 1.81 8.41
6/14/2022 5:15:00 PM 21.18 70.124 0.087 7.31 1.7 8.34
6/14/2022 5:30:00 PM 21.1 69.98 0.087 7.31 1.63 8.33
6/14/2022 5:45:00 PM 21 69.8 0.087 7.33 1.75 8.3
6/14/2022 6:00:00 PM 20.92 69.656 0.088 7.28 1.83 8.21
6/14/2022 6:15:00 PM 20.85 69.53 0.088 7.28 1.85 8.2
6/14/2022 6:30:00 PM 20.72 69.296 0.088 7.19 1.72 8.16
6/14/2022 6:45:00 PM 20.62 69.116 0.088 7.17 1.96 8.07
6/14/2022 7:00:00 PM 20.47 68.846 0.088 7.26 1.68 8.08
6/14/2022 7:15:00 PM 20.33 68.594 0.088 7.21 1.71 8.03
6/14/2022 7:30:00 PM 20.22 68.396 0.088 7.24 1.79 8.1
6/14/2022 7:45:00 PM 20.1 68.18 0.088 7.2 1.97 7.99
6/14/2022 8:00:00 PM 19.97 67.946 0.089 7.15 1.88 7.96
6/14/2022 8:15:00 PM 19.81 67.658 0.089 7.17 1.88 7.96
6/14/2022 8:30:00 PM 19.67 67.406 0.089 7.13 1.74 7.95
6/14/2022 8:45:00 PM 19.5 67.1 0.089 7.14 1.78 7.93
6/14/2022 9:00:00 PM 19.35 66.83 0.089 7.13 1.78 7.93
6/14/2022 9:15:00 PM 19.2 66.56 0.089 7.12 1.89 7.94
6/14/2022 9:30:00 PM 19.04 66.272 0.09 7.1 2.26 7.94
6/14/2022 9:45:00 PM 18.91 66.038 0.09 7.15 1.87 7.99
6/14/2022 10:00:00 PM 18.75 65.75 0.09 7.12 1.82 7.99
6/14/2022 10:15:00 PM 18.58 65.444 0.09 7.12 1.93 8.01
6/14/2022 10:30:00 PM 18.44 65.192 0.09 7.11 1.84 8.04
6/14/2022 10:45:00 PM 18.3 64.94 0.09 7.13 1.75 8.11
6/14/2022 11:00:00 PM 18.13 64.634 0.09 7.1 1.7 8.09
6/14/2022 11:15:00 PM 18 64.4 0.09 7.08 1.69 8.14
6/14/2022 11:30:00 PM 17.86 64.148 0.09 7.09 1.91 8.17
6/14/2022 11:45:00 PM 17.73 63.914 0.09 7.12 3.47 8.21
6/15/2022 12:00:00 AM 17.57 63.626 0.09 7.07 2.12 8.23
6/15/2022 12:15:00 AM 17.45 63.41 0.09 7.08 1.98 8.26
6/15/2022 12:30:00 AM 17.33 63.194 0.09 7.11 1.73 8.31
6/15/2022 12:45:00 AM 17.15 62.87 0.09 7.01 1.8 8.29
6/15/2022 1:00:00 AM 17.04 62.672 0.09 7.08 1.98 8.35
6/15/2022 1:15:00 AM 16.93 62.474 0.09 7.04 1.93 8.41
6/15/2022 1:30:00 AM 16.8 62.24 0.09 7 1.97 8.41
6/15/2022 1:45:00 AM 16.68 62.024 0.09 7.05 1.85 8.43
6/15/2022 2:00:00 AM 16.55 61.79 0.09 7.05 1.78 8.5
6/15/2022 2:15:00 AM 16.44 61.592 0.09 7.06 2.18 8.54
6/15/2022 2:30:00 AM 16.31 61.358 0.09 7.07 1.83 8.54
6/15/2022 2:45:00 AM 16.21 61.178 0.09 7.07 1.86 8.58
6/15/2022 3:00:00 AM 16.07 60.926 0.09 7.06 1.85 8.58
6/15/2022 3:15:00 AM 15.97 60.746 0.09 7.04 2.04 8.6
6/15/2022 3:30:00 AM 15.87 60.566 0.09 7.08 2.12 8.64
6/15/2022 3:45:00 AM 15.74 60.332 0.09 7.01 1.98 8.64
6/15/2022 4:00:00 AM 15.65 60.17 0.09 7.04 2.01 8.68
6/15/2022 4:15:00 AM 15.56 60.008 0.09 7.04 1.9 8.71
6/15/2022 4:30:00 AM 15.45 59.81 0.09 7.06 1.88 8.75
6/15/2022 4:45:00 AM 15.34 59.612 0.09 7.04 1.94 8.76
6/15/2022 5:00:00 AM 15.24 59.432 0.09 7.06 2.02 8.8
6/15/2022 5:15:00 AM 15.17 59.306 0.09 7.08 2 8.84
6/15/2022 5:30:00 AM 15.03 59.054 0.09 6.98 2.98 8.79
6/15/2022 5:45:00 AM 14.98 58.964 0.09 7.04 2.11 8.88
6/15/2022 6:00:00 AM 14.89 58.802 0.09 7.08 2.36 8.93
6/15/2022 6:15:00 AM 14.75 58.55 0.09 7.04 1.95 8.9
6/15/2022 6:30:00 AM 14.69 58.442 0.09 7.03 1.98 9
6/15/2022 6:45:00 AM 14.64 58.352 0.09 7.06 1.85 9.15
6/15/2022 7:00:00 AM 14.57 58.226 0.09 7.1 2.06 9.19
6/15/2022 7:15:00 AM 14.53 58.154 0.09 7.09 1.96 9.25
6/15/2022 7:30:00 AM 14.52 58.136 0.09 7.14 1.82 9.36
6/15/2022 7:45:00 AM 14.5 58.1 0.09 7.07 1.87 9.43
6/15/2022 8:00:00 AM 14.51 58.118 0.089 7.12 1.83 9.48
6/15/2022 8:15:00 AM 14.58 58.244 0.089 7.2 1.85 9.6
6/15/2022 8:30:00 AM 14.71 58.478 0.089 7.16 1.73 9.58
6/15/2022 8:45:00 AM 14.81 58.658 0.089 7.17 1.86 9.69
6/15/2022 9:00:00 AM 14.9 58.82 0.089 7.15 1.69 9.69
6/15/2022 9:15:00 AM 15.02 59.036 0.089 7.15 1.89 9.74
6/15/2022 9:30:00 AM 15.2 59.36 0.089 7.24 1.92 9.83
6/15/2022 9:45:00 AM 15.36 59.648 0.089 7.21 1.88 9.79
6/15/2022 10:00:00 AM 15.53 59.954 0.089 7.24 1.77 9.81
6/15/2022 10:15:00 AM 15.72 60.296 0.089 7.23 1.77 9.81
6/15/2022 10:30:00 AM 15.99 60.782 0.088 7.27 1.97 9.78
6/15/2022 10:45:00 AM 16.26 61.268 0.088 7.25 1.94 9.71
6/15/2022 11:00:00 AM 16.61 61.898 0.088 7.37 1.99 9.7
6/15/2022 11:15:00 AM 16.95 62.51 0.088 7.34 4.75 9.72
6/15/2022 11:30:00 AM 17.24 63.032 0.088 7.34 1.63 9.61
6/15/2022 11:45:00 AM 17.59 63.662 0.088 7.33 1.9 9.58
6/15/2022 12:00:00 PM 17.97 64.346 0.088 7.45 1.84 9.56
6/15/2022 12:15:00 PM 18.32 64.976 0.088 7.46 1.78 9.5
6/15/2022 12:30:00 PM 18.68 65.624 0.088 7.46 1.74 9.37
6/15/2022 12:45:00 PM 19.05 66.29 0.088 7.48 2.03 9.38
6/15/2022 1:00:00 PM 19.4 66.92 0.088 7.46 1.89 9.32
6/15/2022 1:15:00 PM 19.75 67.55 0.088 7.51 1.84 9.33
6/15/2022 1:30:00 PM 20.06 68.108 0.088 7.53 1.79 9.3
6/15/2022 1:45:00 PM 20.22 68.396 0.088 7.45 1.7 9.21
6/15/2022 2:00:00 PM 20.41 68.738 0.088 7.49 1.72 9.18
6/15/2022 2:15:00 PM 20.52 68.936 0.087 7.49 1.79 9.14
6/15/2022 2:30:00 PM 20.74 69.332 0.088 7.55 1.67 9.04
6/15/2022 2:45:00 PM 20.92 69.656 0.087 7.46 1.61 8.94
6/15/2022 3:00:00 PM 21.13 70.034 0.087 7.55 1.84 8.91
6/15/2022 3:15:00 PM 21.34 70.412 0.087 7.55 2.55 8.86
6/15/2022 3:30:00 PM 21.49 70.682 0.088 7.51 1.85 8.76
6/15/2022 3:45:00 PM 21.6 70.88 0.088 7.49 1.69 8.61
6/15/2022 4:00:00 PM 21.67 71.006 0.088 7.44 1.84 8.53
6/15/2022 4:15:00 PM 21.71 71.078 0.088 7.35 1.8 8.46
6/15/2022 4:30:00 PM 21.73 71.114 0.088 7.36 1.95 8.4
6/15/2022 4:45:00 PM 21.8 71.24 0.088 7.42 1.76 8.37
6/15/2022 5:00:00 PM 21.78 71.204 0.088 7.37 1.65 8.33
6/15/2022 5:15:00 PM 21.77 71.186 0.088 7.32 1.8 8.27
6/15/2022 5:30:00 PM 21.75 71.15 0.089 7.35 1.66 8.19
6/15/2022 5:45:00 PM 21.7 71.06 0.089 7.34 1.58 8.18
6/15/2022 6:00:00 PM 21.64 70.952 0.089 7.31 1.71 8.12
6/15/2022 6:15:00 PM 21.58 70.844 0.089 7.2 1.81 8.06
6/15/2022 6:30:00 PM 21.49 70.682 0.089 7.26 2.23 7.95
6/15/2022 6:45:00 PM 21.4 70.52 0.089 7.25 1.85 7.97
6/15/2022 7:00:00 PM 21.28 70.304 0.09 7.24 1.89 7.91
6/15/2022 7:15:00 PM 21.08 69.944 0.09 7.17 3.2 7.95
6/15/2022 7:30:00 PM 21.05 69.89 0.09 7.17 1.71 7.93
6/15/2022 7:45:00 PM 20.95 69.71 0.09 7.19 1.87 7.88
6/15/2022 8:00:00 PM 20.85 69.53 0.09 7.18 1.91 7.86
6/15/2022 8:15:00 PM 20.73 69.314 0.09 7.14 1.9 7.85
6/15/2022 8:30:00 PM 20.61 69.098 0.091 7.09 1.74 7.76
6/15/2022 8:45:00 PM 20.5 68.9 0.091 7.12 1.7 7.73
6/15/2022 9:00:00 PM 20.39 68.702 0.091 7.12 2.1 7.71
6/15/2022 9:15:00 PM 20.28 68.504 0.091 7.1 2.2 7.74
6/15/2022 9:30:00 PM 20.16 68.288 0.091 7.11 2.07 7.63
6/15/2022 9:45:00 PM 20.04 68.07201 0.091 7.06 2.39 7.71
6/15/2022 10:00:00 PM 19.91 67.838 0.091 7.05 1.81 7.7
6/15/2022 10:15:00 PM 19.77 67.586 0.092 7.01 2.07 7.68
6/15/2022 10:30:00 PM 19.67 67.406 0.092 7.05 1.91 7.75
6/15/2022 10:45:00 PM 19.55 67.19 0.092 7.07 1.8 7.78
6/15/2022 11:00:00 PM 19.41 66.938 0.092 7.06 1.93 7.76
6/15/2022 11:15:00 PM 19.31 66.758 0.092 7.06 1.98 7.85
6/15/2022 11:30:00 PM 19.22 66.596 0.092 7.06 1.86 7.82
6/15/2022 11:45:00 PM 19.08 66.344 0.092 7.02 1.75 7.85
6/16/2022 12:00:00 AM 19 66.2 0.092 7.04 2 7.89
6/16/2022 12:15:00 AM 18.85 65.93 0.092 7.03 2.23 7.88
6/16/2022 12:30:00 AM 18.76 65.768 0.092 7.02 2.06 7.92
6/16/2022 12:45:00 AM 18.67 65.606 0.092 7 1.83 7.93
6/16/2022 1:00:00 AM 18.58 65.444 0.092 7.03 1.89 7.9
6/16/2022 1:15:00 AM 18.5 65.3 0.092 7.07 1.94 8.02
6/16/2022 1:30:00 AM 18.44 65.192 0.092 7.06 1.78 8.05
6/16/2022 1:45:00 AM 18.37 65.066 0.092 7.02 1.87 7.99
6/16/2022 2:00:00 AM 18.26 64.868 0.092 7.05 1.9 8.03
6/16/2022 2:15:00 AM 18.19 64.742 0.09 7.08 6.72 8.14
6/16/2022 2:30:00 AM 18.12 64.616 0.09 7.08 2.44 8.12
6/16/2022 2:45:00 AM 18.03 64.454 0.091 7.05 2.31 8.07
6/16/2022 3:00:00 AM 17.96 64.328 0.09 7.04 3.59 8.17
6/16/2022 3:15:00 AM 17.92 64.256 0.091 7.06 2.91 8.15
6/16/2022 3:30:00 AM 17.84 64.112 0.091 7.04 3.33 8.15
6/16/2022 3:45:00 AM 17.75 63.95 0.092 7.04 3.31 8.19
6/16/2022 4:00:00 AM 17.67 63.806 0.091 7.06 2.99 8.17
6/16/2022 4:15:00 AM 17.56 63.608 0.087 7.05 3.57 8.27
6/16/2022 4:30:00 AM 17.47 63.446 0.086 7.03 8.53 8.35
6/16/2022 4:45:00 AM 17.37 63.266 0.087 7.04 15.76 8.33
6/16/2022 5:00:00 AM 17.31 63.158 0.085 7.04 12.22 8.41
6/16/2022 5:15:00 AM 17.27 63.086 0.084 7.03 86.26 8.42
6/16/2022 5:30:00 AM 17.21 62.978 0.083 7.08 21.81 8.5
6/16/2022 5:45:00 AM 17.05 62.69 0.079 7.09 14.38 8.64
6/16/2022 6:00:00 AM 17.02 62.636 0.08 7.14 14.22 8.74
6/16/2022 6:15:00 AM 16.99 62.582 0.079 7.1 38.53 8.87
6/16/2022 6:30:00 AM 16.85 62.33 0.077 7.11 44.34 8.94
6/16/2022 6:45:00 AM 16.68 62.024 0.08 7.08 45.38 9.04
6/16/2022 7:00:00 AM 16.4 61.52 0.081 7.05 111.66 9.14
6/16/2022 7:15:00 AM 16.04 60.872 0.068 6.99 240.67 9.28
6/16/2022 7:30:00 AM 15.96 60.728 0.056 6.92 252.11 9.36
6/16/2022 7:45:00 AM 15.99 60.782 0.052 6.9 207.28 9.38
6/16/2022 8:00:00 AM 16.04 60.872 0.052 6.94 208.56 9.4
6/16/2022 8:15:00 AM 16.09 60.962 0.052 6.9 224.37 9.41
6/16/2022 8:30:00 AM 16.16 61.088 0.053 6.94 224.73 9.4
6/16/2022 8:45:00 AM 16.2 61.16 0.053 6.97 202.57 9.4
6/16/2022 9:00:00 AM -99999.99 -179968 -99999.99 -99999.99 -99999.99 -99999.99
6/16/2022 9:15:00 AM 16.28 61.304 0.052 6.94 163.29 9.39
6/16/2022 9:30:00 AM -99999.99 -179968 -99999.99 -99999.99 -99999.99 -99999.99
6/16/2022 9:45:00 AM -99999.99 -179968 -99999.99 -99999.99 -99999.99 -99999.99
6/16/2022 10:00:00 AM -99999.99 -179968 -99999.99 -99999.99 -99999.99 -99999.99
6/16/2022 10:15:00 AM -99999.99 -179968 -99999.99 -99999.99 -99999.99 -99999.99
6/16/2022 10:30:00 AM -99999.99 -179968 -99999.99 -99999.99 -99999.99 -99999.99
6/16/2022 10:45:00 AM 16.48 61.664 0.049 6.96 55.53 9.37
6/16/2022 11:00:00 AM -99999.99 -179968 -99999.99 -99999.99 -99999.99 -99999.99
6/16/2022 11:15:00 AM 16.65 61.97 0.05 6.97 41.04 9.33
6/16/2022 11:30:00 AM 16.75 62.15 0.05 7 35.75 9.31
6/16/2022 11:45:00 AM 16.83 62.294 0.051 7.01 32.75 9.29
6/16/2022 12:00:00 PM -99999.99 -179968 -99999.99 -99999.99 -99999.99 -99999.99
6/16/2022 12:15:00 PM -99999.99 -179968 -99999.99 -99999.99 -99999.99 -99999.99
6/16/2022 12:30:00 PM 17.18 62.924 0.054 7.01 24.64 9.23
6/16/2022 12:45:00 PM 17.31 63.158 0.054 7.08 23.09 9.2
6/16/2022 1:00:00 PM 17.42 63.356 0.055 7.06 21.94 9.18
6/16/2022 1:15:00 PM 17.54 63.572 0.056 7.1 20.03 9.17
6/16/2022 1:30:00 PM 17.65 63.77 0.056 7.08 19.5 9.16
6/16/2022 1:45:00 PM 17.77 63.986 0.056 7.11 18.53 9.15
6/16/2022 2:00:00 PM 17.87 64.166 0.057 7.09 18.34 9.14
6/16/2022 2:15:00 PM 17.96 64.328 0.057 7.16 17.66 9.12
6/16/2022 2:30:00 PM 18.07 64.526 0.057 7.16 17.14 9.13
6/16/2022 2:45:00 PM -99999.99 -179968 -99999.99 -99999.99 -99999.99 -99999.99
6/16/2022 3:00:00 PM 18.14 64.652 0.057 7.1 16.34 9.11
6/16/2022 3:15:00 PM 18.16 64.688 0.058 7.13 15.6 9.09
6/16/2022 3:30:00 PM 18.17 64.706 0.058 7.11 15.6 9.08
6/16/2022 3:45:00 PM 18.21 64.778 0.058 7.13 15.32 9.07
6/16/2022 4:00:00 PM 18.25 64.85 0.058 7.15 14.88 9.06
6/16/2022 4:15:00 PM 18.28 64.904 0.058 7.15 14.25 9.05
6/16/2022 4:30:00 PM 18.27 64.886 0.058 7.14 13.82 9.04
6/16/2022 4:45:00 PM 18.27 64.886 0.059 7.13 13.48 9.04
6/16/2022 5:00:00 PM 18.25 64.85 0.059 7.14 14.21 9.02
6/16/2022 5:15:00 PM 18.27 64.886 0.059 7.14 13.47 9.01
6/16/2022 5:30:00 PM 18.29 64.922 0.059 7.13 13.29 8.99
6/16/2022 5:45:00 PM 18.3 64.94 0.059 7.12 12.97 8.98
6/16/2022 6:00:00 PM 18.29 64.922 0.059 7.13 12.71 8.95
6/16/2022 6:15:00 PM 18.27 64.886 0.059 7.12 12.28 8.94
6/16/2022 6:30:00 PM 18.24 64.832 0.059 7.1 12.51 8.93
6/16/2022 6:45:00 PM 18.2 64.76 0.059 7.1 11.9 8.92
6/16/2022 7:00:00 PM 18.17 64.706 0.06 7.11 11.77 8.91
6/16/2022 7:15:00 PM 18.14 64.652 0.06 7.09 12.23 8.91
6/16/2022 7:30:00 PM 18.11 64.598 0.06 7.08 11.5 8.91
6/16/2022 7:45:00 PM 18.09 64.562 0.06 7.06 11.13 8.9
6/16/2022 8:00:00 PM 18.06 64.508 0.06 7.07 11.14 8.9
6/16/2022 8:15:00 PM 18.02 64.436 0.06 7.07 10.89 8.9
6/16/2022 8:30:00 PM 17.99 64.382 0.06 7.05 10.72 8.9
6/16/2022 8:45:00 PM 17.96 64.328 0.06 7.06 11.09 8.9
6/16/2022 9:00:00 PM 17.93 64.274 0.06 7.06 10.79 8.9
6/16/2022 9:15:00 PM 17.9 64.22 0.06 7.06 10.8 8.9
6/16/2022 9:30:00 PM 17.88 64.184 0.06 7.05 10.59 8.9
6/16/2022 9:45:00 PM 17.85 64.13 0.06 7.03 10.48 8.91
6/16/2022 10:00:00 PM 17.83 64.094 0.06 7.05 10.48 8.91
6/16/2022 10:15:00 PM 17.8 64.04 0.06 7.04 10.18 8.92
6/16/2022 10:30:00 PM 17.77 63.986 0.06 7.04 10.15 8.92
6/16/2022 10:45:00 PM 17.74 63.932 0.061 7.05 9.73 8.92
6/16/2022 11:00:00 PM 17.71 63.878 0.061 7.01 10.09 8.93
6/16/2022 11:15:00 PM 17.69 63.842 0.061 7.05 10.13 8.93
6/16/2022 11:30:00 PM 17.68 63.824 0.061 7.03 9.7 8.94
6/16/2022 11:45:00 PM 17.67 63.806 0.061 7.05 9.57 8.94
6/17/2022 12:00:00 AM 17.65 63.77 0.061 7.04 9.77 8.94
6/17/2022 12:15:00 AM 17.63 63.734 0.061 7.04 9.6 8.94
6/17/2022 12:30:00 AM 17.61 63.698 0.061 7.01 9.78 8.94
6/17/2022 12:45:00 AM 17.58 63.644 0.061 7.04 9.5 8.94
6/17/2022 1:00:00 AM 17.56 63.608 0.061 7.05 9.4 8.95
6/17/2022 1:15:00 AM 17.54 63.572 0.061 7.03 8.62 8.95
6/17/2022 1:30:00 AM 17.51 63.518 0.061 7.03 8.75 8.95
6/17/2022 1:45:00 AM 17.48 63.464 0.061 7.04 8.76 8.96
6/17/2022 2:00:00 AM 17.44 63.392 0.061 7.03 8.74 8.96
6/17/2022 2:15:00 AM 17.4 63.32 0.061 7.02 8.7 8.96
6/17/2022 2:30:00 AM 17.36 63.248 0.062 7.02 8.44 8.97
6/17/2022 2:45:00 AM 17.33 63.194 0.062 6.99 8.42 8.97
6/17/2022 3:00:00 AM 17.3 63.14 0.062 7.02 8.33 8.98
6/17/2022 3:15:00 AM 17.26 63.068 0.062 7.02 7.98 8.98
6/17/2022 3:30:00 AM 17.22 62.996 0.062 7.01 8.43 8.99
6/17/2022 3:45:00 AM 17.18 62.924 0.062 7 8.17 8.99
6/17/2022 4:00:00 AM 17.14 62.852 0.062 7 7.96 9
6/17/2022 4:15:00 AM 17.1 62.78 0.062 7.02 7.99 9
6/17/2022 4:30:00 AM 17.05 62.69 0.062 7.01 7.87 9.02
6/17/2022 4:45:00 AM 17.02 62.636 0.062 6.99 8.01 9.02
6/17/2022 5:00:00 AM 16.98 62.564 0.062 7.01 7.61 9.03
6/17/2022 5:15:00 AM 16.94 62.492 0.062 7.01 7.66 9.03
6/17/2022 5:30:00 AM 16.89 62.402 0.062 7.03 7.56 9.04
6/17/2022 5:45:00 AM 16.84 62.312 0.063 7.01 7.75 9.05
6/17/2022 6:00:00 AM 16.79 62.222 0.063 7.04 7.57 9.06
6/17/2022 6:15:00 AM 16.74 62.132 0.063 7.04 7.41 9.08
6/17/2022 6:30:00 AM 16.71 62.078 0.063 7.05 7.48 9.12
6/17/2022 6:45:00 AM 16.68 62.024 0.063 7.05 6.92 9.15
6/17/2022 7:00:00 AM 16.66 61.988 0.063 7.06 6.8 9.16
6/17/2022 7:15:00 AM 16.65 61.97 0.063 7.07 7 9.18
6/17/2022 7:30:00 AM 16.65 61.97 0.063 7.08 6.55 9.2
6/17/2022 7:45:00 AM 16.65 61.97 0.063 7.07 6.4 9.21
6/17/2022 8:00:00 AM 16.66 61.988 0.063 7.08 6.22 9.23
6/17/2022 8:15:00 AM 16.7 62.06 0.063 7.09 5.82 9.25
6/17/2022 8:30:00 AM 16.78 62.204 0.063 7.11 5.85 9.29
6/17/2022 8:45:00 AM 16.86 62.348 0.063 7.11 5.71 9.31
6/17/2022 9:00:00 AM 16.94 62.492 0.063 7.16 5.64 9.32
6/17/2022 9:15:00 AM 17.05 62.69 0.063 7.17 5.44 9.31
6/17/2022 9:30:00 AM 17.15 62.87 0.063 7.18 5.47 9.32
6/17/2022 9:45:00 AM 17.29 63.122 0.063 7.16 5.22 9.32
6/17/2022 10:00:00 AM 17.44 63.392 0.063 7.22 5.22 9.32
6/17/2022 10:15:00 AM 17.49 63.482 0.063 7.23 4.9 9.3
6/17/2022 10:30:00 AM 17.58 63.644 0.063 7.23 4.97 9.27
6/17/2022 10:45:00 AM 17.74 63.932 0.063 7.22 5.06 9.26
6/17/2022 11:00:00 AM 17.95 64.31 0.063 7.26 5.06 9.26
6/17/2022 11:15:00 AM 18.14 64.652 0.063 7.27 4.77 9.24
6/17/2022 11:30:00 AM 18.29 64.922 0.063 7.27 4.56 9.2
6/17/2022 11:45:00 AM 18.48 65.264 0.063 7.29 4.74 9.19
6/17/2022 12:00:00 PM 18.64 65.552 0.063 7.26 4.53 9.16
6/17/2022 12:15:00 PM 18.85 65.93 0.064 7.31 4.54 9.14
6/17/2022 12:30:00 PM 18.98 66.164 0.064 7.28 4.39 9.09
6/17/2022 12:45:00 PM 19.18 66.524 0.064 7.31 4.41 9.07
6/17/2022 1:00:00 PM 19.39 66.902 0.064 7.31 4.57 9.03
6/17/2022 1:15:00 PM 19.39 66.902 0.064 7.32 4.31 8.98
6/17/2022 1:30:00 PM 19.46 67.028 0.064 7.31 4.41 8.96
6/17/2022 1:45:00 PM 19.74 67.532 0.064 7.32 4.35 8.95
6/17/2022 2:00:00 PM 19.99 67.982 0.064 7.31 4.3 8.91
6/17/2022 2:15:00 PM 20.14 68.252 0.064 7.34 4.67 8.88
6/17/2022 2:30:00 PM 20.23 68.414 0.064 7.29 4.36 8.85
6/17/2022 2:45:00 PM 20.28 68.504 0.064 7.33 4.45 8.82
6/17/2022 3:00:00 PM 20.29 68.522 0.064 7.27 4.35 8.79
6/17/2022 3:15:00 PM 20.29 68.522 0.064 7.33 4.49 8.78
6/17/2022 3:30:00 PM 20.23 68.414 0.064 7.31 4.24 8.76
6/17/2022 3:45:00 PM 20.23 68.414 0.065 7.31 4.41 8.76
6/17/2022 4:00:00 PM 20.22 68.396 0.065 7.3 4.28 8.72
6/17/2022 4:15:00 PM 20.19 68.342 0.065 7.24 4.27 8.7
6/17/2022 4:30:00 PM 20.19 68.342 0.065 7.3 4.3 8.7
6/17/2022 4:45:00 PM 20.19 68.342 0.065 7.29 4.45 8.69
6/17/2022 5:00:00 PM 20.08 68.144 0.065 7.28 4.35 8.68
6/17/2022 5:15:00 PM 19.97 67.946 0.065 7.26 4.51 8.66
6/17/2022 5:30:00 PM 19.96 67.92799 0.065 7.28 4.48 8.67
6/17/2022 5:45:00 PM 19.88 67.784 0.065 7.25 4.18 8.66
6/17/2022 6:00:00 PM 19.74 67.532 0.065 7.25 4.54 8.66
6/17/2022 6:15:00 PM 19.68 67.424 0.066 7.25 4.36 8.67
6/17/2022 6:30:00 PM 19.6 67.28 0.066 7.25 4.54 8.67
6/17/2022 6:45:00 PM 19.49 67.082 0.066 7.22 4.43 8.66
6/17/2022 7:00:00 PM 19.38 66.884 0.066 7.22 4.58 8.66
6/17/2022 7:15:00 PM 19.27 66.686 0.066 7.21 4.27 8.66
6/17/2022 7:30:00 PM 19.16 66.488 0.066 7.21 4.57 8.66
6/17/2022 7:45:00 PM 19.04 66.272 0.066 7.19 4.49 8.65
6/17/2022 8:00:00 PM 18.94 66.092 0.066 7.17 4.44 8.65
6/17/2022 8:15:00 PM 18.83 65.894 0.066 7.17 4.5 8.65
6/17/2022 8:30:00 PM 18.72 65.696 0.066 7.15 4.43 8.64
6/17/2022 8:45:00 PM 18.62 65.516 0.067 7.14 4.78 8.63
6/17/2022 9:00:00 PM 18.53 65.354 0.067 7.12 4.52 8.63
6/17/2022 9:15:00 PM 18.44 65.192 0.067 7.09 4.57 8.64
6/17/2022 9:30:00 PM 18.35 65.03 0.067 7.11 4.56 8.64
6/17/2022 9:45:00 PM 18.26 64.868 0.067 7.12 4.41 8.66
6/17/2022 10:00:00 PM 18.17 64.706 0.067 7.12 4.74 8.67
6/17/2022 10:15:00 PM 18.09 64.562 0.067 7.12 4.86 8.68
6/17/2022 10:30:00 PM 18.02 64.436 0.067 7.09 4.47 8.7
6/17/2022 10:45:00 PM 17.94 64.292 0.067 7.11 4.6 8.71
6/17/2022 11:00:00 PM 17.87 64.166 0.067 7.12 4.67 8.73
6/17/2022 11:15:00 PM 17.8 64.04 0.067 7.11 4.61 8.74
6/17/2022 11:30:00 PM 17.73 63.914 0.068 7.11 4.41 8.76
6/17/2022 11:45:00 PM 17.66 63.788 0.068 7.11 4.64 8.77
6/18/2022 12:00:00 AM 17.59 63.662 0.068 7.09 4.47 8.78
6/18/2022 12:15:00 AM 17.52 63.536 0.068 7.13 4.53 8.79
6/18/2022 12:30:00 AM 17.45 63.41 0.068 7.13 4.29 8.81
6/18/2022 12:45:00 AM 17.38 63.284 0.068 7.14 4.38 8.83
6/18/2022 1:00:00 AM 17.29 63.122 0.068 7.14 4.3 8.84
6/18/2022 1:15:00 AM 17.2 62.96 0.068 7.13 4.26 8.86
6/18/2022 1:30:00 AM 17.09 62.762 0.068 7.14 4.22 8.88
6/18/2022 1:45:00 AM 16.99 62.582 0.068 7.14 4.18 8.91
6/18/2022 2:00:00 AM 16.89 62.402 0.068 7.14 4.32 8.93
6/18/2022 2:15:00 AM 16.79 62.222 0.068 7.11 4.38 8.95
6/18/2022 2:30:00 AM 16.7 62.06 0.068 7.15 4.27 8.97
6/18/2022 2:45:00 AM 16.65 61.97 0.068 7.15 4.28 8.98
6/18/2022 3:00:00 AM 16.59 61.862 0.068 7.15 4.04 9
6/18/2022 3:15:00 AM 16.53 61.754 0.068 7.12 4.02 9.01
6/18/2022 3:30:00 AM 16.48 61.664 0.068 7.12 4.02 9.02
6/18/2022 3:45:00 AM 16.43 61.574 0.069 7.16 3.93 9.03
6/18/2022 4:00:00 AM 16.38 61.484 0.068 7.16 4 9.04
6/18/2022 4:15:00 AM 16.33 61.394 0.068 7.14 4.27 9.06
6/18/2022 4:30:00 AM 16.26 61.268 0.068 7.17 4.01 9.08
6/18/2022 4:45:00 AM 16.19 61.142 0.068 7.15 4.17 9.09
6/18/2022 5:00:00 AM 16.12 61.016 0.068 7.13 4.07 9.1
6/18/2022 5:15:00 AM 16.05 60.89 0.069 7.16 3.96 9.12
6/18/2022 5:30:00 AM 15.98 60.764 0.069 7.18 3.9 9.13
6/18/2022 5:45:00 AM 15.91 60.638 0.068 7.14 3.85 9.15
6/18/2022 6:00:00 AM 15.84 60.512 0.069 7.17 3.99 9.17
6/18/2022 6:15:00 AM 15.75 60.35 0.069 7.17 3.89 9.2
6/18/2022 6:30:00 AM 15.68 60.224 0.069 7.19 4.03 9.25
6/18/2022 6:45:00 AM 15.62 60.116 0.069 7.19 3.83 9.31
6/18/2022 7:00:00 AM 15.56 60.008 0.069 7.21 3.87 9.37
6/18/2022 7:15:00 AM 15.5 59.9 0.069 7.21 3.62 9.41
6/18/2022 7:30:00 AM 15.42 59.756 0.069 7.22 3.85 9.41
6/18/2022 7:45:00 AM 15.37 59.666 0.069 7.21 3.6 9.44
6/18/2022 8:00:00 AM 15.32 59.576 0.068 7.25 3.64 9.51
6/18/2022 8:15:00 AM 15.28 59.504 0.068 7.25 3.43 9.57
6/18/2022 8:30:00 AM 15.24 59.432 0.069 7.24 3.7 9.62
6/18/2022 8:45:00 AM 15.19 59.342 0.069 7.28 3.33 9.66
6/18/2022 9:00:00 AM 15.14 59.252 0.068 7.27 3.4 9.68
6/18/2022 9:15:00 AM 15.09 59.162 0.068 7.29 3.35 9.7
6/18/2022 9:30:00 AM 15.08 59.144 0.068 7.3 3.5 9.75
6/18/2022 9:45:00 AM 15.12 59.216 0.068 7.33 3.28 9.81
6/18/2022 10:00:00 AM 15.13 59.234 0.068 7.34 3.32 9.83
6/18/2022 10:15:00 AM 15.11 59.198 0.068 7.35 3.27 9.86
6/18/2022 10:30:00 AM 15.1 59.18 0.068 7.35 3.28 9.86
6/18/2022 10:45:00 AM 15.12 59.216 0.068 7.36 3.2 9.88
6/18/2022 11:00:00 AM 15.14 59.252 0.068 7.38 3.14 9.9
6/18/2022 11:15:00 AM 15.16 59.288 0.068 7.38 3.28 9.9
6/18/2022 11:30:00 AM 15.12 59.216 0.068 7.38 3.15 9.88
6/18/2022 11:45:00 AM 15.07 59.126 0.068 7.37 3.13 9.85
6/18/2022 12:00:00 PM 15.04 59.072 0.068 7.35 3.13 9.84
6/18/2022 12:15:00 PM 15.06 59.108 0.068 7.34 2.97 9.89
6/18/2022 12:30:00 PM 15.05 59.09 0.068 7.36 3.12 9.86
6/18/2022 12:45:00 PM 14.99 58.982 0.068 7.35 3.13 9.85
6/18/2022 1:00:00 PM 14.93 58.874 0.068 7.34 3.08 9.84
6/18/2022 1:15:00 PM 14.92 58.856 0.068 7.37 3.03 9.88
6/18/2022 1:30:00 PM 14.92 58.856 0.068 7.36 2.96 9.89
6/18/2022 1:45:00 PM 14.91 58.838 0.068 7.38 3.06 9.9
6/18/2022 2:00:00 PM 14.95 58.91 0.068 7.39 3.16 9.93
6/18/2022 2:15:00 PM 15.04 59.072 0.068 7.39 3.07 9.94
6/18/2022 2:30:00 PM 15.1 59.18 0.068 7.4 3.06 9.96
6/18/2022 2:45:00 PM 15.07 59.126 0.068 7.39 2.99 9.96
6/18/2022 3:00:00 PM 15.09 59.162 0.068 7.4 3.02 9.96
6/18/2022 3:15:00 PM 15.11 59.198 0.068 7.4 2.83 9.95
6/18/2022 3:30:00 PM 15.12 59.216 0.068 7.39 3 9.92
6/18/2022 3:45:00 PM 15.05 59.09 0.069 7.38 3.07 9.87
6/18/2022 4:00:00 PM 15 59 0.068 7.35 2.78 9.86
6/18/2022 4:15:00 PM 14.96 58.928 0.069 7.35 3 9.83
6/18/2022 4:30:00 PM 14.91 58.838 0.069 7.34 2.83 9.8
6/18/2022 4:45:00 PM 14.83 58.694 0.069 7.31 2.93 9.79
6/18/2022 5:00:00 PM 14.78 58.604 0.069 7.31 2.92 9.76
6/18/2022 5:15:00 PM 14.76 58.568 0.069 7.26 3.15 9.8
6/18/2022 5:30:00 PM 14.74 58.532 0.069 7.28 2.94 9.8
6/18/2022 5:45:00 PM 14.72 58.496 0.069 7.29 2.99 9.81
6/18/2022 6:00:00 PM 14.71 58.478 0.069 7.3 3.03 9.82
6/18/2022 6:15:00 PM 14.71 58.478 0.069 7.32 2.76 9.84
6/18/2022 6:30:00 PM 14.7 58.46 0.069 7.32 2.7 9.83
6/18/2022 6:45:00 PM 14.67 58.406 0.069 7.32 3.1 9.8
6/18/2022 7:00:00 PM 14.64 58.352 0.069 7.3 3.03 9.79
6/18/2022 7:15:00 PM 14.61 58.298 0.069 7.3 2.96 9.77
6/18/2022 7:30:00 PM 14.57 58.226 0.069 7.21 2.84 9.75
6/18/2022 7:45:00 PM 14.51 58.118 0.069 7.29 2.84 9.73
6/18/2022 8:00:00 PM 14.43 57.974 0.069 7.27 2.9 9.7
6/18/2022 8:15:00 PM 14.35 57.83 0.069 7.19 2.88 9.68
6/18/2022 8:30:00 PM 14.27 57.686 0.07 7.18 2.82 9.66
6/18/2022 8:45:00 PM 14.19 57.542 0.07 7.17 2.96 9.64
6/18/2022 9:00:00 PM 14.11 57.398 0.07 7.15 2.89 9.63
6/18/2022 9:15:00 PM 14.04 57.272 0.07 7.15 2.95 9.63
6/18/2022 9:30:00 PM 13.96 57.128 0.07 7.12 2.99 9.63
6/18/2022 9:45:00 PM 13.89 57.002 0.07 7.12 3.11 9.63
6/18/2022 10:00:00 PM 13.83 56.894 0.07 7.13 3.22 9.64
6/18/2022 10:15:00 PM 13.77 56.786 0.07 7.14 3.15 9.66
6/18/2022 10:30:00 PM 13.69 56.642 0.07 7.11 2.88 9.67
6/18/2022 10:45:00 PM 13.61 56.498 0.07 7.13 2.97 9.69
6/18/2022 11:00:00 PM 13.53 56.354 0.07 7.12 3.01 9.71
6/18/2022 11:15:00 PM 13.45 56.21 0.07 7.12 3.11 9.73
6/18/2022 11:30:00 PM 13.36 56.048 0.07 7.09 2.96 9.75
6/18/2022 11:45:00 PM 13.28 55.904 0.07 7.1 2.96 9.76
6/19/2022 12:00:00 AM 13.2 55.76 0.07 7.11 3.05 9.79
6/19/2022 12:15:00 AM 13.14 55.652 0.07 7.13 2.93 9.81
6/19/2022 12:30:00 AM 13.07 55.526 0.07 7.09 3.09 9.82
6/19/2022 12:45:00 AM 13.01 55.418 0.071 7.11 3.01 9.85
6/19/2022 1:00:00 AM 12.95 55.31 0.071 7.13 2.93 9.86
6/19/2022 1:15:00 AM 12.89 55.202 0.071 7.12 2.98 9.87
6/19/2022 1:30:00 AM 12.82 55.076 0.071 7.13 2.7 9.88
6/19/2022 1:45:00 AM 12.75 54.95 0.071 7.13 2.66 9.9
6/19/2022 2:00:00 AM 12.68 54.824 0.071 7.13 3.04 9.92
6/19/2022 2:15:00 AM 12.61 54.698 0.071 7.13 2.88 9.94
6/19/2022 2:30:00 AM 12.54 54.572 0.071 7.1 2.59 9.95
6/19/2022 2:45:00 AM 12.47 54.446 0.071 7.11 2.65 9.97
6/19/2022 3:00:00 AM 12.41 54.338 0.071 7.14 2.74 9.99
6/19/2022 3:15:00 AM 12.34 54.212 0.071 7.13 2.9 10
6/19/2022 3:30:00 AM 12.27 54.086 0.071 7.13 2.82 10.02
6/19/2022 3:45:00 AM 12.21 53.978 0.071 7.12 2.76 10.03
6/19/2022 4:00:00 AM 12.15 53.87 0.071 7.09 2.92 10.05
6/19/2022 4:15:00 AM 12.09 53.762 0.071 7.12 2.87 10.07
6/19/2022 4:30:00 AM 12.02 53.636 0.071 7.14 2.88 10.08
6/19/2022 4:45:00 AM 11.96 53.528 0.071 7.09 2.69 10.1
6/19/2022 5:00:00 AM 11.89 53.402 0.071 7.13 2.85 10.11
6/19/2022 5:15:00 AM 11.83 53.294 0.071 7.11 2.67 10.13
6/19/2022 5:30:00 AM 11.76 53.168 0.071 7.15 2.56 10.15
6/19/2022 5:45:00 AM 11.7 53.06 0.071 7.14 2.91 10.18
6/19/2022 6:00:00 AM 11.64 52.952 0.071 7.15 2.69 10.21
6/19/2022 6:15:00 AM 11.58 52.844 0.071 7.14 2.88 10.23
6/19/2022 6:30:00 AM 11.53 52.754 0.071 7.12 2.74 10.29
6/19/2022 6:45:00 AM 11.48 52.664 0.071 7.16 2.6 10.32
6/19/2022 7:00:00 AM 11.46 52.628 0.071 7.19 2.74 10.37
6/19/2022 7:15:00 AM 11.44 52.592 0.071 7.17 2.55 10.41
6/19/2022 7:30:00 AM 11.44 52.592 0.071 7.23 2.76 10.45
6/19/2022 7:45:00 AM 11.46 52.628 0.071 7.23 2.62 10.47
6/19/2022 8:00:00 AM 11.48 52.664 0.071 7.24 2.76 10.51
6/19/2022 8:15:00 AM 11.51 52.718 0.071 7.21 2.64 10.53
6/19/2022 8:30:00 AM 11.57 52.826 0.071 7.28 2.54 10.57
6/19/2022 8:45:00 AM 11.64 52.952 0.071 7.28 2.72 10.59
6/19/2022 9:00:00 AM 11.73 53.114 0.071 7.31 2.65 10.6
6/19/2022 9:15:00 AM 11.85 53.33 0.071 7.33 2.59 10.61
6/19/2022 9:30:00 AM 11.98 53.564 0.071 7.32 2.41 10.62
6/19/2022 9:45:00 AM 12.1 53.78 0.071 7.37 2.45 10.61
6/19/2022 10:00:00 AM 12.28 54.104 0.071 7.38 2.64 10.61
6/19/2022 10:15:00 AM 12.44 54.392 0.071 7.31 2.53 10.58
6/19/2022 10:30:00 AM 12.63 54.734 0.071 7.37 2.64 10.57
6/19/2022 10:45:00 AM 12.83 55.094 0.071 7.38 2.74 10.54
6/19/2022 11:00:00 AM 13.04 55.472 0.07 7.4 2.24 10.53
6/19/2022 11:15:00 AM 13.26 55.868 0.07 7.42 2.25 10.5
6/19/2022 11:30:00 AM 13.45 56.21 0.071 7.43 2.22 10.46
6/19/2022 11:45:00 AM 13.73 56.714 0.07 7.43 2.47 10.43
6/19/2022 12:00:00 PM 13.96 57.128 0.07 7.4 2.28 10.39
6/19/2022 12:15:00 PM 14.24 57.632 0.07 7.45 2.37 10.33
6/19/2022 12:30:00 PM 14.52 58.136 0.07 7.42 2.27 10.27
6/19/2022 12:45:00 PM 14.72 58.496 0.07 7.44 2.31 10.22
6/19/2022 1:00:00 PM 14.95 58.91 0.07 7.45 2.49 10.18
6/19/2022 1:15:00 PM 15.19 59.342 0.07 7.47 2.28 10.14
6/19/2022 1:30:00 PM 15.39 59.702 0.07 7.43 2.27 10.07
6/19/2022 1:45:00 PM 15.62 60.116 0.071 7.44 2.26 10.01
6/19/2022 2:00:00 PM 15.86 60.548 0.071 7.45 2.41 9.94
6/19/2022 2:15:00 PM 16.06 60.908 0.071 7.44 2.58 9.88
6/19/2022 2:30:00 PM 16.21 61.178 0.071 7.42 2.36 9.81
6/19/2022 2:45:00 PM 16.35 61.43 0.071 7.44 2.43 9.77
6/19/2022 3:00:00 PM 16.46 61.628 0.071 7.43 2.29 9.72
6/19/2022 3:15:00 PM 16.58 61.844 0.071 7.42 2.51 9.69
6/19/2022 3:30:00 PM 16.63 61.934 0.071 7.4 2.42 9.66
6/19/2022 3:45:00 PM 16.73 62.114 0.071 7.42 2.51 9.63
6/19/2022 4:00:00 PM 16.78 62.204 0.071 7.4 2.32 9.6
6/19/2022 4:15:00 PM 16.83 62.294 0.071 7.4 2.36 9.56
6/19/2022 4:30:00 PM 16.86 62.348 0.071 7.41 2.38 9.53
6/19/2022 4:45:00 PM 16.86 62.348 0.071 7.41 2.21 9.51
6/19/2022 5:00:00 PM 16.82 62.276 0.071 7.36 2.31 9.5
6/19/2022 5:15:00 PM 16.77 62.186 0.071 7.4 3.47 9.49
6/19/2022 5:30:00 PM 16.7 62.06 0.071 7.38 2.55 9.48
6/19/2022 5:45:00 PM 16.63 61.934 0.072 7.32 2.25 9.46
6/19/2022 6:00:00 PM 16.54 61.772 0.072 7.33 2.38 9.44
6/19/2022 6:15:00 PM 16.43 61.574 0.072 7.33 2.39 9.42
6/19/2022 6:30:00 PM 16.34 61.412 0.072 7.35 2.61 9.43
6/19/2022 6:45:00 PM 16.24 61.232 0.072 7.33 2.2 9.41
6/19/2022 7:00:00 PM 16.11 60.998 0.072 7.32 2.43 9.4
6/19/2022 7:15:00 PM 15.97 60.746 0.072 7.29 2.66 9.38
6/19/2022 7:30:00 PM 15.84 60.512 0.072 7.29 2.46 9.38
6/19/2022 7:45:00 PM 15.7 60.26 0.072 7.26 2.9 9.4
6/19/2022 8:00:00 PM 15.55 59.99 0.072 7.23 2.53 9.38
6/19/2022 8:15:00 PM 15.44 59.792 0.073 7.23 2.31 9.41
6/19/2022 8:30:00 PM 15.3 59.54 0.073 7.27 2.54 9.41
6/19/2022 8:45:00 PM 15.18 59.324 0.073 7.26 2.45 9.41
6/19/2022 9:00:00 PM 15.04 59.072 0.073 7.16 2.58 9.4
6/19/2022 9:15:00 PM 14.92 58.856 0.073 7.22 2.4 9.4
6/19/2022 9:30:00 PM 14.8 58.64 0.073 7.2 2.59 9.4
6/19/2022 9:45:00 PM 14.69 58.442 0.073 7.21 2.57 9.43
6/19/2022 10:00:00 PM 14.58 58.244 0.073 7.18 2.54 9.45
6/19/2022 10:15:00 PM 14.47 58.046 0.073 7.19 2.71 9.48
6/19/2022 10:30:00 PM 14.34 57.812 0.073 7.18 2.62 9.49
6/19/2022 10:45:00 PM 14.22 57.596 0.073 7.17 2.63 9.52
6/19/2022 11:00:00 PM 14.1 57.38 0.073 7.16 2.48 9.56
6/19/2022 11:15:00 PM 13.97 57.146 0.073 7.15 2.47 9.57
6/19/2022 11:30:00 PM 13.85 56.93 0.073 7.19 2.6 9.62
6/19/2022 11:45:00 PM 13.73 56.714 0.074 7.12 2.5 9.65
6/20/2022 12:00:00 AM 13.6 56.48 0.073 7.19 2.61 9.68
6/20/2022 12:15:00 AM 13.49 56.282 0.074 7.16 2.49 9.7
6/20/2022 12:30:00 AM 13.37 56.066 0.074 7.14 2.53 9.73
6/20/2022 12:45:00 AM 13.27 55.886 0.074 7.17 2.58 9.77
6/20/2022 1:00:00 AM 13.16 55.688 0.074 7.19 2.49 9.79
6/20/2022 1:15:00 AM 13.06 55.508 0.074 7.17 2.39 9.81
6/20/2022 1:30:00 AM 12.96 55.328 0.074 7.16 2.46 9.84
6/20/2022 1:45:00 AM 12.86 55.148 0.074 7.18 2.42 9.87
6/20/2022 2:00:00 AM 12.76 54.968 0.074 7.17 2.62 9.88
6/20/2022 2:15:00 AM 12.66 54.788 0.074 7.18 2.57 9.92
6/20/2022 2:30:00 AM 12.57 54.626 0.074 7.17 2.42 9.95
6/20/2022 2:45:00 AM 12.47 54.446 0.074 7.18 2.45 9.96
6/20/2022 3:00:00 AM 12.38 54.284 0.074 7.18 2.41 9.98
6/20/2022 3:15:00 AM 12.29 54.122 0.074 7.08 2.38 10.01
6/20/2022 3:30:00 AM 12.2 53.96 0.074 7.15 2.51 10.02
6/20/2022 3:45:00 AM 12.12 53.816 0.074 7.15 2.44 10.06
6/20/2022 4:00:00 AM 12.03 53.654 0.074 7.13 2.52 10.08
6/20/2022 4:15:00 AM 11.95 53.51 0.074 7.13 2.46 10.1
6/20/2022 4:30:00 AM 11.86 53.348 0.074 7.13 2.46 10.12
6/20/2022 4:45:00 AM 11.78 53.204 0.074 7.12 2.54 10.14
6/20/2022 5:00:00 AM 11.7 53.06 0.074 7.06 2.44 10.14
6/20/2022 5:15:00 AM 11.62 52.916 0.074 7.13 2.47 10.2
6/20/2022 5:30:00 AM 11.54 52.772 0.074 7.13 2.55 10.22
6/20/2022 5:45:00 AM 11.46 52.628 0.074 7.1 2.53 10.26
6/20/2022 6:00:00 AM 11.39 52.502 0.074 7.13 2.52 10.29
6/20/2022 6:15:00 AM 11.32 52.376 0.074 7.12 2.35 10.35
6/20/2022 6:30:00 AM 11.26 52.268 0.074 7.15 2.33 10.42
6/20/2022 6:45:00 AM 11.21 52.178 0.074 7.11 2.29 10.47
6/20/2022 7:00:00 AM 11.17 52.106 0.074 7.18 2.29 10.52
6/20/2022 7:15:00 AM 11.14 52.052 0.074 7.18 2.44 10.58
6/20/2022 7:30:00 AM 11.11 51.998 0.074 7.17 2.38 10.6
6/20/2022 7:45:00 AM 11.11 51.998 0.074 7.2 2.37 10.67
6/20/2022 8:00:00 AM 11.13 52.034 0.074 7.21 2.29 10.73
6/20/2022 8:15:00 AM 11.17 52.106 0.074 7.25 2.4 10.75
6/20/2022 8:30:00 AM 11.22 52.196 0.074 7.27 2.3 10.79
6/20/2022 8:45:00 AM 11.33 52.394 0.074 7.31 2.2 10.82
6/20/2022 9:00:00 AM 11.45 52.61 0.074 7.32 2.26 10.82
6/20/2022 9:15:00 AM 11.57 52.826 0.074 7.37 2.26 10.85
6/20/2022 9:30:00 AM 11.74 53.132 0.074 7.34 2.14 10.85
6/20/2022 9:45:00 AM 11.93 53.474 0.073 7.4 2.19 10.85
6/20/2022 10:00:00 AM 12.15 53.87 0.074 7.39 2.19 10.81
6/20/2022 10:15:00 AM 12.38 54.284 0.073 7.41 2.28 10.78
6/20/2022 10:30:00 AM 12.66 54.788 0.073 7.44 2.21 10.75
6/20/2022 10:45:00 AM 12.94 55.292 0.073 7.45 2.45 10.73
6/20/2022 11:00:00 AM 13.19 55.742 0.073 7.47 2.24 10.7
6/20/2022 11:15:00 AM 13.43 56.174 0.073 7.44 2.19 10.63
6/20/2022 11:30:00 AM 13.73 56.714 0.073 7.49 2.36 10.58
6/20/2022 11:45:00 AM 14.05 57.29 0.073 7.48 2.13 10.51
6/20/2022 12:00:00 PM 14.34 57.812 0.073 7.5 2.29 10.46
6/20/2022 12:15:00 PM 14.66 58.388 0.073 7.48 2.25 10.39
6/20/2022 12:30:00 PM 14.95 58.91 0.073 7.51 2.21 10.33
6/20/2022 12:45:00 PM 15.23 59.414 0.073 7.53 2.32 10.28
6/20/2022 1:00:00 PM 15.55 59.99 0.073 7.52 2.22 10.2
6/20/2022 1:15:00 PM 15.85 60.53 0.073 7.48 2.23 10.13
6/20/2022 1:30:00 PM 16.15 61.07 0.073 7.53 2.13 10.06
6/20/2022 1:45:00 PM 16.41 61.538 0.074 7.47 2.28 9.97
6/20/2022 2:00:00 PM 16.67 62.006 0.073 7.54 2.08 9.92
6/20/2022 2:15:00 PM 16.9 62.42 0.073 7.54 2.2 9.85
6/20/2022 2:30:00 PM 17.1 62.78 0.074 7.53 2.07 9.79
6/20/2022 2:45:00 PM 17.27 63.086 0.074 7.51 2.08 9.72
6/20/2022 3:00:00 PM 17.44 63.392 0.074 7.52 2.12 9.67
6/20/2022 3:15:00 PM 17.61 63.698 0.074 7.51 2.06 9.62
6/20/2022 3:30:00 PM 17.77 63.986 0.074 7.48 2.12 9.58
6/20/2022 3:45:00 PM 17.85 64.13 0.074 7.5 2.18 9.54
6/20/2022 4:00:00 PM 17.93 64.274 0.074 7.52 2.11 9.5
6/20/2022 4:15:00 PM 17.98 64.364 0.074 7.49 2.13 9.45
6/20/2022 4:30:00 PM 18.01 64.418 0.074 7.48 2.25 9.41
6/20/2022 4:45:00 PM 18.02 64.436 0.074 7.44 2.05 9.37
6/20/2022 5:00:00 PM 18.04 64.472 0.074 7.43 2.09 9.35
6/20/2022 5:15:00 PM 18.01 64.418 0.074 7.43 2.2 9.32
6/20/2022 5:30:00 PM 17.99 64.382 0.074 7.41 2.08 9.31
6/20/2022 5:45:00 PM 17.95 64.31 0.074 7.39 2.06 9.3
6/20/2022 6:00:00 PM 17.9 64.22 0.074 7.42 2.2 9.28
6/20/2022 6:15:00 PM 17.86 64.148 0.074 7.43 2.32 9.27
6/20/2022 6:30:00 PM 17.74 63.932 0.075 7.37 2.03 9.21
6/20/2022 6:45:00 PM 17.65 63.77 0.075 7.34 2.26 9.16
6/20/2022 7:00:00 PM 17.57 63.626 0.075 7.36 2.81 9.14
6/20/2022 7:15:00 PM 17.42 63.356 0.075 7.28 2.28 9.1
6/20/2022 7:30:00 PM 17.32 63.176 0.075 7.3 2.41 9.1
6/20/2022 7:45:00 PM 17.16 62.888 0.075 7.27 2.24 9.08
6/20/2022 8:00:00 PM 17.05 62.69 0.075 7.23 2.32 9.08
6/20/2022 8:15:00 PM 16.9 62.42 0.075 7.26 2.67 9.08
6/20/2022 8:30:00 PM 16.73 62.114 0.075 7.22 2.29 9.06
6/20/2022 8:45:00 PM 16.61 61.898 0.076 7.24 2.46 9.07
6/20/2022 9:00:00 PM 16.45 61.61 0.076 7.22 2.35 9.04
6/20/2022 9:15:00 PM 16.31 61.358 0.076 7.22 2.25 9.05
6/20/2022 9:30:00 PM 16.16 61.088 0.076 7.2 2.63 9.06
6/20/2022 9:45:00 PM 16.02 60.836 0.076 7.2 2.71 9.09
6/20/2022 10:00:00 PM 15.87 60.566 0.076 7.2 2.49 9.11
6/20/2022 10:15:00 PM 15.74 60.332 0.076 7.17 2.45 9.13
6/20/2022 10:30:00 PM 15.61 60.098 0.076 7.18 2.39 9.16
6/20/2022 10:45:00 PM 15.48 59.864 0.076 7.17 2.34 9.2
6/20/2022 11:00:00 PM 15.36 59.648 0.076 7.18 2.19 9.21
6/20/2022 11:15:00 PM 15.24 59.432 0.076 7.18 2.53 9.26
6/20/2022 11:30:00 PM 15.12 59.216 0.076 7.18 2.45 9.28
6/20/2022 11:45:00 PM 15.01 59.018 0.076 7.17 2.36 9.32
6/21/2022 12:00:00 AM 14.9 58.82 0.076 7.15 2.5 9.35
6/21/2022 12:15:00 AM 14.79 58.622 0.076 7.2 2.43 9.39
6/21/2022 12:30:00 AM 14.67 58.406 0.077 7.17 2.26 9.4
6/21/2022 12:45:00 AM 14.56 58.208 0.076 7.12 2.5 9.44
6/21/2022 1:00:00 AM 14.44 57.992 0.077 7.16 2.34 9.44
6/21/2022 1:15:00 AM 14.32 57.776 0.077 7.17 2.27 9.49
6/21/2022 1:30:00 AM 14.21 57.578 0.076 7.15 2.68 9.51
6/21/2022 1:45:00 AM 14.1 57.38 0.077 7.16 2.5 9.53
6/21/2022 2:00:00 AM 13.99 57.182 0.077 7.14 2.64 9.55
6/21/2022 2:15:00 AM 13.9 57.02 0.077 7.19 2.42 9.61
6/21/2022 2:30:00 AM 13.79 56.822 0.077 7.17 2.6 9.62
6/21/2022 2:45:00 AM 13.69 56.642 0.077 7.18 2.63 9.65
6/21/2022 3:00:00 AM 13.6 56.48 0.077 7.18 2.47 9.67
6/21/2022 3:15:00 AM 13.5 56.3 0.077 7.17 2.45 9.69
6/21/2022 3:30:00 AM 13.41 56.138 0.077 7.13 2.75 9.71
6/21/2022 3:45:00 AM 13.32 55.976 0.077 7.16 2.23 9.72
6/21/2022 4:00:00 AM 13.24 55.832 0.077 7.18 2.44 9.77
6/21/2022 4:15:00 AM 13.15 55.67 0.077 7.17 2.53 9.79
6/21/2022 4:30:00 AM 13.06 55.508 0.077 7.14 2.3 9.79
6/21/2022 4:45:00 AM 12.98 55.364 0.077 7.17 2.34 9.82
6/21/2022 5:00:00 AM 12.91 55.238 0.077 7.17 2.33 9.84
6/21/2022 5:15:00 AM 12.83 55.094 0.077 7.17 2.96 9.88
6/21/2022 5:30:00 AM 12.76 54.968 0.077 7.18 2.47 9.9
6/21/2022 5:45:00 AM 12.68 54.824 0.077 7.18 2.48 9.94
6/21/2022 6:00:00 AM 12.61 54.698 0.077 7.12 2.59 9.93
6/21/2022 6:15:00 AM 12.57 54.626 0.077 7.18 2.63 10.03
6/21/2022 6:30:00 AM 12.51 54.518 0.077 7.17 2.27 10.09
6/21/2022 6:45:00 AM 12.47 54.446 0.077 7.17 2.35 10.14
6/21/2022 7:00:00 AM 12.44 54.392 0.077 7.17 2.25 10.18
6/21/2022 7:15:00 AM 12.43 54.374 0.077 7.23 2.41 10.3
6/21/2022 7:30:00 AM 12.42 54.356 0.077 7.23 2.47 10.38
6/21/2022 7:45:00 AM 12.43 54.374 0.076 7.26 2.26 10.45
6/21/2022 8:00:00 AM 12.43 54.374 0.076 7.26 2.24 10.49
6/21/2022 8:15:00 AM 12.46 54.428 0.076 7.31 2.21 10.52
6/21/2022 8:30:00 AM 12.49 54.482 0.076 7.25 2.57 10.57
6/21/2022 8:45:00 AM 12.54 54.572 0.076 7.33 2.32 10.6
6/21/2022 9:00:00 AM 12.57 54.626 0.076 7.36 2.19 10.64
6/21/2022 9:15:00 AM 12.65 54.77 0.076 7.38 2.25 10.69
6/21/2022 9:30:00 AM 12.75 54.95 0.076 7.41 2.28 10.75
6/21/2022 9:45:00 AM 12.85 55.13 0.076 7.37 2.41 10.75
6/21/2022 10:00:00 AM 12.97 55.346 0.076 7.46 2.25 10.76
6/21/2022 10:15:00 AM 13.04 55.472 0.076 7.47 2.36 10.75
6/21/2022 10:30:00 AM 13.15 55.67 0.076 7.48 2.49 10.74
6/21/2022 10:45:00 AM 13.27 55.886 0.076 7.5 2.19 10.72
6/21/2022 11:00:00 AM 13.35 56.03 0.076 7.53 2.43 10.68
6/21/2022 11:15:00 AM 13.4 56.12 0.076 7.39 2.28 10.6
6/21/2022 11:30:00 AM 13.53 56.354 0.076 7.53 2.41 10.65
6/21/2022 11:45:00 AM 13.65 56.57 0.075 7.56 2.47 10.67
6/21/2022 12:00:00 PM 13.75 56.75 0.075 7.52 2.3 10.65
6/21/2022 12:15:00 PM 13.88 56.984 0.075 7.55 2.08 10.64
6/21/2022 12:30:00 PM 14 57.2 0.075 7.57 2.31 10.65
6/21/2022 12:45:00 PM 14.2 57.56 0.075 7.6 2.15 10.65
6/21/2022 1:00:00 PM 14.39 57.902 0.075 7.65 2.22 10.62
6/21/2022 1:15:00 PM 14.56 58.208 0.075 7.69 2.26 10.59
6/21/2022 1:30:00 PM 14.72 58.496 0.075 7.67 2.31 10.56
6/21/2022 1:45:00 PM 14.74 58.532 0.075 7.59 2.27 10.36
6/21/2022 2:00:00 PM 14.85 58.73 0.075 7.58 2.26 10.37
6/21/2022 2:15:00 PM 15.02 59.036 0.075 7.64 2.27 10.39
6/21/2022 2:30:00 PM 15.22 59.396 0.075 7.52 2.19 10.29
6/21/2022 2:45:00 PM 15.52 59.936 0.075 7.56 2.23 10.28
6/21/2022 3:00:00 PM 15.84 60.512 0.075 7.66 2.13 10.28
6/21/2022 3:15:00 PM 15.98 60.764 0.075 7.66 2.25 10.27
6/21/2022 3:30:00 PM 16.03 60.854 0.075 7.69 2.33 10.18
6/21/2022 3:45:00 PM 16.08 60.944 0.075 7.64 2.15 10.08
6/21/2022 4:00:00 PM 16.12 61.016 0.076 7.64 2.29 10.01
6/21/2022 4:15:00 PM 16.13 61.034 0.076 7.48 2.22 9.8
6/21/2022 4:30:00 PM 16.18 61.124 0.076 7.46 2.31 9.73
6/21/2022 4:45:00 PM 16.24 61.232 0.076 7.48 2.2 9.74
6/21/2022 5:00:00 PM 16.24 61.232 0.076 7.45 2.34 9.71
6/21/2022 5:15:00 PM 16.24 61.232 0.076 7.47 2.19 9.74
6/21/2022 5:30:00 PM 16.21 61.178 0.076 7.37 2.27 9.74
6/21/2022 5:45:00 PM 16.23 61.214 0.076 7.5 2.26 9.82
6/21/2022 6:00:00 PM 16.2 61.16 0.076 7.42 2.46 9.79
6/21/2022 6:15:00 PM 16.18 61.124 0.076 7.31 2.35 9.71
6/21/2022 6:30:00 PM 16.22 61.196 0.076 7.45 2.62 9.76
6/21/2022 6:45:00 PM 16.22 61.196 0.076 7.43 2.17 9.7
6/21/2022 7:00:00 PM 16.22 61.196 0.076 7.4 2.43 9.63
6/21/2022 7:15:00 PM 16.24 61.232 0.077 7.34 2.3 9.57
6/21/2022 7:30:00 PM 16.24 61.232 0.077 7.33 2.41 9.51
6/21/2022 7:45:00 PM 16.26 61.268 0.077 7.35 2.23 9.47
6/21/2022 8:00:00 PM 16.2 61.16 0.077 7.3 2.27 9.35
6/21/2022 8:15:00 PM 16.18 61.124 0.077 7.3 2.32 9.32
6/21/2022 8:30:00 PM 16.12 61.016 0.077 7.25 2.25 9.24
6/21/2022 8:45:00 PM 16.05 60.89 0.077 7.24 2.43 9.19
6/21/2022 9:00:00 PM 16 60.8 0.078 7.25 2.64 9.15
6/21/2022 9:15:00 PM 15.92 60.656 0.078 7.17 2.57 9.1
6/21/2022 9:30:00 PM 15.82 60.476 0.078 7.2 2.52 9.08
6/21/2022 9:45:00 PM 15.73 60.314 0.078 7.15 2.2 9.05
6/21/2022 10:00:00 PM 15.68 60.224 0.078 7.19 2.6 9.1
6/21/2022 10:15:00 PM 15.59 60.062 0.078 7.14 2.24 9.1
6/21/2022 10:30:00 PM 15.53 59.954 0.079 7.19 2.37 9.15
6/21/2022 10:45:00 PM 15.45 59.81 0.079 7.17 2.44 9.13
6/21/2022 11:00:00 PM 15.41 59.738 0.079 7.19 2.26 9.15
6/21/2022 11:15:00 PM 15.34 59.612 0.079 7.16 2.57 9.16
6/21/2022 11:30:00 PM 15.28 59.504 0.079 7.14 2.53 9.13
6/21/2022 11:45:00 PM 15.21 59.378 0.079 7.13 2.42 9.17
6/22/2022 12:00:00 AM 15.16 59.288 0.079 7.12 2.17 9.15
6/22/2022 12:15:00 AM 15.12 59.216 0.079 7.16 2.4 9.21
6/22/2022 12:30:00 AM 15.06 59.108 0.079 7.12 2.31 9.19
6/22/2022 12:45:00 AM 15.03 59.054 0.079 7.18 2.31 9.24
6/22/2022 1:00:00 AM 14.98 58.964 0.079 7.16 2.27 9.24
6/22/2022 1:15:00 AM 14.91 58.838 0.079 7.14 2.78 9.23
6/22/2022 1:30:00 AM 14.86 58.748 0.079 7.13 2.42 9.23
6/22/2022 1:45:00 AM 14.81 58.658 0.079 7.13 2.32 9.25
6/22/2022 2:00:00 AM 14.75 58.55 0.079 7.14 2.17 9.28
6/22/2022 2:15:00 AM 14.72 58.496 0.079 7.17 2.31 9.3
6/22/2022 2:30:00 AM 14.66 58.388 0.079 7.14 2.33 9.3
6/22/2022 2:45:00 AM 14.61 58.298 0.079 7.14 2.45 9.31
6/22/2022 3:00:00 AM 14.56 58.208 0.079 7.14 2.46 9.33
6/22/2022 3:15:00 AM 14.49 58.082 0.079 7.13 2.31 9.32
6/22/2022 3:30:00 AM 14.44 57.992 0.079 7.14 2.41 9.35
6/22/2022 3:45:00 AM 14.41 57.938 0.079 7.15 2.28 9.36
6/22/2022 4:00:00 AM 14.39 57.902 0.079 7.17 2.19 9.39
6/22/2022 4:15:00 AM 14.34 57.812 0.079 7.12 2.51 9.38
6/22/2022 4:30:00 AM 14.31 57.758 0.079 7.13 2.42 9.37
6/22/2022 4:45:00 AM 14.28 57.704 0.079 7.12 2.51 9.39
6/22/2022 5:00:00 AM 14.25 57.65 0.079 7.11 2.45 9.39
6/22/2022 5:15:00 AM 14.21 57.578 0.079 7.12 2.88 9.37
6/22/2022 5:30:00 AM 14.19 57.542 0.079 7.15 2.43 9.43
6/22/2022 5:45:00 AM 14.17 57.506 0.079 7.16 2.45 9.46
6/22/2022 6:00:00 AM 14.13 57.434 0.079 7.13 2.53 9.46
6/22/2022 6:15:00 AM 14.11 57.398 0.079 7.15 2.38 9.52
6/22/2022 6:30:00 AM 14.09 57.362 0.079 7.14 2.42 9.57
6/22/2022 6:45:00 AM 14.1 57.38 0.079 7.17 2.55 9.65
6/22/2022 7:00:00 AM 14.1 57.38 0.079 7.18 2.33 9.7
6/22/2022 7:15:00 AM 14.14 57.452 0.079 7.22 2.32 9.78
6/22/2022 7:30:00 AM 14.17 57.506 0.079 7.24 2.34 9.9
6/22/2022 7:45:00 AM 14.22 57.596 0.078 7.26 2.41 9.98
6/22/2022 8:00:00 AM 14.29 57.722 0.078 7.32 2.38 10.08
6/22/2022 8:15:00 AM 14.37 57.866 0.078 7.34 2.24 10.14
6/22/2022 8:30:00 AM 14.5 58.1 0.078 7.41 2.6 10.26
6/22/2022 8:45:00 AM 14.6 58.28 0.078 7.38 2.15 10.3
6/22/2022 9:00:00 AM 14.67 58.406 0.078 7.41 2.2 10.31
6/22/2022 9:15:00 AM 14.75 58.55 0.078 7.4 2.42 10.32
6/22/2022 9:30:00 AM 14.88 58.784 0.077 7.49 2.24 10.36
6/22/2022 9:45:00 AM 14.95 58.91 0.077 7.48 2.2 10.34
6/22/2022 10:00:00 AM 15.07 59.126 0.077 7.48 2.27 10.31
6/22/2022 10:15:00 AM 15.22 59.396 0.077 7.56 2.42 10.34
6/22/2022 10:30:00 AM 15.35 59.63 0.077 7.57 2.34 10.35
6/22/2022 10:45:00 AM 15.45 59.81 0.077 7.53 2.49 10.31
6/22/2022 11:00:00 AM 15.58 60.044 0.077 7.58 2.27 10.31
6/22/2022 11:15:00 AM 15.69 60.242 0.077 7.67 2.22 10.35
6/22/2022 11:30:00 AM 15.85 60.53 0.077 7.67 2.17 10.32
6/22/2022 11:45:00 AM 16 60.8 0.077 7.67 2.25 10.3
6/22/2022 12:00:00 PM 16.22 61.196 0.077 7.72 2.42 10.32
6/22/2022 12:15:00 PM 16.35 61.43 0.077 7.68 2.33 10.25
6/22/2022 12:30:00 PM 16.46 61.628 0.077 7.73 2.21 10.21
6/22/2022 12:45:00 PM 16.6 61.88 0.077 7.76 2.45 10.18
6/22/2022 1:00:00 PM 16.7 62.06 0.077 7.79 2.16 10.16
6/22/2022 1:15:00 PM 16.81 62.258 0.077 7.8 2.18 10.1
6/22/2022 1:30:00 PM 16.92 62.456 0.077 7.87 2.4 10.11
6/22/2022 1:45:00 PM 16.92 62.456 0.077 7.76 2.42 10.01
6/22/2022 2:00:00 PM 16.93 62.474 0.077 7.67 2.42 9.93
6/22/2022 2:15:00 PM 16.91 62.438 0.077 7.68 2.31 9.86
6/22/2022 2:30:00 PM 16.82 62.276 0.078 7.51 2.36 9.75
6/22/2022 2:45:00 PM 16.78 62.204 0.078 7.56 2.37 9.7
6/22/2022 3:00:00 PM 16.75 62.15 0.078 7.54 2.12 9.67
6/22/2022 3:15:00 PM 16.7 62.06 0.078 7.45 2.22 9.67
6/22/2022 3:30:00 PM 16.69 62.042 0.078 7.52 2.51 9.73
6/22/2022 3:45:00 PM 16.68 62.024 0.078 7.51 2.44 9.68
6/22/2022 4:00:00 PM 16.64 61.952 0.078 7.54 2.21 9.73
6/22/2022 4:15:00 PM 16.61 61.898 0.078 7.5 2.3 9.71
6/22/2022 4:30:00 PM 16.56 61.808 0.078 7.45 2.3 9.62
6/22/2022 4:45:00 PM 16.53 61.754 0.079 7.48 2.23 9.58
6/22/2022 5:00:00 PM 16.49 61.682 0.079 7.44 2.34 9.5
6/22/2022 5:15:00 PM 16.45 61.61 0.079 7.41 2.36 9.46
6/22/2022 5:30:00 PM 16.4 61.52 0.079 7.32 2.56 9.41
6/22/2022 5:45:00 PM 16.43 61.574 0.079 7.34 2.41 9.51
6/22/2022 6:00:00 PM 16.4 61.52 0.079 7.37 2.38 9.51
6/22/2022 6:15:00 PM 16.42 61.556 0.079 7.41 2.28 9.54
6/22/2022 6:30:00 PM 16.37 61.466 0.079 7.37 2.3 9.54
6/22/2022 6:45:00 PM 16.36 61.448 0.079 7.37 2.58 9.5
6/22/2022 7:00:00 PM 16.32 61.376 0.079 7.34 2.43 9.43
6/22/2022 7:15:00 PM 16.29 61.322 0.079 7.31 2.36 9.34
6/22/2022 7:30:00 PM 16.23 61.214 0.079 7.33 2.33 9.25
6/22/2022 7:45:00 PM 16.17 61.106 0.079 7.27 2.44 9.15
6/22/2022 8:00:00 PM 16.12 61.016 0.08 7.27 2.37 9.1
6/22/2022 8:15:00 PM 16.04 60.872 0.08 7.2 2.48 9.03
6/22/2022 8:30:00 PM 16.03 60.854 0.08 7.23 2.41 9.04
6/22/2022 8:45:00 PM 15.96 60.728 0.08 7.21 2.53 9.03
6/22/2022 9:00:00 PM 15.92 60.656 0.08 7.23 2.73 9.02
6/22/2022 9:15:00 PM 15.86 60.548 0.08 7.2 2.5 8.99
6/22/2022 9:30:00 PM 15.82 60.476 0.08 7.21 3 9.03
6/22/2022 9:45:00 PM 15.72 60.296 0.081 7.11 2.41 8.97
6/22/2022 10:00:00 PM 15.69 60.242 0.081 7.14 2.3 9
6/22/2022 10:15:00 PM 15.65 60.17 0.081 7.13 2.31 9.01
6/22/2022 10:30:00 PM 15.64 60.152 0.081 7.19 2.25 9.06
6/22/2022 10:45:00 PM 15.58 60.044 0.081 7.15 2.45 9.01
6/22/2022 11:00:00 PM 15.55 59.99 0.081 7.15 2.44 9.04
6/22/2022 11:15:00 PM 15.53 59.954 0.081 7.19 2.34 9.08
6/22/2022 11:30:00 PM 15.49 59.882 0.081 7.19 2.35 9.08
6/22/2022 11:45:00 PM 15.43 59.774 0.081 7.13 2.83 9.04
6/23/2022 12:00:00 AM 15.39 59.702 0.081 7.14 2.53 9.07
6/23/2022 12:15:00 AM 15.37 59.666 0.081 7.17 2.77 9.11
6/23/2022 12:30:00 AM 15.32 59.576 0.081 7.06 2.18 9.07
6/23/2022 12:45:00 AM 15.31 59.558 0.081 7.19 2.38 9.15
6/23/2022 1:00:00 AM 15.26 59.468 0.081 7.16 2.33 9.11
6/23/2022 1:15:00 AM 15.22 59.396 0.081 7.15 2.27 9.12
6/23/2022 1:30:00 AM 15.2 59.36 0.081 7.18 2.29 9.16
6/23/2022 1:45:00 AM 15.15 59.27 0.081 7.16 2.51 9.14
6/23/2022 2:00:00 AM 15.13 59.234 0.081 7.18 2.13 9.17
6/23/2022 2:15:00 AM 15.07 59.126 0.081 7.13 2.6 9.16
6/23/2022 2:30:00 AM 15.05 59.09 0.081 7.15 2.22 9.14
6/23/2022 2:45:00 AM 15.02 59.036 0.081 7.14 2.34 9.15
6/23/2022 3:00:00 AM 15.02 59.036 0.081 7.16 2.07 9.2
6/23/2022 3:15:00 AM 14.95 58.91 0.081 7.12 2.36 9.15
6/23/2022 3:30:00 AM 14.96 58.928 0.081 7.17 2.1 9.21
6/23/2022 3:45:00 AM 14.91 58.838 0.081 7.1 2.22 9.17
6/23/2022 4:00:00 AM 14.9 58.82 0.081 7.14 2.36 9.18
6/23/2022 4:15:00 AM 14.89 58.802 0.081 7.16 2.42 9.21
6/23/2022 4:30:00 AM 14.85 58.73 0.081 7.14 2.44 9.19
6/23/2022 4:45:00 AM 14.84 58.712 0.081 7.17 2.53 9.23
6/23/2022 5:00:00 AM 14.81 58.658 0.081 7.18 2.34 9.25
6/23/2022 5:15:00 AM 14.79 58.622 0.08 7.17 2.54 9.24
6/23/2022 5:30:00 AM 14.79 58.622 0.08 7.18 2.98 9.26
6/23/2022 5:45:00 AM 14.75 58.55 0.08 7.17 2.74 9.25
6/23/2022 6:00:00 AM 14.73 58.514 0.077 7.16 4.58 9.3
6/23/2022 6:15:00 AM 14.72 58.496 0.077 7.17 4.98 9.3
6/23/2022 6:30:00 AM 14.7 58.46 0.077 7.19 8.14 9.33
6/23/2022 6:45:00 AM 14.68 58.424 0.076 7.17 5.53 9.34
6/23/2022 7:00:00 AM 14.64 58.352 0.074 7.16 16.5 9.37
6/23/2022 7:15:00 AM 14.63 58.334 0.073 7.17 20.62 9.42
6/23/2022 7:30:00 AM 14.6 58.28 0.072 7.18 31.07 9.46
6/23/2022 7:45:00 AM 14.59 58.262 0.072 7.22 39.1 9.52
6/23/2022 8:00:00 AM 14.55 58.19 0.072 7.19 24.88 9.57
6/23/2022 8:15:00 AM 14.5 58.1 0.072 7.16 29.77 9.62
6/23/2022 8:30:00 AM 14.37 57.866 0.071 7.1 73.6 9.67
6/23/2022 8:45:00 AM 14.32 57.776 0.065 7.06 83.69 9.73
6/23/2022 9:00:00 AM 14.31 57.758 0.061 7.07 86.84 9.76
6/23/2022 9:15:00 AM 14.35 57.83 0.057 7.06 84.39 9.76
6/23/2022 9:30:00 AM 14.41 57.938 0.056 7.05 83.13 9.76
6/23/2022 9:45:00 AM 14.45 58.01 0.057 7.07 75.48 9.76
6/23/2022 10:00:00 AM 14.48 58.064 0.057 7.06 68.89 9.76
6/23/2022 10:15:00 AM 14.49 58.082 0.056 7.07 60.94 9.77
6/23/2022 10:30:00 AM 14.51 58.118 0.055 7.07 52.76 9.77
6/23/2022 10:45:00 AM 14.52 58.136 0.055 7.06 48.4 9.77
6/23/2022 11:00:00 AM 14.54 58.172 0.055 7.07 42.67 9.78
6/23/2022 11:15:00 AM 14.55 58.19 0.054 7.07 39.65 9.78
6/23/2022 11:30:00 AM 14.58 58.244 0.053 7.07 36.69 9.8
6/23/2022 11:45:00 AM 14.6 58.28 0.053 7.06 33.78 9.8
6/23/2022 12:00:00 PM 14.61 58.298 0.053 7.03 31.99 9.79
6/23/2022 12:15:00 PM 14.6 58.28 0.053 7.07 30.11 9.79
6/23/2022 12:30:00 PM 14.6 58.28 0.053 7.08 27.64 9.79
6/23/2022 12:45:00 PM 14.62 58.316 0.053 7.09 25.18 9.79
6/23/2022 1:00:00 PM 14.65 58.37 0.054 7.04 23.08 9.79
6/23/2022 1:15:00 PM 14.69 58.442 0.054 7.09 21.48 9.79
6/23/2022 1:30:00 PM 14.74 58.532 0.055 7.12 20.33 9.79
6/23/2022 1:45:00 PM 14.83 58.694 0.056 7.13 17.15 9.81
6/23/2022 2:00:00 PM 14.92 58.856 0.056 7.12 17.33 9.82
6/23/2022 2:15:00 PM 15 59 0.057 7.16 17.23 9.82
6/23/2022 2:30:00 PM 15.07 59.126 0.057 7.14 15.7 9.82
6/23/2022 2:45:00 PM 15.18 59.324 0.058 7.21 15.31 9.84
6/23/2022 3:00:00 PM 15.29 59.522 0.058 7.23 14.6 9.86
6/23/2022 3:15:00 PM 15.39 59.702 0.058 7.26 14.24 9.85
6/23/2022 3:30:00 PM 15.43 59.774 0.058 7.24 12.94 9.81
6/23/2022 3:45:00 PM 15.45 59.81 0.058 7.19 12.36 9.76
6/23/2022 4:00:00 PM 15.48 59.864 0.059 7.23 12.18 9.74
6/23/2022 4:15:00 PM 15.55 59.99 0.059 7.23 11.28 9.76
6/23/2022 4:30:00 PM 15.62 60.116 0.059 7.23 11.45 9.77
6/23/2022 4:45:00 PM 15.72 60.296 0.059 7.28 10.8 9.77
6/23/2022 5:00:00 PM 15.76 60.368 0.059 7.29 9.92 9.76
6/23/2022 5:15:00 PM 15.78 60.404 0.059 7.28 10.37 9.76
6/23/2022 5:30:00 PM 15.8 60.44 0.059 7.28 10.03 9.74
6/23/2022 5:45:00 PM 15.78 60.404 0.059 7.28 9.76 9.71
6/23/2022 6:00:00 PM 15.77 60.386 0.059 7.25 9.29 9.67
6/23/2022 6:15:00 PM 15.78 60.404 0.059 7.25 9.5 9.65
6/23/2022 6:30:00 PM 15.81 60.458 0.059 7.24 9.15 9.62
6/23/2022 6:45:00 PM 15.82 60.476 0.059 7.25 8.91 9.62
6/23/2022 7:00:00 PM 15.8 60.44 0.059 7.22 8.74 9.59
6/23/2022 7:15:00 PM 15.76 60.368 0.06 7.18 8.48 9.58
6/23/2022 7:30:00 PM 15.71 60.278 0.06 7.2 8.52 9.57
6/23/2022 7:45:00 PM 15.71 60.278 0.06 7.18 8.43 9.55
6/23/2022 8:00:00 PM 15.71 60.278 0.06 7.17 8.42 9.52
6/23/2022 8:15:00 PM 15.69 60.242 0.06 7.15 7.86 9.5
6/23/2022 8:30:00 PM 15.69 60.242 0.06 7.14 7.86 9.48
6/23/2022 8:45:00 PM 15.69 60.242 0.061 7.14 7.89 9.46
6/23/2022 9:00:00 PM 15.68 60.224 0.061 7.12 7.91 9.44
6/23/2022 9:15:00 PM 15.67 60.206 0.061 7.12 7.83 9.43
6/23/2022 9:30:00 PM 15.64 60.152 0.061 7.09 7.78 9.42
6/23/2022 9:45:00 PM 15.59 60.062 0.061 7.11 7.63 9.43
6/23/2022 10:00:00 PM 15.54 59.972 0.061 7.11 7.7 9.43
6/23/2022 10:15:00 PM 15.49 59.882 0.062 7.11 7.64 9.44
6/23/2022 10:30:00 PM 15.44 59.792 0.062 7.1 7.42 9.45
6/23/2022 10:45:00 PM 15.41 59.738 0.062 7.1 7.26 9.46
6/23/2022 11:00:00 PM 15.37 59.666 0.062 7.1 7.17 9.47
6/23/2022 11:15:00 PM 15.34 59.612 0.062 7.1 7.27 9.48
6/23/2022 11:30:00 PM 15.3 59.54 0.062 7.1 7.32 9.49
6/23/2022 11:45:00 PM 15.26 59.468 0.062 7.11 6.81 9.5
6/24/2022 12:00:00 AM 15.21 59.378 0.062 7.06 6.81 9.5
6/24/2022 12:15:00 AM 15.17 59.306 0.062 7.11 6.86 9.51
6/24/2022 12:30:00 AM 15.12 59.216 0.063 7.11 6.73 9.52
6/24/2022 12:45:00 AM 15.07 59.126 0.063 7.11 6.37 9.53
6/24/2022 1:00:00 AM 15.03 59.054 0.063 7.08 6.2 9.54
6/24/2022 1:15:00 AM 14.98 58.964 0.063 7.09 6.51 9.55
6/24/2022 1:30:00 AM 14.94 58.892 0.063 7.1 6.37 9.57
6/24/2022 1:45:00 AM 14.9 58.82 0.063 7.1 6.37 9.57
6/24/2022 2:00:00 AM 14.86 58.748 0.063 7.09 6.19 9.58
6/24/2022 2:15:00 AM 14.82 58.676 0.063 7.1 6.2 9.59
6/24/2022 2:30:00 AM 14.78 58.604 0.063 7.11 5.92 9.6
6/24/2022 2:45:00 AM 14.73 58.514 0.063 7.11 5.9 9.61
6/24/2022 3:00:00 AM 14.69 58.442 0.064 7.11 5.76 9.62
6/24/2022 3:15:00 AM 14.66 58.388 0.064 7.11 5.85 9.62
6/24/2022 3:30:00 AM 14.63 58.334 0.064 7.13 5.9 9.63
6/24/2022 3:45:00 AM 14.59 58.262 0.064 7.11 5.72 9.64
6/24/2022 4:00:00 AM 14.55 58.19 0.064 7.11 5.67 9.65
6/24/2022 4:15:00 AM 14.52 58.136 0.064 7.12 5.54 9.65
6/24/2022 4:30:00 AM 14.48 58.064 0.064 7.12 5.32 9.66
6/24/2022 4:45:00 AM 14.44 57.992 0.064 7.1 5.47 9.67
6/24/2022 5:00:00 AM 14.4 57.92 0.064 7.13 5.43 9.68
6/24/2022 5:15:00 AM 14.35 57.83 0.064 7.11 5.61 9.69
6/24/2022 5:30:00 AM 14.3 57.74 0.064 7.12 5.44 9.71
6/24/2022 5:45:00 AM 14.25 57.65 0.064 7.08 5.34 9.72
6/24/2022 6:00:00 AM 14.21 57.578 0.064 7.13 5.04 9.75
6/24/2022 6:15:00 AM 14.16 57.488 0.065 7.14 5.11 9.77
6/24/2022 6:30:00 AM 14.12 57.416 0.065 7.14 5.13 9.81
6/24/2022 6:45:00 AM 14.09 57.362 0.065 7.15 4.98 9.86
6/24/2022 7:00:00 AM 14.06 57.308 0.065 7.16 4.88 9.92
6/24/2022 7:15:00 AM 14.03 57.254 0.065 7.18 4.69 9.97
6/24/2022 7:30:00 AM 14.03 57.254 0.064 7.21 4.58 10.04
6/24/2022 7:45:00 AM 14.04 57.272 0.064 7.23 4.61 10.1
6/24/2022 8:00:00 AM 14.06 57.308 0.065 7.24 4.36 10.14
6/24/2022 8:15:00 AM 14.07 57.326 0.065 7.26 4.35 10.15
6/24/2022 8:30:00 AM 14.09 57.362 0.065 7.28 4.18 10.18
6/24/2022 8:45:00 AM 14.11 57.398 0.065 7.29 4.32 10.19
6/24/2022 9:00:00 AM 14.15 57.47 0.065 7.3 3.99 10.23
6/24/2022 9:15:00 AM 14.19 57.542 0.065 7.34 3.86 10.26
6/24/2022 9:30:00 AM 14.25 57.65 0.065 7.36 3.93 10.28
6/24/2022 9:45:00 AM 14.34 57.812 0.064 7.39 4.01 10.31
6/24/2022 10:00:00 AM 14.43 57.974 0.064 7.43 3.96 10.32
6/24/2022 10:15:00 AM 14.61 58.298 0.064 7.45 3.9 10.33
6/24/2022 10:30:00 AM 14.73 58.514 0.065 7.47 3.67 10.28
6/24/2022 10:45:00 AM 14.95 58.91 0.064 7.48 3.62 10.26
6/24/2022 11:00:00 AM 15.22 59.396 0.064 7.5 3.61 10.2
6/24/2022 11:15:00 AM 15.42 59.756 0.064 7.48 3.53 10.16
6/24/2022 11:30:00 AM 15.62 60.116 0.064 7.51 3.47 10.14
6/24/2022 11:45:00 AM 15.9 60.62 0.064 7.54 3.46 10.11
6/24/2022 12:00:00 PM 16.22 61.196 0.064 7.55 3.21 10.04
6/24/2022 12:15:00 PM 16.51 61.718 0.064 7.55 3.4 9.98
6/24/2022 12:30:00 PM 16.75 62.15 0.065 7.54 3.3 9.95
6/24/2022 12:45:00 PM 16.93 62.474 0.065 7.56 3.36 9.89
6/24/2022 1:00:00 PM 17.17 62.906 0.065 7.53 3.29 9.84
6/24/2022 1:15:00 PM 17.46 63.428 0.065 7.54 3.18 9.79
6/24/2022 1:30:00 PM 17.8 64.04 0.065 7.58 3.07 9.72
6/24/2022 1:45:00 PM 18.12 64.616 0.065 7.6 2.99 9.66
6/24/2022 2:00:00 PM 18.34 65.012 0.065 7.6 3.05 9.6
6/24/2022 2:15:00 PM 18.51 65.318 0.065 7.61 3 9.56
6/24/2022 2:30:00 PM 18.68 65.624 0.065 7.61 3.12 9.52
6/24/2022 2:45:00 PM 18.77 65.786 0.065 7.55 3.08 9.47
6/24/2022 3:00:00 PM 18.82 65.876 0.065 7.56 3.07 9.38
6/24/2022 3:15:00 PM 18.87 65.966 0.065 7.52 3.08 9.33
6/24/2022 3:30:00 PM 18.97 66.146 0.065 7.52 3.15 9.28
6/24/2022 3:45:00 PM 19.02 66.236 0.066 7.5 3.3 9.23
6/24/2022 4:00:00 PM 19.01 66.218 0.067 7.5 3.04 9.22
6/24/2022 4:15:00 PM 19.1 66.38 0.068 7.48 3.09 9.21
6/24/2022 4:30:00 PM 19.14 66.452 0.068 7.48 3.28 9.17
6/24/2022 4:45:00 PM 19.16 66.488 0.068 7.47 3.06 9.15
6/24/2022 5:00:00 PM 19.21 66.578 0.067 7.46 3.15 9.16
6/24/2022 5:15:00 PM 19.22 66.596 0.067 7.46 3.15 9.15
6/24/2022 5:30:00 PM 19.18 66.524 0.067 7.44 3.19 9.11
6/24/2022 5:45:00 PM 19.11 66.398 0.067 7.42 3.27 9.08
6/24/2022 6:00:00 PM 18.99 66.182 0.067 7.4 3.15 9.04
6/24/2022 6:15:00 PM 18.88 65.984 0.067 7.37 3.14 9.02
6/24/2022 6:30:00 PM 18.79 65.82201 0.067 7.34 3.22 9
6/24/2022 6:45:00 PM 18.69 65.642 0.067 7.33 3.08 8.98
6/24/2022 7:00:00 PM 18.57 65.426 0.067 7.31 3.27 8.96
6/24/2022 7:15:00 PM 18.45 65.21 0.067 7.29 3.27 8.95
6/24/2022 7:30:00 PM 18.32 64.976 0.067 7.27 3.27 8.94
6/24/2022 7:45:00 PM 18.19 64.742 0.067 7.23 3.21 8.95
6/24/2022 8:00:00 PM 18.07 64.526 0.067 7.23 3.45 8.94
6/24/2022 8:15:00 PM 17.95 64.31 0.067 7.15 3.28 8.94
6/24/2022 8:30:00 PM 17.85 64.13 0.067 7.2 3.24 8.94
6/24/2022 8:45:00 PM 17.74 63.932 0.067 7.18 3.36 8.93
6/24/2022 9:00:00 PM 17.64 63.752 0.067 7.18 3.36 8.92
6/24/2022 9:15:00 PM 17.54 63.572 0.067 7.11 3.48 8.92
6/24/2022 9:30:00 PM 17.43 63.374 0.067 7.15 3.82 8.93
6/24/2022 9:45:00 PM 17.33 63.194 0.068 7.14 3.83 8.94
6/24/2022 10:00:00 PM 17.23 63.014 0.068 7.13 3.51 8.96
6/24/2022 10:15:00 PM 17.12 62.816 0.068 7.15 3.79 8.98
6/24/2022 10:30:00 PM 17.02 62.636 0.068 7.15 3.46 9
6/24/2022 10:45:00 PM 16.92 62.456 0.068 7.14 3.6 9.03
6/24/2022 11:00:00 PM 16.82 62.276 0.068 7.13 3.61 9.04
6/24/2022 11:15:00 PM 16.73 62.114 0.068 7.13 3.64 9.07
6/24/2022 11:30:00 PM 16.63 61.934 0.068 7.13 3.46 9.09
6/24/2022 11:45:00 PM 16.53 61.754 0.068 7.14 3.66 9.11
6/25/2022 12:00:00 AM 16.43 61.574 0.068 7.14 3.63 9.14
6/25/2022 12:15:00 AM 16.34 61.412 0.068 7.12 3.77 9.15
6/25/2022 12:30:00 AM 16.24 61.232 0.068 7.13 3.63 9.18
6/25/2022 12:45:00 AM 16.15 61.07 0.068 7.15 3.42 9.2
6/25/2022 1:00:00 AM 16.06 60.908 0.069 7.16 3.55 9.22
6/25/2022 1:15:00 AM 15.97 60.746 0.069 7.15 3.67 9.24
6/25/2022 1:30:00 AM 15.88 60.584 0.069 7.14 3.46 9.26
6/25/2022 1:45:00 AM 15.8 60.44 0.069 7.17 3.53 9.28
6/25/2022 2:00:00 AM 15.72 60.296 0.069 7.17 3.51 9.3
6/25/2022 2:15:00 AM 15.64 60.152 0.069 7.16 3.72 9.32
6/25/2022 2:30:00 AM 15.56 60.008 0.069 7.16 3.39 9.33
6/25/2022 2:45:00 AM 15.48 59.864 0.069 7.11 3.44 9.35
6/25/2022 3:00:00 AM 15.4 59.72 0.069 7.16 3.7 9.37
6/25/2022 3:15:00 AM 15.33 59.594 0.069 7.15 3.71 9.38
6/25/2022 3:30:00 AM 15.26 59.468 0.069 7.14 3.5 9.41
6/25/2022 3:45:00 AM 15.19 59.342 0.069 7.15 3.36 9.42
6/25/2022 4:00:00 AM 15.12 59.216 0.069 7.15 3.43 9.43
6/25/2022 4:15:00 AM 15.05 59.09 0.069 7.12 3.52 9.45
6/25/2022 4:30:00 AM 14.98 58.964 0.069 7.16 3.38 9.46
6/25/2022 4:45:00 AM 14.91 58.838 0.069 7.16 3.51 9.48
6/25/2022 5:00:00 AM 14.83 58.694 0.069 7.16 3.48 9.5
6/25/2022 5:15:00 AM 14.76 58.568 0.069 7.15 3.56 9.51
6/25/2022 5:30:00 AM 14.69 58.442 0.069 7.16 3.58 9.53
6/25/2022 5:45:00 AM 14.63 58.334 0.069 7.14 3.44 9.56
6/25/2022 6:00:00 AM 14.57 58.226 0.069 7.14 3.64 9.59
6/25/2022 6:15:00 AM 14.51 58.118 0.069 7.17 3.38 9.63
6/25/2022 6:30:00 AM 14.45 58.01 0.069 7.17 3.41 9.67
6/25/2022 6:45:00 AM 14.4 57.92 0.069 7.18 3.45 9.71
6/25/2022 7:00:00 AM 14.36 57.848 0.069 7.2 3.14 9.76
6/25/2022 7:15:00 AM 14.34 57.812 0.069 7.14 3.26 9.81
6/25/2022 7:30:00 AM 14.33 57.794 0.069 7.22 3.09 9.85
6/25/2022 7:45:00 AM 14.34 57.812 0.069 7.24 3.05 9.89
6/25/2022 8:00:00 AM 14.35 57.83 0.069 7.22 3.1 9.93
6/25/2022 8:15:00 AM 14.38 57.884 0.069 7.27 3.33 9.97
6/25/2022 8:30:00 AM 14.43 57.974 0.069 7.28 3.18 10
6/25/2022 8:45:00 AM 14.5 58.1 0.069 7.27 3.36 10.03
6/25/2022 9:00:00 AM 14.6 58.28 0.069 7.32 2.93 10.05
6/25/2022 9:15:00 AM 14.72 58.496 0.069 7.34 3.04 10.07
6/25/2022 9:30:00 AM 14.87 58.766 0.069 7.36 2.87 10.08
6/25/2022 9:45:00 AM 15.04 59.072 0.069 7.37 3.04 10.09
6/25/2022 10:00:00 AM 15.21 59.378 0.069 7.4 2.77 10.09
6/25/2022 10:15:00 AM 15.4 59.72 0.069 7.35 2.76 10.08
6/25/2022 10:30:00 AM 15.61 60.098 0.069 7.42 2.98 10.06
6/25/2022 10:45:00 AM 15.84 60.512 0.069 7.42 2.57 10.05
6/25/2022 11:00:00 AM 16.07 60.926 0.069 7.47 2.82 10.03
6/25/2022 11:15:00 AM 16.32 61.376 0.069 7.49 2.79 10
6/25/2022 11:30:00 AM 16.58 61.844 0.069 7.48 2.9 9.97
6/25/2022 11:45:00 AM 16.86 62.348 0.069 7.49 2.75 9.92
6/25/2022 12:00:00 PM 17.15 62.87 0.069 7.53 2.79 9.87
6/25/2022 12:15:00 PM 17.46 63.428 0.069 7.55 2.58 9.83
6/25/2022 12:30:00 PM 17.76 63.968 0.069 7.54 2.47 9.78
6/25/2022 12:45:00 PM 18.05 64.49 0.069 7.56 2.57 9.71
6/25/2022 1:00:00 PM 18.33 64.994 0.069 7.58 2.8 9.66
6/25/2022 1:15:00 PM 18.62 65.516 0.069 7.59 2.65 9.61
6/25/2022 1:30:00 PM 18.89 66.002 0.069 7.56 2.53 9.55
6/25/2022 1:45:00 PM 19.13 66.434 0.069 7.6 2.6 9.48
6/25/2022 2:00:00 PM 19.37 66.866 0.069 7.58 2.38 9.42
6/25/2022 2:15:00 PM 19.57 67.226 0.069 7.58 2.47 9.35
6/25/2022 2:30:00 PM 19.75 67.55 0.069 7.54 2.53 9.31
6/25/2022 2:45:00 PM 19.92 67.856 0.069 7.57 2.46 9.25
6/25/2022 3:00:00 PM 20.06 68.108 0.069 7.57 2.54 9.2
6/25/2022 3:15:00 PM 20.18 68.324 0.069 7.57 2.58 9.15
6/25/2022 3:30:00 PM 20.29 68.522 0.069 7.53 2.67 9.09
6/25/2022 3:45:00 PM 20.38 68.684 0.069 7.53 2.48 9.06
6/25/2022 4:00:00 PM 20.45 68.81 0.069 7.52 2.51 9.01
6/25/2022 4:15:00 PM 20.49 68.882 0.069 7.5 2.47 8.96
6/25/2022 4:30:00 PM 20.53 68.954 0.069 7.46 2.59 8.94
6/25/2022 4:45:00 PM 20.54 68.972 0.07 7.47 2.51 8.91
6/25/2022 5:00:00 PM 20.53 68.954 0.07 7.4 2.53 8.88
6/25/2022 5:15:00 PM 20.52 68.936 0.07 7.45 2.85 8.85
6/25/2022 5:30:00 PM 20.48 68.864 0.07 7.43 2.68 8.82
6/25/2022 5:45:00 PM 20.43 68.774 0.07 7.41 2.59 8.8
6/25/2022 6:00:00 PM 20.36 68.648 0.07 7.38 2.53 8.76
6/25/2022 6:15:00 PM 20.29 68.522 0.07 7.38 2.58 8.74
6/25/2022 6:30:00 PM 20.21 68.378 0.07 7.27 2.62 8.71
6/25/2022 6:45:00 PM 20.11 68.198 0.071 7.33 2.57 8.67
6/25/2022 7:00:00 PM 19.99 67.982 0.071 7.23 2.55 8.64
6/25/2022 7:15:00 PM 19.87 67.766 0.071 7.26 2.58 8.63
6/25/2022 7:30:00 PM 19.74 67.532 0.071 7.26 2.72 8.63
6/25/2022 7:45:00 PM 19.6 67.28 0.071 7.26 2.69 8.61
6/25/2022 8:00:00 PM 19.46 67.028 0.071 7.25 2.82 8.61
6/25/2022 8:15:00 PM 19.32 66.776 0.071 7.24 2.67 8.6
6/25/2022 8:30:00 PM 19.19 66.542 0.071 7.23 2.62 8.6
6/25/2022 8:45:00 PM 19.05 66.29 0.072 7.21 2.57 8.58
6/25/2022 9:00:00 PM 18.93 66.074 0.072 7.18 2.9 8.58
6/25/2022 9:15:00 PM 18.8 65.84 0.072 7.19 2.81 8.59
6/25/2022 9:30:00 PM 18.68 65.624 0.072 7.19 2.83 8.6
6/25/2022 9:45:00 PM 18.56 65.408 0.072 7.18 3.09 8.62
6/25/2022 10:00:00 PM 18.43 65.174 0.072 7.14 2.78 8.63
6/25/2022 10:15:00 PM 18.32 64.976 0.072 7.17 2.52 8.65
6/25/2022 10:30:00 PM 18.2 64.76 0.072 7.15 2.82 8.68
6/25/2022 10:45:00 PM 18.08 64.544 0.072 7.16 2.91 8.71
6/25/2022 11:00:00 PM 17.97 64.346 0.072 7.17 2.99 8.74
6/25/2022 11:15:00 PM 17.85 64.13 0.072 7.15 2.74 8.76
6/25/2022 11:30:00 PM 17.73 63.914 0.072 7.15 2.67 8.78
6/25/2022 11:45:00 PM 17.62 63.716 0.072 7.15 3.4 8.81
6/26/2022 12:00:00 AM 17.51 63.518 0.072 7.16 3 8.84
6/26/2022 12:15:00 AM 17.41 63.338 0.072 7.14 2.73 8.86
6/26/2022 12:30:00 AM 17.3 63.14 0.072 7.15 2.74 8.88
6/26/2022 12:45:00 AM 17.2 62.96 0.072 7.15 2.9 8.9
6/26/2022 1:00:00 AM 17.1 62.78 0.072 7.16 3.04 8.93
6/26/2022 1:15:00 AM 17 62.6 0.073 7.15 2.74 8.94
6/26/2022 1:30:00 AM 16.9 62.42 0.072 7.13 2.81 8.97
6/26/2022 1:45:00 AM 16.82 62.276 0.072 7.16 2.74 8.98
6/26/2022 2:00:00 AM 16.73 62.114 0.073 7.15 2.8 9.01
6/26/2022 2:15:00 AM 16.65 61.97 0.073 7.16 3.02 9.03
6/26/2022 2:30:00 AM 16.56 61.808 0.073 7.15 2.99 9.05
6/26/2022 2:45:00 AM 16.48 61.664 0.073 7.16 2.91 9.07
6/26/2022 3:00:00 AM 16.4 61.52 0.072 7.16 2.96 9.07
6/26/2022 3:15:00 AM 16.34 61.412 0.072 7.15 2.76 9.09
6/26/2022 3:30:00 AM 16.26 61.268 0.073 7.15 2.98 9.1
6/26/2022 3:45:00 AM 16.2 61.16 0.072 7.16 2.75 9.13
6/26/2022 4:00:00 AM 16.13 61.034 0.072 7.16 2.79 9.14
6/26/2022 4:15:00 AM 16.06 60.908 0.072 7.13 3.07 9.15
6/26/2022 4:30:00 AM 16 60.8 0.073 7.13 2.95 9.17
6/26/2022 4:45:00 AM 15.93 60.674 0.072 7.16 2.83 9.19
6/26/2022 5:00:00 AM 15.87 60.566 0.073 7.14 2.75 9.2
6/26/2022 5:15:00 AM 15.8 60.44 0.073 7.12 3.07 9.22
6/26/2022 5:30:00 AM 15.74 60.332 0.073 7.15 2.72 9.23
6/26/2022 5:45:00 AM 15.67 60.206 0.073 7.07 3.03 9.25
6/26/2022 6:00:00 AM 15.62 60.116 0.073 7.15 2.84 9.3
6/26/2022 6:15:00 AM 15.57 60.026 0.073 7.16 2.66 9.34
6/26/2022 6:30:00 AM 15.52 59.936 0.073 7.16 2.96 9.4
6/26/2022 6:45:00 AM 15.48 59.864 0.072 7.17 2.81 9.44
6/26/2022 7:00:00 AM 15.45 59.81 0.073 7.2 2.76 9.51
6/26/2022 7:15:00 AM 15.43 59.774 0.073 7.14 2.65 9.56
6/26/2022 7:30:00 AM 15.43 59.774 0.072 7.21 2.83 9.63
6/26/2022 7:45:00 AM 15.45 59.81 0.072 7.24 2.75 9.67
6/26/2022 8:00:00 AM 15.48 59.864 0.072 7.26 2.84 9.71
6/26/2022 8:15:00 AM 15.52 59.936 0.072 7.19 2.9 9.75
6/26/2022 8:30:00 AM 15.61 60.098 0.072 7.29 2.65 9.8
6/26/2022 8:45:00 AM 15.68 60.224 0.072 7.29 2.62 9.82
6/26/2022 9:00:00 AM 15.78 60.404 0.072 7.31 2.86 9.88
6/26/2022 9:15:00 AM 15.91 60.638 0.072 7.36 2.56 9.9
6/26/2022 9:30:00 AM 16.08 60.944 0.072 7.38 3 9.92
6/26/2022 9:45:00 AM 16.28 61.304 0.072 7.35 3.22 9.92
6/26/2022 10:00:00 AM 16.49 61.682 0.072 7.43 2.44 9.91
6/26/2022 10:15:00 AM 16.7 62.06 0.072 7.46 2.45 9.9
6/26/2022 10:30:00 AM 16.96 62.528 0.072 7.49 2.61 9.9
6/26/2022 10:45:00 AM 17.23 63.014 0.072 7.5 2.77 9.86
6/26/2022 11:00:00 AM 17.5 63.5 0.072 7.56 2.44 9.85
6/26/2022 11:15:00 AM 17.72 63.896 0.072 7.59 2.22 9.83
6/26/2022 11:30:00 AM 18 64.4 0.072 7.6 2.75 9.81
6/26/2022 11:45:00 AM 18.2 64.76 0.072 7.65 2.43 9.77
6/26/2022 12:00:00 PM 18.42 65.156 0.072 7.64 2.43 9.71
6/26/2022 12:15:00 PM 18.72 65.696 0.072 7.68 2.28 9.71
6/26/2022 12:30:00 PM 19.06 66.308 0.072 7.7 2.52 9.67
6/26/2022 12:45:00 PM 19.41 66.938 0.072 7.71 2.4 9.62
6/26/2022 1:00:00 PM 19.71 67.478 0.072 7.73 2.4 9.55
6/26/2022 1:15:00 PM 19.98 67.964 0.072 7.78 2.28 9.49
6/26/2022 1:30:00 PM 20.22 68.396 0.072 7.76 2.25 9.42
6/26/2022 1:45:00 PM 20.49 68.882 0.072 7.74 2.32 9.36
6/26/2022 2:00:00 PM 20.63 69.134 0.072 7.71 2.62 9.28
6/26/2022 2:15:00 PM 20.79 69.422 0.072 7.74 2.58 9.21
6/26/2022 2:30:00 PM 21.02 69.836 0.072 7.75 2.18 9.15
6/26/2022 2:45:00 PM 21.25 70.25 0.072 7.72 2.35 9.07
6/26/2022 3:00:00 PM 21.46 70.628 0.072 7.7 2.22 9
6/26/2022 3:15:00 PM 21.66 70.988 0.072 7.7 2.42 8.94
6/26/2022 3:30:00 PM 21.87 71.366 0.072 7.69 2.58 8.91
6/26/2022 3:45:00 PM 22.04 71.672 0.072 7.66 2.1 8.87
6/26/2022 4:00:00 PM 22.17 71.906 0.072 7.71 2.18 8.83
6/26/2022 4:15:00 PM 22.25 72.05 0.072 7.69 2.28 8.82
6/26/2022 4:30:00 PM 22.32 72.176 0.072 7.69 2.44 8.79
6/26/2022 4:45:00 PM 22.33 72.194 0.072 7.64 2.24 8.73
6/26/2022 5:00:00 PM 22.29 72.122 0.073 7.61 2.45 8.67
6/26/2022 5:15:00 PM 22.15 71.87 0.073 7.57 2.43 8.65
6/26/2022 5:30:00 PM 22.05 71.69 0.073 7.58 2.37 8.7
6/26/2022 5:45:00 PM 21.99 71.582 0.073 7.58 2.62 8.74
6/26/2022 6:00:00 PM 21.96 71.528 0.073 7.59 2.4 8.75
6/26/2022 6:15:00 PM 21.84 71.312 0.073 7.51 2.23 8.66
6/26/2022 6:30:00 PM 21.7 71.06 0.073 7.48 3.36 8.58
6/26/2022 6:45:00 PM 21.61 70.898 0.073 7.43 2.54 8.5
6/26/2022 7:00:00 PM 21.58 70.844 0.073 7.38 2.51 8.42
6/26/2022 7:15:00 PM 21.52 70.736 0.074 7.36 2.29 8.31
6/26/2022 7:30:00 PM 21.41 70.538 0.074 7.3 2.48 8.21
6/26/2022 7:45:00 PM 21.28 70.304 0.074 7.25 2.36 8.16
6/26/2022 8:00:00 PM 21.17 70.106 0.074 7.26 2.48 8.17
6/26/2022 8:15:00 PM 21.05 69.89 0.075 7.25 2.34 8.13
6/26/2022 8:30:00 PM 20.93 69.674 0.075 7.23 2.49 8.12
6/26/2022 8:45:00 PM 20.82 69.476 0.075 7.23 2.41 8.13
6/26/2022 9:00:00 PM 20.7 69.26 0.075 7.17 2.72 8.13
6/26/2022 9:15:00 PM 20.57 69.026 0.075 7.18 2.36 8.12
6/26/2022 9:30:00 PM 20.48 68.864 0.075 7.18 2.5 8.14
6/26/2022 9:45:00 PM 20.38 68.684 0.075 7.17 2.72 8.16
6/26/2022 10:00:00 PM 20.29 68.522 0.075 7.19 2.56 8.17
6/26/2022 10:15:00 PM 20.18 68.324 0.075 7.18 2.78 8.18
6/26/2022 10:30:00 PM 20.1 68.18 0.075 7.18 2.79 8.22
6/26/2022 10:45:00 PM 19.98 67.964 0.075 7.15 2.64 8.21
6/26/2022 11:00:00 PM 19.9 67.82 0.075 7.16 2.82 8.25
6/26/2022 11:15:00 PM 19.79 67.622 0.075 7.15 2.63 8.26
6/26/2022 11:30:00 PM 19.7 67.46 0.076 7.16 2.79 8.28
6/26/2022 11:45:00 PM 19.62 67.316 0.076 7.16 2.73 8.3
6/27/2022 12:00:00 AM 19.52 67.136 0.076 7.16 2.55 8.31
6/27/2022 12:15:00 AM 19.45 67.01 0.076 7.17 2.69 8.32
6/27/2022 12:30:00 AM 19.37 66.866 0.076 7.17 2.51 8.35
6/27/2022 12:45:00 AM 19.29 66.722 0.076 7.17 2.5 8.37
6/27/2022 1:00:00 AM 19.23 66.614 0.076 7.17 2.83 8.39
6/27/2022 1:15:00 AM 19.16 66.488 0.076 7.16 2.8 8.38
6/27/2022 1:30:00 AM 19.09 66.362 0.076 7.17 2.66 8.41
6/27/2022 1:45:00 AM 19.04 66.272 0.076 7.17 2.73 8.42
6/27/2022 2:00:00 AM 18.98 66.164 0.076 7.15 2.65 8.43
6/27/2022 2:15:00 AM 18.93 66.074 0.076 7.17 2.72 8.45
6/27/2022 2:30:00 AM 18.87 65.966 0.076 7.19 2.86 8.46
6/27/2022 2:45:00 AM 18.82 65.876 0.076 7.17 2.75 8.46
6/27/2022 3:00:00 AM 18.78 65.804 0.076 7.18 2.51 8.47
6/27/2022 3:15:00 AM 18.74 65.732 0.076 7.18 2.7 8.49
6/27/2022 3:30:00 AM 18.7 65.66 0.076 7.12 2.56 8.48
6/27/2022 3:45:00 AM 18.67 65.606 0.076 7.2 2.75 8.5
6/27/2022 4:00:00 AM 18.63 65.534 0.076 7.19 2.67 8.51
6/27/2022 4:15:00 AM 18.59 65.462 0.076 7.19 2.87 8.52
6/27/2022 4:30:00 AM 18.55 65.39 0.076 7.19 2.83 8.53
6/27/2022 4:45:00 AM 18.52 65.336 0.076 7.18 2.7 8.54
6/27/2022 5:00:00 AM 18.49 65.282 0.076 7.19 2.63 8.53
6/27/2022 5:15:00 AM 18.46 65.228 0.076 7.14 2.89 8.53
6/27/2022 5:30:00 AM 18.42 65.156 0.076 7.18 2.58 8.54
6/27/2022 5:45:00 AM 18.39 65.102 0.076 7.18 2.71 8.56
6/27/2022 6:00:00 AM 18.36 65.048 0.077 7.17 2.66 8.55
6/27/2022 6:15:00 AM 18.34 65.012 0.076 7.14 2.91 8.57
6/27/2022 6:30:00 AM 18.3 64.94 0.076 7.16 2.93 8.58
6/27/2022 6:45:00 AM 18.29 64.922 0.076 7.18 2.97 8.61
6/27/2022 7:00:00 AM 18.26 64.868 0.076 7.18 3.01 8.65
6/27/2022 7:15:00 AM 18.25 64.85 0.076 7.21 2.62 8.71
6/27/2022 7:30:00 AM 18.22 64.796 0.076 7.19 2.62 8.73
6/27/2022 7:45:00 AM 18.22 64.796 0.076 7.21 2.89 8.78
6/27/2022 8:00:00 AM 18.22 64.796 0.076 7.22 2.66 8.88
6/27/2022 8:15:00 AM 18.21 64.778 0.076 7.25 2.95 8.88
6/27/2022 8:30:00 AM 18.18 64.724 0.076 7.21 2.72 8.91
6/27/2022 8:45:00 AM 18.16 64.688 0.076 7.27 2.77 8.9
6/27/2022 9:00:00 AM 18.11 64.598 0.076 7.27 2.7 8.92
6/27/2022 9:15:00 AM 18.1 64.58 0.076 7.3 2.91 8.99
6/27/2022 9:30:00 AM 18.08 64.544 0.076 7.32 2.49 9.09
6/27/2022 9:45:00 AM 18.09 64.562 0.075 7.38 2.79 9.25
6/27/2022 10:00:00 AM 18.1 64.58 0.075 7.42 2.76 9.37
6/27/2022 10:15:00 AM 18.11 64.598 0.075 7.46 2.81 9.48
6/27/2022 10:3